Time,TemperatureF,DewpointF,PressureIn,WindDirection,WindDirectionDegrees,WindSpeedMPH,WindSpeedGustMPH,Humidity,HourlyPrecipIn,Conditions,Clouds,dailyrainin,SolarRadiationWatts/m^2,SoftwareType,DateUTC
2013-04-11 00:00:00,69.9,58.9,29.81,WSW,252,0.0,1.0,68,0.00,,---,0.00,0.00,VWS V14.01,2013-04-11 04:00:00,
2013-04-11 00:01:00,69.9,58.9,29.81,WSW,252,0.0,1.0,68,0.00,,---,0.00,0.00,VWS V14.01,2013-04-11 04:01:00,
2013-04-11 00:02:00,69.9,58.5,29.81,WSW,252,0.0,1.0,67,0.00,,---,0.00,0.00,VWS V14.01,2013-04-11 04:02:00,
2013-04-11 00:03:00,69.5,58.5,29.81,WSW,243,0.0,2.0,68,0.00,,---,0.00,0.00,VWS V14.01,2013-04-11 04:03:00,
2013-04-11 00:05:00,69.4,58.4,29.81,WSW,243,0.0,2.0,68,0.00,,---,0.00,0.00,VWS V14.01,2013-04-11 04:05:00,
2013-04-11 00:06:00,69.4,58.4,29.81,WSW,243,0.0,2.0,68,0.00,,---,0.00,0.00,VWS V14.01,2013-04-11 04:06:00,
2013-04-11 00:07:00,69.9,58.9,29.81,WSW,252,0.0,1.0,68,0.00,,---,0.00,0.00,VWS V14.01,2013-04-11 04:07:00,
2013-04-11 00:08:00,69.3,58.3,29.81,SSW,198,0.0,2.0,68,0.00,,---,0.00,0.00,VWS V14.01,2013-04-11 04:08:00,
2013-04-11 00:09:00,69.2,58.2,29.81,SSW,198,0.0,2.0,68,0.00,,---,0.00,0.00,VWS V14.01,2013-04-11 04:09:00,
2013-04-11 00:10:00,69.2,58.2,29.81,SSW,198,0.0,1.0,68,0.00,,---,0.00,0.00,VWS V14.01,2013-04-11 04:10:00,
2013-04-11 00:12:00,69.5,58.5,29.81,WSW,243,1.0,2.0,68,0.00,,---,0.00,0.00,VWS V14.01,2013-04-11 04:12:00,
2013-04-11 00:13:00,69.0,58.0,29.81,SSW,198,1.0,2.0,68,0.00,,---,0.00,0.00,VWS V14.01,2013-04-11 04:13:00,
2013-04-11 00:14:00,68.9,58.3,29.81,SSW,198,1.0,2.0,69,0.00,,---,0.00,0.00,VWS V14.01,2013-04-11 04:14:00,
2013-04-11 00:15:00,68.8,58.2,29.81,SSW,198,0.0,2.0,69,0.00,,---,0.00,0.00,VWS V14.01,2013-04-11 04:15:00,
2013-04-11 00:16:00,68.8,58.2,29.81,SSW,198,0.0,2.0,69,0.00,,---,0.00,0.00,VWS V14.01,2013-04-11 04:16:00,
2013-04-11 00:17:00,68.8,58.2,29.81,SSW,198,0.0,2.0,69,0.00,,---,0.00,0.00,VWS V14.01,2013-04-11 04:17:00,
2013-04-11 00:18:00,69.3,58.3,29.81,SSW,198,0.0,2.0,68,0.00,,---,0.00,0.00,VWS V14.01,2013-04-11 04:18:00,
2013-04-11 00:19:00,68.6,58.4,29.81,SSW,198,0.0,2.0,70,0.00,,---,0.00,0.00,VWS V14.01,2013-04-11 04:19:00,
2013-04-11 00:20:00,68.5,58.3,29.81,SSW,198,0.0,1.0,70,0.00,,---,0.00,0.00,VWS V14.01,2013-04-11 04:20:00,
2013-04-11 00:21:00,68.4,58.2,29.81,SSW,198,0.0,1.0,70,0.00,,---,0.00,0.00,VWS V14.01,2013-04-11 04:21:00,
2013-04-11 00:23:00,68.9,57.9,29.81,SSW,198,0.0,2.0,68,0.00,,---,0.00,0.00,VWS V14.01,2013-04-11 04:23:00,
2013-04-11 00:26:00,67.9,57.8,29.81,SSW,198,0.0,1.0,70,0.00,,---,0.00,0.00,VWS V14.01,2013-04-11 04:26:00,
2013-04-11 00:28:00,68.7,58.1,29.81,SSW,198,0.0,2.0,69,0.00,,---,0.00,0.00,VWS V14.01,2013-04-11 04:28:00,
2013-04-11 00:29:00,67.7,57.6,29.81,SSW,198,0.0,1.0,70,0.00,,---,0.00,0.00,VWS V14.01,2013-04-11 04:29:00,
2013-04-11 00:30:00,67.6,57.5,29.81,SSW,198,0.0,0.0,70,0.00,,---,0.00,0.00,VWS V14.01,2013-04-11 04:30:00,
2013-04-11 00:31:00,67.6,57.5,29.81,SSW,198,0.0,0.0,70,0.00,,---,0.00,0.00,VWS V14.01,2013-04-11 04:31:00,
2013-04-11 00:33:00,68.1,58.0,29.81,SSW,198,0.0,1.0,70,0.00,,---,0.00,0.00,VWS V14.01,2013-04-11 04:33:00,
2013-04-11 00:34:00,67.4,57.3,29.81,SSW,198,0.0,1.0,70,0.00,,---,0.00,0.00,VWS V14.01,2013-04-11 04:34:00,
2013-04-11 00:35:00,67.4,57.3,29.81,SSW,198,0.0,1.0,70,0.00,,---,0.00,0.00,VWS V14.01,2013-04-11 04:35:00,
2013-04-11 00:36:00,67.3,57.2,29.81,SSW,198,0.0,1.0,70,0.00,,---,0.00,0.00,VWS V14.01,2013-04-11 04:36:00,
2013-04-11 00:37:00,67.2,57.1,29.81,SSW,198,0.0,1.0,70,0.00,,---,0.00,0.00,VWS V14.01,2013-04-11 04:37:00,
2013-04-11 00:38:00,67.7,57.6,29.81,SSW,198,0.0,1.0,70,0.00,,---,0.00,0.00,VWS V14.01,2013-04-11 04:38:00,
2013-04-11 00:39:00,67.2,57.1,29.81,SSW,198,0.0,1.0,70,0.00,,---,0.00,0.00,VWS V14.01,2013-04-11 04:39:00,
2013-04-11 00:40:00,67.2,57.1,29.81,SSW,198,0.0,0.0,70,0.00,,---,0.00,0.00,VWS V14.01,2013-04-11 04:40:00,
2013-04-11 00:42:00,67.2,57.1,29.81,SSW,198,0.0,0.0,70,0.00,,---,0.00,0.00,VWS V14.01,2013-04-11 04:42:00,
2013-04-11 00:43:00,67.4,57.3,29.81,SSW,198,0.0,1.0,70,0.00,,---,0.00,0.00,VWS V14.01,2013-04-11 04:43:00,
2013-04-11 00:44:00,67.2,57.1,29.81,SSW,198,0.0,0.0,70,0.00,,---,0.00,0.00,VWS V14.01,2013-04-11 04:44:00,
2013-04-11 00:45:00,67.3,57.2,29.81,SSW,198,0.0,0.0,70,0.00,,---,0.00,0.00,VWS V14.01,2013-04-11 04:45:00,
2013-04-11 00:46:00,67.3,57.2,29.80,SSW,198,0.0,1.0,70,0.00,,---,0.00,0.00,VWS V14.01,2013-04-11 04:46:00,
2013-04-11 00:47:00,67.3,57.2,29.81,SSW,198,0.0,1.0,70,0.00,,---,0.00,0.00,VWS V14.01,2013-04-11 04:47:00,
2013-04-11 00:48:00,67.2,57.1,29.81,SSW,198,0.0,1.0,70,0.00,,---,0.00,0.00,VWS V14.01,2013-04-11 04:48:00,
2013-04-11 00:49:00,67.4,57.3,29.80,SSW,198,0.0,1.0,70,0.00,,---,0.00,0.00,VWS V14.01,2013-04-11 04:49:00,
2013-04-11 00:50:00,67.4,57.3,29.80,SSW,198,0.0,0.0,70,0.00,,---,0.00,0.00,VWS V14.01,2013-04-11 04:50:00,
2013-04-11 00:51:00,67.4,57.3,29.81,SSW,198,0.0,0.0,70,0.00,,---,0.00,0.00,VWS V14.01,2013-04-11 04:51:00,
2013-04-11 00:52:00,67.4,56.9,29.81,SSW,198,0.0,0.0,69,0.00,,---,0.00,0.00,VWS V14.01,2013-04-11 04:52:00,
2013-04-11 00:53:00,67.2,57.1,29.81,SSW,198,0.0,0.0,70,0.00,,---,0.00,0.00,VWS V14.01,2013-04-11 04:53:00,
2013-04-11 00:54:00,67.5,57.0,29.80,SSW,198,0.0,0.0,69,0.00,,---,0.00,0.00,VWS V14.01,2013-04-11 04:54:00,
2013-04-11 00:55:00,67.5,57.0,29.80,SSW,198,0.0,0.0,69,0.00,,---,0.00,0.00,VWS V14.01,2013-04-11 04:55:00,
2013-04-11 00:56:00,67.6,57.1,29.81,SSW,198,0.0,0.0,69,0.00,,---,0.00,0.00,VWS V14.01,2013-04-11 04:56:00,
2013-04-11 00:57:00,67.6,57.1,29.80,SW,236,1.0,2.0,69,0.00,,---,0.00,0.00,VWS V14.01,2013-04-11 04:57:00,
2013-04-11 00:58:00,67.4,57.3,29.80,SSW,198,0.0,1.0,70,0.00,,---,0.00,0.00,VWS V14.01,2013-04-11 04:58:00,
2013-04-11 00:59:00,67.6,57.1,29.80,SW,236,0.0,2.0,69,0.00,,---,0.00,0.00,VWS V14.01,2013-04-11 04:59:00,
2013-04-11 01:00:00,67.6,57.1,29.80,SW,236,0.0,0.0,69,0.00,,---,0.00,0.00,VWS V14.01,2013-04-11 05:00:00,
2013-04-11 01:01:00,67.6,57.1,29.80,SW,236,0.0,1.0,69,0.00,,---,0.00,0.00,VWS V14.01,2013-04-11 05:01:00,
2013-04-11 01:02:00,67.6,57.1,29.80,SW,231,1.0,1.0,69,0.00,,---,0.00,0.00,VWS V14.01,2013-04-11 05:02:00,
2013-04-11 01:03:00,67.5,57.4,29.80,SSW,198,0.0,0.0,70,0.00,,---,0.00,0.00,VWS V14.01,2013-04-11 05:03:00,
2013-04-11 01:04:00,67.6,57.1,29.80,SW,230,0.0,2.0,69,0.00,,---,0.00,0.00,VWS V14.01,2013-04-11 05:04:00,
2013-04-11 01:05:00,67.6,57.1,29.80,SW,230,0.0,2.0,69,0.00,,---,0.00,0.00,VWS V14.01,2013-04-11 05:05:00,
2013-04-11 01:06:00,67.6,57.1,29.80,SSW,201,0.0,2.0,69,0.00,,---,0.00,0.00,VWS V14.01,2013-04-11 05:06:00,
2013-04-11 01:07:00,67.5,57.0,29.80,SSW,201,0.0,2.0,69,0.00,,---,0.00,0.00,VWS V14.01,2013-04-11 05:07:00,
2013-04-11 01:08:00,67.6,57.1,29.80,SW,236,0.0,2.0,69,0.00,,---,0.00,0.00,VWS V14.01,2013-04-11 05:08:00,
2013-04-11 01:09:00,67.5,57.0,29.80,SSW,201,0.0,2.0,69,0.00,,---,0.00,0.00,VWS V14.01,2013-04-11 05:09:00,
2013-04-11 01:10:00,67.5,57.0,29.81,SSW,201,0.0,0.0,69,0.00,,---,0.00,0.00,VWS V14.01,2013-04-11 05:10:00,
2013-04-11 01:12:00,67.4,56.9,29.80,SSW,201,0.0,0.0,69,0.00,,---,0.00,0.00,VWS V14.01,2013-04-11 05:12:00,
2013-04-11 01:13:00,67.6,57.1,29.80,SW,230,0.0,2.0,69,0.00,,---,0.00,0.00,VWS V14.01,2013-04-11 05:13:00,
2013-04-11 01:14:00,67.3,56.8,29.80,SSW,201,0.0,1.0,69,0.00,,---,0.00,0.00,VWS V14.01,2013-04-11 05:14:00,
2013-04-11 01:15:00,67.3,56.8,29.81,SSW,201,0.0,1.0,69,0.00,,---,0.00,0.00,VWS V14.01,2013-04-11 05:15:00,
2013-04-11 01:16:00,67.2,57.1,29.80,SSW,201,0.0,1.0,70,0.00,,---,0.00,0.00,VWS V14.01,2013-04-11 05:16:00,
2013-04-11 01:18:00,67.5,57.0,29.80,SSW,201,1.0,2.0,69,0.00,,---,0.00,0.00,VWS V14.01,2013-04-11 05:18:00,
2013-04-11 01:19:00,67.1,56.6,29.80,SSW,201,0.0,1.0,69,0.00,,---,0.00,0.00,VWS V14.01,2013-04-11 05:19:00,
2013-04-11 01:20:00,67.0,56.9,29.81,SSW,201,0.0,0.0,70,0.00,,---,0.00,0.00,VWS V14.01,2013-04-11 05:20:00,
2013-04-11 01:21:00,66.9,56.8,29.81,SSW,201,0.0,0.0,70,0.00,,---,0.00,0.00,VWS V14.01,2013-04-11 05:21:00,
2013-04-11 01:22:00,66.9,56.8,29.80,SSW,201,0.0,0.0,70,0.00,,---,0.00,0.00,VWS V14.01,2013-04-11 05:22:00,
2013-04-11 01:23:00,67.3,56.8,29.80,SSW,201,0.0,1.0,69,0.00,,---,0.00,0.00,VWS V14.01,2013-04-11 05:23:00,
2013-04-11 01:24:00,66.8,56.7,29.81,SSW,201,0.0,0.0,70,0.00,,---,0.00,0.00,VWS V14.01,2013-04-11 05:24:00,
2013-04-11 01:25:00,66.7,56.6,29.80,SSW,201,0.0,0.0,70,0.00,,---,0.00,0.00,VWS V14.01,2013-04-11 05:25:00,
2013-04-11 01:27:00,66.6,56.5,29.80,SSW,201,0.0,0.0,70,0.00,,---,0.00,0.00,VWS V14.01,2013-04-11 05:27:00,
2013-04-11 01:28:00,66.6,56.9,29.80,SSW,201,0.0,0.0,71,0.00,,---,0.00,0.00,VWS V14.01,2013-04-11 05:28:00,
2013-04-11 01:29:00,67.1,56.6,29.80,SSW,201,0.0,1.0,69,0.00,,---,0.00,0.00,VWS V14.01,2013-04-11 05:29:00,
2013-04-11 01:30:00,66.4,56.7,29.80,SSW,201,0.0,0.0,71,0.00,,---,0.00,0.00,VWS V14.01,2013-04-11 05:30:00,
2013-04-11 01:31:00,66.3,56.6,29.80,SSW,201,0.0,0.0,71,0.00,,---,0.00,0.00,VWS V14.01,2013-04-11 05:31:00,
2013-04-11 01:32:00,66.2,56.5,29.80,SSW,201,0.0,1.0,71,0.00,,---,0.00,0.00,VWS V14.01,2013-04-11 05:32:00,
2013-04-11 01:33:00,66.1,56.4,29.80,SSW,201,0.0,1.0,71,0.00,,---,0.00,0.00,VWS V14.01,2013-04-11 05:33:00,
2013-04-11 01:34:00,66.7,56.6,29.80,SSW,201,0.0,0.0,70,0.00,,---,0.00,0.00,VWS V14.01,2013-04-11 05:34:00,
2013-04-11 01:35:00,65.9,56.2,29.80,SSW,201,0.0,1.0,71,0.00,,---,0.00,0.00,VWS V14.01,2013-04-11 05:35:00,
2013-04-11 01:36:00,65.8,56.5,29.80,SSW,201,0.0,1.0,72,0.00,,---,0.00,0.00,VWS V14.01,2013-04-11 05:36:00,
2013-04-11 01:37:00,65.8,56.5,29.80,SSW,201,0.0,1.0,72,0.00,,---,0.00,0.00,VWS V14.01,2013-04-11 05:37:00,
2013-04-11 01:38:00,65.7,56.4,29.80,SSW,201,0.0,1.0,72,0.00,,---,0.00,0.00,VWS V14.01,2013-04-11 05:38:00,
2013-04-11 01:39:00,66.5,56.8,29.80,SSW,201,0.0,0.0,71,0.00,,---,0.00,0.00,VWS V14.01,2013-04-11 05:39:00,
2013-04-11 01:40:00,65.5,56.2,29.80,SSW,201,0.0,0.0,72,0.00,,---,0.00,0.00,VWS V14.01,2013-04-11 05:40:00,
2013-04-11 01:41:00,65.4,56.2,29.80,SSW,201,0.0,0.0,72,0.00,,---,0.00,0.00,VWS V14.01,2013-04-11 05:41:00,
2013-04-11 01:42:00,65.4,56.2,29.80,SSW,201,0.0,0.0,72,0.00,,---,0.00,0.00,VWS V14.01,2013-04-11 05:42:00,
2013-04-11 01:44:00,66.0,56.3,29.80,SSW,201,0.0,1.0,71,0.00,,---,0.00,0.00,VWS V14.01,2013-04-11 05:44:00,
2013-04-11 01:45:00,65.3,56.0,29.80,SSW,201,0.0,0.0,72,0.00,,---,0.00,0.00,VWS V14.01,2013-04-11 05:45:00,
2013-04-11 01:46:00,65.3,56.0,29.80,SSW,201,0.0,1.0,72,0.00,,---,0.00,0.00,VWS V14.01,2013-04-11 05:46:00,
2013-04-11 01:47:00,65.3,56.4,29.80,SSW,201,0.0,1.0,73,0.00,,---,0.00,0.00,VWS V14.01,2013-04-11 05:47:00,
2013-04-11 01:49:00,65.6,56.3,29.80,SSW,201,0.0,0.0,72,0.00,,---,0.00,0.00,VWS V14.01,2013-04-11 05:49:00,
2013-04-11 01:50:00,65.4,56.2,29.80,SSW,201,0.0,0.0,72,0.00,,---,0.00,0.00,VWS V14.01,2013-04-11 05:50:00,
2013-04-11 01:51:00,65.4,56.2,29.80,SSW,201,0.0,0.0,72,0.00,,---,0.00,0.00,VWS V14.01,2013-04-11 05:51:00,
2013-04-11 01:52:00,65.5,56.2,29.80,SSW,201,0.0,1.0,72,0.00,,---,0.00,0.00,VWS V14.01,2013-04-11 05:52:00,
2013-04-11 01:53:00,65.5,56.2,29.79,SSW,201,0.0,1.0,72,0.00,,---,0.00,0.00,VWS V14.01,2013-04-11 05:53:00,
2013-04-11 01:54:00,65.3,56.0,29.80,SSW,201,0.0,0.0,72,0.00,,---,0.00,0.00,VWS V14.01,2013-04-11 05:54:00,
2013-04-11 01:55:00,65.5,56.2,29.79,SSW,201,0.0,1.0,72,0.00,,---,0.00,0.00,VWS V14.01,2013-04-11 05:55:00,
2013-04-11 01:57:00,65.5,56.2,29.79,SSW,201,0.0,1.0,72,0.00,,---,0.00,0.00,VWS V14.01,2013-04-11 05:57:00,
2013-04-11 01:59:00,65.4,56.2,29.80,SSW,201,0.0,0.0,72,0.00,,---,0.00,0.00,VWS V14.01,2013-04-11 05:59:00,
2013-04-11 02:00:00,65.5,56.2,29.79,SSW,201,0.0,0.0,72,0.00,,---,0.00,0.00,VWS V14.01,2013-04-11 06:00:00,
2013-04-11 02:01:00,65.4,56.2,29.80,SSW,201,0.0,0.0,72,0.00,,---,0.00,0.00,VWS V14.01,2013-04-11 06:01:00,
2013-04-11 02:02:00,65.4,56.2,29.79,SSW,201,0.0,0.0,72,0.00,,---,0.00,0.00,VWS V14.01,2013-04-11 06:02:00,
2013-04-11 02:03:00,65.4,56.2,29.79,SSW,201,0.0,0.0,72,0.00,,---,0.00,0.00,VWS V14.01,2013-04-11 06:03:00,
2013-04-11 02:04:00,65.5,56.2,29.79,SSW,201,0.0,1.0,72,0.00,,---,0.00,0.00,VWS V14.01,2013-04-11 06:04:00,
2013-04-11 02:05:00,65.3,56.0,29.79,SSW,201,0.0,0.0,72,0.00,,---,0.00,0.00,VWS V14.01,2013-04-11 06:05:00,
2013-04-11 02:06:00,65.2,56.0,29.79,SSW,201,0.0,0.0,72,0.00,,---,0.00,0.00,VWS V14.01,2013-04-11 06:06:00,
2013-04-11 02:07:00,65.2,56.0,29.79,SSW,201,0.0,0.0,72,0.00,,---,0.00,0.00,VWS V14.01,2013-04-11 06:07:00,
2013-04-11 02:08:00,65.2,56.0,29.79,SSW,201,0.0,0.0,72,0.00,,---,0.00,0.00,VWS V14.01,2013-04-11 06:08:00,
2013-04-11 02:09:00,65.5,56.2,29.79,SSW,201,0.0,0.0,72,0.00,,---,0.00,0.00,VWS V14.01,2013-04-11 06:09:00,
2013-04-11 02:10:00,65.1,55.9,29.79,SSW,201,0.0,0.0,72,0.00,,---,0.00,0.00,VWS V14.01,2013-04-11 06:10:00,
2013-04-11 02:12:00,65.0,56.2,29.79,SSW,201,0.0,0.0,73,0.00,,---,0.00,0.00,VWS V14.01,2013-04-11 06:12:00,
2013-04-11 02:13:00,64.9,56.0,29.79,SSW,201,0.0,0.0,73,0.00,,---,0.00,0.00,VWS V14.01,2013-04-11 06:13:00,
2013-04-11 02:14:00,64.9,56.0,29.79,SSW,201,0.0,0.0,73,0.00,,---,0.00,0.00,VWS V14.01,2013-04-11 06:14:00,
2013-04-11 02:15:00,65.3,56.0,29.79,SSW,201,0.0,0.0,72,0.00,,---,0.00,0.00,VWS V14.01,2013-04-11 06:15:00,
2013-04-11 02:16:00,64.8,56.0,29.79,SSW,201,0.0,0.0,73,0.00,,---,0.00,0.00,VWS V14.01,2013-04-11 06:16:00,
2013-04-11 02:17:00,64.8,56.0,29.79,SSW,201,0.0,0.0,73,0.00,,---,0.00,0.00,VWS V14.01,2013-04-11 06:17:00,
2013-04-11 02:18:00,64.7,55.9,29.79,SSW,201,0.0,0.0,73,0.00,,---,0.00,0.00,VWS V14.01,2013-04-11 06:18:00,
2013-04-11 02:20:00,65.0,55.8,29.79,SSW,201,0.0,0.0,72,0.00,,---,0.00,0.00,VWS V14.01,2013-04-11 06:20:00,
2013-04-11 02:21:00,64.7,55.9,29.79,SSW,201,0.0,0.0,73,0.00,,---,0.00,0.00,VWS V14.01,2013-04-11 06:21:00,
2013-04-11 02:22:00,64.6,55.8,29.79,SSW,201,0.0,0.0,73,0.00,,---,0.00,0.00,VWS V14.01,2013-04-11 06:22:00,
2013-04-11 02:23:00,64.6,55.8,29.79,SSW,201,0.0,0.0,73,0.00,,---,0.00,0.00,VWS V14.01,2013-04-11 06:23:00,
2013-04-11 02:25:00,64.8,56.0,29.79,SSW,201,0.0,0.0,73,0.00,,---,0.00,0.00,VWS V14.01,2013-04-11 06:25:00,
2013-04-11 02:26:00,64.6,55.8,29.79,SSW,201,0.0,0.0,73,0.00,,---,0.00,0.00,VWS V14.01,2013-04-11 06:26:00,
2013-04-11 02:28:00,64.6,55.8,29.79,SSW,201,0.0,0.0,73,0.00,,---,0.00,0.00,VWS V14.01,2013-04-11 06:28:00,
2013-04-11 02:29:00,64.6,55.8,29.79,SSW,201,0.0,0.0,73,0.00,,---,0.00,0.00,VWS V14.01,2013-04-11 06:29:00,
2013-04-11 02:30:00,64.7,55.9,29.79,SSW,201,0.0,0.0,73,0.00,,---,0.00,0.00,VWS V14.01,2013-04-11 06:30:00,
2013-04-11 02:31:00,64.6,55.8,29.79,SSW,201,0.0,0.0,73,0.00,,---,0.00,0.00,VWS V14.01,2013-04-11 06:31:00,
2013-04-11 02:32:00,64.7,55.9,29.79,SSW,201,0.0,0.0,73,0.00,,---,0.00,0.00,VWS V14.01,2013-04-11 06:32:00,
2013-04-11 02:33:00,64.6,55.8,29.79,SSW,201,0.0,0.0,73,0.00,,---,0.00,0.00,VWS V14.01,2013-04-11 06:33:00,
2013-04-11 02:34:00,64.6,55.8,29.79,SSW,201,0.0,1.0,73,0.00,,---,0.00,0.00,VWS V14.01,2013-04-11 06:34:00,
2013-04-11 02:35:00,64.7,55.9,29.79,SSW,201,0.0,0.0,73,0.00,,---,0.00,0.00,VWS V14.01,2013-04-11 06:35:00,
2013-04-11 02:36:00,64.7,55.9,29.79,SSW,201,0.0,1.0,73,0.00,,---,0.00,0.00,VWS V14.01,2013-04-11 06:36:00,
2013-04-11 02:38:00,64.7,55.9,29.79,SSW,201,0.0,1.0,73,0.00,,---,0.00,0.00,VWS V14.01,2013-04-11 06:38:00,
2013-04-11 02:39:00,64.7,55.9,29.79,SSW,201,0.0,1.0,73,0.00,,---,0.00,0.00,VWS V14.01,2013-04-11 06:39:00,
2013-04-11 02:40:00,64.6,55.8,29.79,SSW,201,0.0,0.0,73,0.00,,---,0.00,0.00,VWS V14.01,2013-04-11 06:40:00,
2013-04-11 02:41:00,64.7,55.9,29.79,SSW,201,0.0,0.0,73,0.00,,---,0.00,0.00,VWS V14.01,2013-04-11 06:41:00,
2013-04-11 02:44:00,64.7,55.9,29.79,SSW,201,0.0,0.0,73,0.00,,---,0.00,0.00,VWS V14.01,2013-04-11 06:44:00,
2013-04-11 02:45:00,64.7,55.9,29.79,SSW,201,0.0,1.0,73,0.00,,---,0.00,0.00,VWS V14.01,2013-04-11 06:45:00,
2013-04-11 02:46:00,64.7,55.5,29.79,SSW,201,0.0,0.0,72,0.00,,---,0.00,0.00,VWS V14.01,2013-04-11 06:46:00,
2013-04-11 02:49:00,64.7,55.5,29.79,SSW,201,0.0,0.0,72,0.00,,---,0.00,0.00,VWS V14.01,2013-04-11 06:49:00,
2013-04-11 02:50:00,64.7,55.9,29.79,SSW,201,0.0,0.0,73,0.00,,---,0.00,0.00,VWS V14.01,2013-04-11 06:50:00,
2013-04-11 02:51:00,64.7,55.5,29.79,SSW,201,0.0,0.0,72,0.00,,---,0.00,0.00,VWS V14.01,2013-04-11 06:51:00,
2013-04-11 02:52:00,64.8,55.6,29.79,SSW,201,0.0,0.0,72,0.00,,---,0.00,0.00,VWS V14.01,2013-04-11 06:52:00,
2013-04-11 02:53:00,64.8,56.0,29.79,SSW,201,0.0,0.0,73,0.00,,---,0.00,0.00,VWS V14.01,2013-04-11 06:53:00,
2013-04-11 02:54:00,64.8,56.0,29.79,SSW,201,0.0,0.0,73,0.00,,---,0.00,0.00,VWS V14.01,2013-04-11 06:54:00,
2013-04-11 02:55:00,64.7,55.5,29.79,SSW,201,0.0,0.0,72,0.00,,---,0.00,0.00,VWS V14.01,2013-04-11 06:55:00,
2013-04-11 02:57:00,64.7,55.5,29.78,SSW,201,0.0,0.0,72,0.00,,---,0.00,0.00,VWS V14.01,2013-04-11 06:57:00,
2013-04-11 02:58:00,64.7,55.9,29.78,SSW,201,0.0,0.0,73,0.00,,---,0.00,0.00,VWS V14.01,2013-04-11 06:58:00,
2013-04-11 02:59:00,64.7,55.9,29.78,SSW,201,0.0,0.0,73,0.00,,---,0.00,0.00,VWS V14.01,2013-04-11 06:59:00,
2013-04-11 03:00:00,64.7,55.5,29.79,SSW,201,0.0,0.0,72,0.00,,---,0.00,0.00,VWS V14.01,2013-04-11 07:00:00,
2013-04-11 03:02:00,64.7,55.9,29.78,SSW,201,0.0,0.0,73,0.00,,---,0.00,0.00,VWS V14.01,2013-04-11 07:02:00,
2013-04-11 03:03:00,64.6,55.8,29.78,SSW,201,0.0,0.0,73,0.00,,---,0.00,0.00,VWS V14.01,2013-04-11 07:03:00,
2013-04-11 03:04:00,64.6,55.8,29.78,SSW,201,0.0,0.0,73,0.00,,---,0.00,0.00,VWS V14.01,2013-04-11 07:04:00,
2013-04-11 03:05:00,64.7,55.5,29.78,SSW,201,0.0,0.0,72,0.00,,---,0.00,0.00,VWS V14.01,2013-04-11 07:05:00,
2013-04-11 03:06:00,64.5,55.7,29.78,SSW,201,0.0,0.0,73,0.00,,---,0.00,0.00,VWS V14.01,2013-04-11 07:06:00,
2013-04-11 03:07:00,64.5,55.7,29.78,SSW,201,0.0,0.0,73,0.00,,---,0.00,0.00,VWS V14.01,2013-04-11 07:07:00,
2013-04-11 03:08:00,64.4,55.6,29.78,SSW,201,0.0,0.0,73,0.00,,---,0.00,0.00,VWS V14.01,2013-04-11 07:08:00,
2013-04-11 03:09:00,64.4,55.6,29.78,SSW,201,0.0,0.0,73,0.00,,---,0.00,0.00,VWS V14.01,2013-04-11 07:09:00,
2013-04-11 03:10:00,64.7,55.9,29.78,SSW,201,0.0,0.0,73,0.00,,---,0.00,0.00,VWS V14.01,2013-04-11 07:10:00,
2013-04-11 03:13:00,64.4,55.6,29.77,SSW,201,0.0,0.0,73,0.00,,---,0.00,0.00,VWS V14.01,2013-04-11 07:13:00,
2013-04-11 03:14:00,64.4,55.6,29.77,SSW,201,0.0,0.0,73,0.00,,---,0.00,0.00,VWS V14.01,2013-04-11 07:14:00,
2013-04-11 03:15:00,64.4,55.6,29.77,SSW,201,0.0,0.0,73,0.00,,---,0.00,0.00,VWS V14.01,2013-04-11 07:15:00,
2013-04-11 03:16:00,64.5,55.7,29.78,SSW,201,0.0,0.0,73,0.00,,---,0.00,0.00,VWS V14.01,2013-04-11 07:16:00,
2013-04-11 03:17:00,64.4,55.6,29.77,SSW,201,0.0,0.0,73,0.00,,---,0.00,0.00,VWS V14.01,2013-04-11 07:17:00,
2013-04-11 03:18:00,64.3,55.5,29.77,SSW,201,0.0,0.0,73,0.00,,---,0.00,0.00,VWS V14.01,2013-04-11 07:18:00,
2013-04-11 03:19:00,64.3,55.5,29.77,SSW,201,0.0,0.0,73,0.00,,---,0.00,0.00,VWS V14.01,2013-04-11 07:19:00,
2013-04-11 03:20:00,64.3,55.5,29.77,SSW,201,0.0,1.0,73,0.00,,---,0.00,0.00,VWS V14.01,2013-04-11 07:20:00,
2013-04-11 03:21:00,64.4,55.6,29.78,SSW,201,0.0,0.0,73,0.00,,---,0.00,0.00,VWS V14.01,2013-04-11 07:21:00,
2013-04-11 03:22:00,64.3,55.8,29.77,SSW,201,0.0,1.0,74,0.00,,---,0.00,0.00,VWS V14.01,2013-04-11 07:22:00,
2013-04-11 03:23:00,64.2,55.8,29.77,SSW,201,0.0,1.0,74,0.00,,---,0.00,0.00,VWS V14.01,2013-04-11 07:23:00,
2013-04-11 03:24:00,64.1,55.7,29.77,SSW,201,0.0,1.0,74,0.00,,---,0.00,0.00,VWS V14.01,2013-04-11 07:24:00,
2013-04-11 03:25:00,64.0,55.6,29.77,SSW,201,0.0,1.0,74,0.00,,---,0.00,0.00,VWS V14.01,2013-04-11 07:25:00,
2013-04-11 03:26:00,64.4,55.6,29.77,SSW,201,0.0,0.0,73,0.00,,---,0.00,0.00,VWS V14.01,2013-04-11 07:26:00,
2013-04-11 03:27:00,63.9,55.5,29.77,SSW,201,0.0,1.0,74,0.00,,---,0.00,0.00,VWS V14.01,2013-04-11 07:27:00,
2013-04-11 03:28:00,63.8,55.4,29.77,SSW,201,0.0,1.0,74,0.00,,---,0.00,0.00,VWS V14.01,2013-04-11 07:28:00,
2013-04-11 03:29:00,63.8,55.4,29.77,SSW,201,0.0,1.0,74,0.00,,---,0.00,0.00,VWS V14.01,2013-04-11 07:29:00,
2013-04-11 03:30:00,63.6,55.2,29.77,SSW,201,0.0,0.0,74,0.00,,---,0.00,0.00,VWS V14.01,2013-04-11 07:30:00,
2013-04-11 03:31:00,64.3,55.8,29.77,SSW,201,0.0,1.0,74,0.00,,---,0.00,0.00,VWS V14.01,2013-04-11 07:31:00,
2013-04-11 03:33:00,63.4,55.3,29.78,SSW,201,0.0,0.0,75,0.00,,---,0.00,0.00,VWS V14.01,2013-04-11 07:33:00,
2013-04-11 03:34:00,63.4,55.3,29.78,SSW,201,0.0,0.0,75,0.00,,---,0.00,0.00,VWS V14.01,2013-04-11 07:34:00,
2013-04-11 03:35:00,63.3,55.2,29.78,SSW,201,0.0,0.0,75,0.00,,---,0.00,0.00,VWS V14.01,2013-04-11 07:35:00,
2013-04-11 03:36:00,63.9,55.5,29.77,SSW,201,0.0,1.0,74,0.00,,---,0.00,0.00,VWS V14.01,2013-04-11 07:36:00,
2013-04-11 03:37:00,63.3,55.2,29.77,SSW,201,0.0,0.0,75,0.00,,---,0.00,0.00,VWS V14.01,2013-04-11 07:37:00,
2013-04-11 03:38:00,63.3,55.2,29.77,SSW,201,0.0,0.0,75,0.00,,---,0.00,0.00,VWS V14.01,2013-04-11 07:38:00,
2013-04-11 03:39:00,63.3,55.2,29.77,SSW,201,0.0,0.0,75,0.00,,---,0.00,0.00,VWS V14.01,2013-04-11 07:39:00,
2013-04-11 03:40:00,63.2,55.2,29.77,SSW,201,0.0,0.0,75,0.00,,---,0.00,0.00,VWS V14.01,2013-04-11 07:40:00,
2013-04-11 03:41:00,63.2,55.5,29.77,SSW,201,0.0,0.0,76,0.00,,---,0.00,0.00,VWS V14.01,2013-04-11 07:41:00,
2013-04-11 03:42:00,63.5,55.4,29.77,SSW,201,0.0,0.0,75,0.00,,---,0.00,0.00,VWS V14.01,2013-04-11 07:42:00,
2013-04-11 03:43:00,63.2,55.5,29.77,SSW,201,0.0,0.0,76,0.00,,---,0.00,0.00,VWS V14.01,2013-04-11 07:43:00,
2013-04-11 03:44:00,63.1,55.4,29.77,SSW,201,0.0,0.0,76,0.00,,---,0.00,0.00,VWS V14.01,2013-04-11 07:44:00,
2013-04-11 03:45:00,63.1,55.4,29.77,SSW,201,0.0,0.0,76,0.00,,---,0.00,0.00,VWS V14.01,2013-04-11 07:45:00,
2013-04-11 03:46:00,63.0,55.3,29.77,SSW,201,0.0,0.0,76,0.00,,---,0.00,0.00,VWS V14.01,2013-04-11 07:46:00,
2013-04-11 03:47:00,63.3,55.2,29.77,SSW,201,0.0,0.0,75,0.00,,---,0.00,0.00,VWS V14.01,2013-04-11 07:47:00,
2013-04-11 03:48:00,62.9,55.2,29.77,SSW,201,0.0,0.0,76,0.00,,---,0.00,0.00,VWS V14.01,2013-04-11 07:48:00,
2013-04-11 03:49:00,62.8,55.1,29.77,SSW,201,0.0,0.0,76,0.00,,---,0.00,0.00,VWS V14.01,2013-04-11 07:49:00,
2013-04-11 03:52:00,63.2,55.5,29.77,SSW,201,0.0,0.0,76,0.00,,---,0.00,0.00,VWS V14.01,2013-04-11 07:52:00,
2013-04-11 03:53:00,62.5,55.2,29.78,SSW,201,0.0,0.0,77,0.00,,---,0.00,0.00,VWS V14.01,2013-04-11 07:53:00,
2013-04-11 03:54:00,62.4,55.1,29.77,SSW,201,0.0,0.0,77,0.00,,---,0.00,0.00,VWS V14.01,2013-04-11 07:54:00,
2013-04-11 03:55:00,62.4,55.1,29.78,SSW,201,0.0,0.0,77,0.00,,---,0.00,0.00,VWS V14.01,2013-04-11 07:55:00,
2013-04-11 03:57:00,63.0,55.3,29.77,SSW,201,0.0,0.0,76,0.00,,---,0.00,0.00,VWS V14.01,2013-04-11 07:57:00,
2013-04-11 03:58:00,62.3,55.4,29.78,SSW,201,0.0,0.0,78,0.00,,---,0.00,0.00,VWS V14.01,2013-04-11 07:58:00,
2013-04-11 03:59:00,62.2,54.9,29.78,SSW,201,0.0,0.0,77,0.00,,---,0.00,0.00,VWS V14.01,2013-04-11 07:59:00,
2013-04-11 04:00:00,62.2,55.3,29.77,SSW,201,0.0,0.0,78,0.00,,---,0.00,0.00,VWS V14.01,2013-04-11 08:00:00,
2013-04-11 04:02:00,62.6,55.3,29.78,SSW,201,0.0,0.0,77,0.00,,---,0.00,0.00,VWS V14.01,2013-04-11 08:02:00,
2013-04-11 04:03:00,62.2,55.3,29.78,SSW,201,0.0,0.0,78,0.00,,---,0.00,0.00,VWS V14.01,2013-04-11 08:03:00,
2013-04-11 04:04:00,62.2,55.3,29.78,SSW,201,0.0,0.0,78,0.00,,---,0.00,0.00,VWS V14.01,2013-04-11 08:04:00,
2013-04-11 04:05:00,62.3,55.4,29.78,SSW,201,0.0,0.0,78,0.00,,---,0.00,0.00,VWS V14.01,2013-04-11 08:05:00,
2013-04-11 04:07:00,62.3,55.4,29.78,SSW,201,0.0,0.0,78,0.00,,---,0.00,0.00,VWS V14.01,2013-04-11 08:07:00,
2013-04-11 04:08:00,62.5,55.6,29.78,SSW,201,0.0,0.0,78,0.00,,---,0.00,0.00,VWS V14.01,2013-04-11 08:08:00,
2013-04-11 04:09:00,62.5,55.2,29.78,SSW,201,0.0,0.0,77,0.00,,---,0.00,0.00,VWS V14.01,2013-04-11 08:09:00,
2013-04-11 04:10:00,62.5,55.2,29.78,SSW,201,0.0,0.0,77,0.00,,---,0.00,0.00,VWS V14.01,2013-04-11 08:10:00,
2013-04-11 04:11:00,62.6,55.3,29.78,SSW,201,0.0,0.0,77,0.00,,---,0.00,0.00,VWS V14.01,2013-04-11 08:11:00,
2013-04-11 04:12:00,62.2,55.3,29.78,SSW,201,0.0,0.0,78,0.00,,---,0.00,0.00,VWS V14.01,2013-04-11 08:12:00,
2013-04-11 04:13:00,62.7,55.4,29.78,SSW,201,0.0,0.0,77,0.00,,---,0.00,0.00,VWS V14.01,2013-04-11 08:13:00,
2013-04-11 04:14:00,62.8,55.5,29.77,SSW,201,0.0,0.0,77,0.00,,---,0.00,0.00,VWS V14.01,2013-04-11 08:14:00,
2013-04-11 04:15:00,62.9,55.2,29.77,SSW,201,0.0,0.0,76,0.00,,---,0.00,0.00,VWS V14.01,2013-04-11 08:15:00,
2013-04-11 04:16:00,62.9,55.2,29.78,SSW,201,0.0,1.0,76,0.00,,---,0.00,0.00,VWS V14.01,2013-04-11 08:16:00,
2013-04-11 04:17:00,62.4,55.5,29.78,SSW,201,0.0,0.0,78,0.00,,---,0.00,0.00,VWS V14.01,2013-04-11 08:17:00,
2013-04-11 04:18:00,63.1,55.4,29.78,SSW,201,0.0,1.0,76,0.00,,---,0.00,0.00,VWS V14.01,2013-04-11 08:18:00,
2013-04-11 04:19:00,63.2,55.5,29.77,SSW,201,0.0,1.0,76,0.00,,---,0.00,0.00,VWS V14.01,2013-04-11 08:19:00,
2013-04-11 04:20:00,63.2,55.5,29.78,SSW,201,0.0,0.0,76,0.00,,---,0.00,0.00,VWS V14.01,2013-04-11 08:20:00,
2013-04-11 04:21:00,63.3,55.6,29.78,SSW,201,0.0,0.0,76,0.00,,---,0.00,0.00,VWS V14.01,2013-04-11 08:21:00,
2013-04-11 04:22:00,62.7,55.0,29.78,SSW,201,0.0,0.0,76,0.00,,---,0.00,0.00,VWS V14.01,2013-04-11 08:22:00,
2013-04-11 04:23:00,63.2,55.5,29.78,SSW,201,0.0,0.0,76,0.00,,---,0.00,0.00,VWS V14.01,2013-04-11 08:23:00,
2013-04-11 04:24:00,63.2,55.5,29.78,SSW,201,0.0,0.0,76,0.00,,---,0.00,0.00,VWS V14.01,2013-04-11 08:24:00,
2013-04-11 04:25:00,63.1,55.4,29.78,SSW,201,0.0,0.0,76,0.00,,---,0.00,0.00,VWS V14.01,2013-04-11 08:25:00,
2013-04-11 04:26:00,63.0,55.3,29.77,SSW,201,0.0,0.0,76,0.00,,---,0.00,0.00,VWS V14.01,2013-04-11 08:26:00,
2013-04-11 04:27:00,63.1,55.4,29.78,SSW,201,0.0,1.0,76,0.00,,---,0.00,0.00,VWS V14.01,2013-04-11 08:27:00,
2013-04-11 04:28:00,62.9,55.2,29.77,SSW,201,0.0,0.0,76,0.00,,---,0.00,0.00,VWS V14.01,2013-04-11 08:28:00,
2013-04-11 04:29:00,62.8,55.1,29.78,SSW,201,0.0,0.0,76,0.00,,---,0.00,0.00,VWS V14.01,2013-04-11 08:29:00,
2013-04-11 04:30:00,62.8,55.1,29.77,SSW,201,0.0,0.0,76,0.00,,---,0.00,0.00,VWS V14.01,2013-04-11 08:30:00,
2013-04-11 04:31:00,62.7,55.0,29.78,SSW,201,0.0,0.0,76,0.00,,---,0.00,0.00,VWS V14.01,2013-04-11 08:31:00,
2013-04-11 04:32:00,62.6,54.9,29.78,SSW,201,0.0,0.0,76,0.00,,---,0.00,0.00,VWS V14.01,2013-04-11 08:32:00,
2013-04-11 04:33:00,63.2,55.5,29.78,SSW,201,0.0,0.0,76,0.00,,---,0.00,0.00,VWS V14.01,2013-04-11 08:33:00,
2013-04-11 04:34:00,62.7,55.0,29.77,SSW,201,0.0,0.0,76,0.00,,---,0.00,0.00,VWS V14.01,2013-04-11 08:34:00,
2013-04-11 04:35:00,62.7,55.0,29.77,SSW,201,0.0,0.0,76,0.00,,---,0.00,0.00,VWS V14.01,2013-04-11 08:35:00,
2013-04-11 04:36:00,62.7,55.0,29.77,SSW,201,0.0,0.0,76,0.00,,---,0.00,0.00,VWS V14.01,2013-04-11 08:36:00,
2013-04-11 04:38:00,62.9,55.2,29.78,SSW,201,0.0,0.0,76,0.00,,---,0.00,0.00,VWS V14.01,2013-04-11 08:38:00,
2013-04-11 04:39:00,62.6,54.9,29.77,SSW,201,0.0,0.0,76,0.00,,---,0.00,0.00,VWS V14.01,2013-04-11 08:39:00,
2013-04-11 04:40:00,62.6,54.9,29.78,SSW,201,0.0,0.0,76,0.00,,---,0.00,0.00,VWS V14.01,2013-04-11 08:40:00,
2013-04-11 04:41:00,62.7,55.0,29.78,SSW,201,0.0,0.0,76,0.00,,---,0.00,0.00,VWS V14.01,2013-04-11 08:41:00,
2013-04-11 04:42:00,62.7,55.0,29.77,SSW,201,0.0,0.0,76,0.00,,---,0.00,0.00,VWS V14.01,2013-04-11 08:42:00,
2013-04-11 04:43:00,62.6,54.9,29.77,SSW,201,0.0,0.0,76,0.00,,---,0.00,0.00,VWS V14.01,2013-04-11 08:43:00,
2013-04-11 04:44:00,62.9,55.2,29.77,SSW,201,0.0,0.0,76,0.00,,---,0.00,0.00,VWS V14.01,2013-04-11 08:44:00,
2013-04-11 04:45:00,62.9,55.2,29.77,SSW,201,0.0,0.0,76,0.00,,---,0.00,0.00,VWS V14.01,2013-04-11 08:45:00,
2013-04-11 04:47:00,62.9,55.2,29.78,SSW,201,0.0,0.0,76,0.00,,---,0.00,0.00,VWS V14.01,2013-04-11 08:47:00,
2013-04-11 04:48:00,62.7,55.0,29.77,SSW,201,0.0,0.0,76,0.00,,---,0.00,0.00,VWS V14.01,2013-04-11 08:48:00,
2013-04-11 04:50:00,62.7,55.0,29.78,SSW,201,0.0,0.0,76,0.00,,---,0.00,0.00,VWS V14.01,2013-04-11 08:50:00,
2013-04-11 04:51:00,62.7,55.0,29.78,SSW,201,0.0,0.0,76,0.00,,---,0.00,0.00,VWS V14.01,2013-04-11 08:51:00,
2013-04-11 04:53:00,62.9,55.2,29.77,SSW,201,0.0,0.0,76,0.00,,---,0.00,0.00,VWS V14.01,2013-04-11 08:53:00,
2013-04-11 04:54:00,62.5,55.2,29.78,SSW,201,0.0,0.0,77,0.00,,---,0.00,0.00,VWS V14.01,2013-04-11 08:54:00,
2013-04-11 04:55:00,62.4,55.1,29.78,SSW,201,0.0,0.0,77,0.00,,---,0.00,0.00,VWS V14.01,2013-04-11 08:55:00,
2013-04-11 04:56:00,62.4,55.1,29.78,SSW,201,0.0,0.0,77,0.00,,---,0.00,0.00,VWS V14.01,2013-04-11 08:56:00,
2013-04-11 04:57:00,62.3,55.0,29.78,SSW,201,0.0,0.0,77,0.00,,---,0.00,0.00,VWS V14.01,2013-04-11 08:57:00,
2013-04-11 04:58:00,62.8,55.1,29.78,SSW,201,0.0,0.0,76,0.00,,---,0.00,0.00,VWS V14.01,2013-04-11 08:58:00,
2013-04-11 05:00:00,62.3,55.0,29.78,SSW,201,0.0,0.0,77,0.00,,---,0.00,0.00,VWS V14.01,2013-04-11 09:00:00,
2013-04-11 05:01:00,62.5,55.2,29.77,SSW,201,0.0,0.0,77,0.00,,---,0.00,0.00,VWS V14.01,2013-04-11 09:01:00,
2013-04-11 05:02:00,62.6,55.3,29.77,SSW,201,0.0,0.0,77,0.00,,---,0.00,0.00,VWS V14.01,2013-04-11 09:02:00,
2013-04-11 05:03:00,62.5,55.2,29.78,SSW,201,0.0,0.0,77,0.00,,---,0.00,0.00,VWS V14.01,2013-04-11 09:03:00,
2013-04-11 05:04:00,62.8,55.1,29.77,SSW,201,0.0,0.0,76,0.00,,---,0.00,0.00,VWS V14.01,2013-04-11 09:04:00,
2013-04-11 05:05:00,62.9,55.2,29.78,SSW,201,0.0,0.0,76,0.00,,---,0.00,0.00,VWS V14.01,2013-04-11 09:05:00,
2013-04-11 05:06:00,63.0,55.3,29.78,SSW,201,0.0,0.0,76,0.00,,---,0.00,0.00,VWS V14.01,2013-04-11 09:06:00,
2013-04-11 05:08:00,62.3,55.0,29.78,SSW,201,0.0,0.0,77,0.00,,---,0.00,0.00,VWS V14.01,2013-04-11 09:08:00,
2013-04-11 05:09:00,63.1,55.4,29.77,SSW,201,0.0,0.0,76,0.00,,---,0.00,0.00,VWS V14.01,2013-04-11 09:09:00,
2013-04-11 05:10:00,63.1,55.4,29.77,SSW,201,0.0,0.0,76,0.00,,---,0.00,0.00,VWS V14.01,2013-04-11 09:10:00,
2013-04-11 05:11:00,63.1,55.4,29.77,SSW,201,0.0,0.0,76,0.00,,---,0.00,0.00,VWS V14.01,2013-04-11 09:11:00,
2013-04-11 05:12:00,63.0,55.3,29.77,SSW,201,0.0,0.0,76,0.00,,---,0.00,0.00,VWS V14.01,2013-04-11 09:12:00,
2013-04-11 05:13:00,63.0,55.3,29.77,SSW,201,0.0,0.0,76,0.00,,---,0.00,0.00,VWS V14.01,2013-04-11 09:13:00,
2013-04-11 05:14:00,62.8,55.1,29.77,SSW,201,0.0,0.0,76,0.00,,---,0.00,0.00,VWS V14.01,2013-04-11 09:14:00,
2013-04-11 05:15:00,62.9,55.2,29.77,SSW,201,0.0,0.0,76,0.00,,---,0.00,0.00,VWS V14.01,2013-04-11 09:15:00,
2013-04-11 05:17:00,62.8,55.1,29.77,SSW,201,0.0,1.0,76,0.00,,---,0.00,0.00,VWS V14.01,2013-04-11 09:17:00,
2013-04-11 05:18:00,62.8,55.1,29.77,SSW,201,0.0,1.0,76,0.00,,---,0.00,0.00,VWS V14.01,2013-04-11 09:18:00,
2013-04-11 05:19:00,63.1,55.4,29.77,SSW,201,0.0,0.0,76,0.00,,---,0.00,0.00,VWS V14.01,2013-04-11 09:19:00,
2013-04-11 05:20:00,62.8,55.1,29.77,SSW,201,0.0,0.0,76,0.00,,---,0.00,0.00,VWS V14.01,2013-04-11 09:20:00,
2013-04-11 05:21:00,62.8,55.1,29.77,SSW,201,0.0,0.0,76,0.00,,---,0.00,0.00,VWS V14.01,2013-04-11 09:21:00,
2013-04-11 05:23:00,62.8,55.1,29.77,SSW,201,0.0,0.0,76,0.00,,---,0.00,0.00,VWS V14.01,2013-04-11 09:23:00,
2013-04-11 05:24:00,62.9,55.2,29.77,SSW,201,0.0,0.0,76,0.00,,---,0.00,0.00,VWS V14.01,2013-04-11 09:24:00,
2013-04-11 05:26:00,62.8,55.1,29.77,SSW,201,0.0,0.0,76,0.00,,---,0.00,0.00,VWS V14.01,2013-04-11 09:26:00,
2013-04-11 05:29:00,62.8,55.1,29.77,SSW,201,0.0,0.0,76,0.00,,---,0.00,0.00,VWS V14.01,2013-04-11 09:29:00,
2013-04-11 05:30:00,63.0,55.3,29.78,SSW,201,0.0,0.0,76,0.00,,---,0.00,0.00,VWS V14.01,2013-04-11 09:30:00,
2013-04-11 05:31:00,63.0,55.3,29.77,SSW,201,0.0,0.0,76,0.00,,---,0.00,0.00,VWS V14.01,2013-04-11 09:31:00,
2013-04-11 05:32:00,63.1,55.4,29.78,SSW,201,0.0,0.0,76,0.00,,---,0.00,0.00,VWS V14.01,2013-04-11 09:32:00,
2013-04-11 05:33:00,63.1,55.4,29.78,SSW,201,0.0,0.0,76,0.00,,---,0.00,0.00,VWS V14.01,2013-04-11 09:33:00,
2013-04-11 05:34:00,62.7,55.0,29.78,SSW,201,0.0,0.0,76,0.00,,---,0.00,0.00,VWS V14.01,2013-04-11 09:34:00,
2013-04-11 05:35:00,63.0,55.3,29.78,SSW,201,0.0,0.0,76,0.00,,---,0.00,0.00,VWS V14.01,2013-04-11 09:35:00,
2013-04-11 05:37:00,62.9,55.2,29.78,SSW,201,0.0,0.0,76,0.00,,---,0.00,0.00,VWS V14.01,2013-04-11 09:37:00,
2013-04-11 05:38:00,62.8,55.1,29.78,SSW,201,0.0,0.0,76,0.00,,---,0.00,0.00,VWS V14.01,2013-04-11 09:38:00,
2013-04-11 05:39:00,62.9,55.2,29.78,SSW,201,0.0,0.0,76,0.00,,---,0.00,0.00,VWS V14.01,2013-04-11 09:39:00,
2013-04-11 05:41:00,62.7,55.0,29.78,SSW,201,0.0,0.0,76,0.00,,---,0.00,0.00,VWS V14.01,2013-04-11 09:41:00,
2013-04-11 05:42:00,62.6,55.3,29.78,SSW,201,0.0,0.0,77,0.00,,---,0.00,0.00,VWS V14.01,2013-04-11 09:42:00,
2013-04-11 05:44:00,63.0,55.3,29.78,SSW,201,0.0,0.0,76,0.00,,---,0.00,0.00,VWS V14.01,2013-04-11 09:44:00,
2013-04-11 05:46:00,62.3,55.0,29.78,SSW,201,0.0,0.0,77,0.00,,---,0.00,0.00,VWS V14.01,2013-04-11 09:46:00,
2013-04-11 05:47:00,62.2,54.9,29.79,SSW,201,0.0,0.0,77,0.00,,---,0.00,0.00,VWS V14.01,2013-04-11 09:47:00,
2013-04-11 05:49:00,62.2,54.9,29.78,SSW,201,0.0,0.0,77,0.00,,---,0.00,0.00,VWS V14.01,2013-04-11 09:49:00,
2013-04-11 05:50:00,62.7,55.0,29.78,SSW,201,0.0,0.0,76,0.00,,---,0.00,0.00,VWS V14.01,2013-04-11 09:50:00,
2013-04-11 05:51:00,62.2,54.9,29.78,SSW,201,0.0,0.0,77,0.00,,---,0.00,0.00,VWS V14.01,2013-04-11 09:51:00,
2013-04-11 05:53:00,62.4,55.1,29.78,SSW,201,0.0,0.0,77,0.00,,---,0.00,0.00,VWS V14.01,2013-04-11 09:53:00,
2013-04-11 05:54:00,62.5,55.2,29.78,SSW,201,0.0,0.0,77,0.00,,---,0.00,0.00,VWS V14.01,2013-04-11 09:54:00,
2013-04-11 05:55:00,62.4,55.1,29.78,SSW,201,0.0,0.0,77,0.00,,---,0.00,0.00,VWS V14.01,2013-04-11 09:55:00,
2013-04-11 05:56:00,62.6,55.3,29.78,SSW,201,0.0,0.0,77,0.00,,---,0.00,0.00,VWS V14.01,2013-04-11 09:56:00,
2013-04-11 05:58:00,62.6,54.9,29.78,SSW,201,0.0,0.0,76,0.00,,---,0.00,0.00,VWS V14.01,2013-04-11 09:58:00,
2013-04-11 05:59:00,62.6,54.9,29.79,SSW,201,0.0,0.0,76,0.00,,---,0.00,0.00,VWS V14.01,2013-04-11 09:59:00,
2013-04-11 06:00:00,62.2,54.9,29.78,SSW,201,0.0,0.0,77,0.00,,---,0.00,0.00,VWS V14.01,2013-04-11 10:00:00,
2013-04-11 06:01:00,62.5,55.2,29.78,SSW,201,0.0,0.0,77,0.00,,---,0.00,0.00,VWS V14.01,2013-04-11 10:01:00,
2013-04-11 06:02:00,62.4,55.1,29.78,SSW,201,0.0,0.0,77,0.00,,---,0.00,0.00,VWS V14.01,2013-04-11 10:02:00,
2013-04-11 06:03:00,62.3,55.0,29.79,SSW,201,0.0,0.0,77,0.00,,---,0.00,0.00,VWS V14.01,2013-04-11 10:03:00,
2013-04-11 06:04:00,62.3,55.0,29.79,SSW,201,0.0,0.0,77,0.00,,---,0.00,0.00,VWS V14.01,2013-04-11 10:04:00,
2013-04-11 06:05:00,62.5,55.2,29.78,SSW,201,0.0,0.0,77,0.00,,---,0.00,0.00,VWS V14.01,2013-04-11 10:05:00,
2013-04-11 06:07:00,62.1,54.8,29.78,SSW,201,0.0,0.0,77,0.00,,---,0.00,0.00,VWS V14.01,2013-04-11 10:07:00,
2013-04-11 06:08:00,62.0,54.7,29.79,SSW,201,0.0,0.0,77,0.00,,---,0.00,0.00,VWS V14.01,2013-04-11 10:08:00,
2013-04-11 06:09:00,61.9,54.6,29.78,SSW,201,0.0,0.0,77,0.00,,---,0.00,0.00,VWS V14.01,2013-04-11 10:09:00,
2013-04-11 06:10:00,62.5,55.2,29.78,SSW,201,0.0,0.0,77,0.00,,---,0.00,0.00,VWS V14.01,2013-04-11 10:10:00,
2013-04-11 06:11:00,61.8,54.9,29.79,SSW,201,0.0,0.0,78,0.00,,---,0.00,0.00,VWS V14.01,2013-04-11 10:11:00,
2013-04-11 06:13:00,61.7,54.8,29.79,SSW,201,0.0,0.0,78,0.00,,---,0.00,0.00,VWS V14.01,2013-04-11 10:13:00,
2013-04-11 06:14:00,61.7,54.8,29.79,SSW,201,0.0,0.0,78,0.00,,---,0.00,0.00,VWS V14.01,2013-04-11 10:14:00,
2013-04-11 06:15:00,62.2,54.9,29.79,SSW,201,0.0,0.0,77,0.00,,---,0.00,0.00,VWS V14.01,2013-04-11 10:15:00,
2013-04-11 06:16:00,61.8,54.9,29.78,SSW,201,0.0,1.0,78,0.00,,---,0.00,0.00,VWS V14.01,2013-04-11 10:16:00,
2013-04-11 06:19:00,62.3,55.4,29.78,SSW,201,0.0,1.0,78,0.00,,---,0.00,0.00,VWS V14.01,2013-04-11 10:19:00,
2013-04-11 06:20:00,61.8,54.9,29.79,SSW,201,0.0,0.0,78,0.00,,---,0.00,0.00,VWS V14.01,2013-04-11 10:20:00,
2013-04-11 06:21:00,62.6,55.7,29.78,SSW,201,0.0,0.0,78,0.00,,---,0.00,0.00,VWS V14.01,2013-04-11 10:21:00,
2013-04-11 06:22:00,62.7,55.4,29.78,SSW,201,0.0,0.0,77,0.00,,---,0.00,0.00,VWS V14.01,2013-04-11 10:22:00,
2013-04-11 06:24:00,62.8,55.1,29.78,SSW,201,0.0,0.0,76,0.00,,---,0.00,0.00,VWS V14.01,2013-04-11 10:24:00,
2013-04-11 06:25:00,61.8,55.2,29.78,SSW,201,0.0,0.0,79,0.00,,---,0.00,0.00,VWS V14.01,2013-04-11 10:25:00,
2013-04-11 06:26:00,63.0,55.3,29.78,SSW,201,0.0,0.0,76,0.00,,---,0.00,0.00,VWS V14.01,2013-04-11 10:26:00,
2013-04-11 06:27:00,63.0,55.3,29.78,SSW,201,0.0,0.0,76,0.00,,---,0.00,0.00,VWS V14.01,2013-04-11 10:27:00,
2013-04-11 06:28:00,63.1,55.4,29.78,SSW,201,0.0,0.0,76,0.00,,---,0.00,0.00,VWS V14.01,2013-04-11 10:28:00,
2013-04-11 06:29:00,63.2,55.5,29.78,SSW,201,0.0,0.0,76,0.00,,---,0.00,0.00,VWS V14.01,2013-04-11 10:29:00,
2013-04-11 06:30:00,62.6,55.7,29.78,SSW,201,0.0,0.0,78,0.00,,---,0.00,0.00,VWS V14.01,2013-04-11 10:30:00,
2013-04-11 06:32:00,63.3,55.2,29.78,SSW,201,0.0,0.0,75,0.00,,---,0.00,0.00,VWS V14.01,2013-04-11 10:32:00,
2013-04-11 06:33:00,63.4,55.3,29.78,SSW,201,0.0,0.0,75,0.00,,---,0.00,0.00,VWS V14.01,2013-04-11 10:33:00,
2013-04-11 06:34:00,63.4,55.7,29.78,SSW,201,0.0,0.0,76,0.00,,---,0.00,0.00,VWS V14.01,2013-04-11 10:34:00,
2013-04-11 06:35:00,63.4,55.7,29.78,SSW,201,0.0,0.0,76,0.00,,---,0.00,0.00,VWS V14.01,2013-04-11 10:35:00,
2013-04-11 06:36:00,63.0,55.3,29.78,SSW,201,0.0,0.0,76,0.00,,---,0.00,0.00,VWS V14.01,2013-04-11 10:36:00,
2013-04-11 06:37:00,63.4,55.7,29.78,SSW,201,0.0,0.0,76,0.00,,---,0.00,0.00,VWS V14.01,2013-04-11 10:37:00,
2013-04-11 06:39:00,63.3,55.6,29.79,SSW,201,0.0,0.0,76,0.00,,---,0.00,0.00,VWS V14.01,2013-04-11 10:39:00,
2013-04-11 06:40:00,63.2,55.5,29.79,SSW,201,0.0,0.0,76,0.00,,---,0.00,0.00,VWS V14.01,2013-04-11 10:40:00,
2013-04-11 06:41:00,63.3,55.2,29.78,SSW,201,0.0,0.0,75,0.00,,---,0.00,0.00,VWS V14.01,2013-04-11 10:41:00,
2013-04-11 06:42:00,63.1,55.4,29.79,SSW,201,0.0,0.0,76,0.00,,---,0.00,0.00,VWS V14.01,2013-04-11 10:42:00,
2013-04-11 06:44:00,62.9,55.2,29.79,SSW,201,0.0,0.0,76,0.00,,---,0.00,0.00,VWS V14.01,2013-04-11 10:44:00,
2013-04-11 06:45:00,62.9,55.2,29.79,SSW,201,0.0,0.0,76,0.00,,---,0.00,0.00,VWS V14.01,2013-04-11 10:45:00,
2013-04-11 06:46:00,63.4,55.7,29.78,SSW,201,0.0,0.0,76,0.00,,---,0.00,0.00,VWS V14.01,2013-04-11 10:46:00,
2013-04-11 06:47:00,62.7,55.0,29.79,SSW,201,0.0,0.0,76,0.00,,---,0.00,0.00,VWS V14.01,2013-04-11 10:47:00,
2013-04-11 06:48:00,62.6,54.9,29.79,SSW,201,0.0,0.0,76,0.00,,---,0.00,0.00,VWS V14.01,2013-04-11 10:48:00,
2013-04-11 06:49:00,62.6,55.3,29.79,SSW,201,0.0,0.0,77,0.00,,---,0.00,0.00,VWS V14.01,2013-04-11 10:49:00,
2013-04-11 06:50:00,62.5,55.2,29.79,SSW,201,0.0,0.0,77,0.00,,---,0.00,0.00,VWS V14.01,2013-04-11 10:50:00,
2013-04-11 06:51:00,63.1,55.4,29.79,SSW,201,0.0,0.0,76,0.00,,---,0.00,0.00,VWS V14.01,2013-04-11 10:51:00,
2013-04-11 06:52:00,62.3,55.0,29.79,SSW,201,0.0,0.0,77,0.00,,---,0.00,0.00,VWS V14.01,2013-04-11 10:52:00,
2013-04-11 06:53:00,62.3,55.0,29.79,SSW,201,0.0,0.0,77,0.00,,---,0.00,0.00,VWS V14.01,2013-04-11 10:53:00,
2013-04-11 06:54:00,62.2,54.9,29.79,SSW,201,0.0,0.0,77,0.00,,---,0.00,0.00,VWS V14.01,2013-04-11 10:54:00,
2013-04-11 06:55:00,62.2,54.9,29.79,SSW,201,0.0,0.0,77,0.00,,---,0.00,0.00,VWS V14.01,2013-04-11 10:55:00,
2013-04-11 06:57:00,62.7,55.0,29.79,SSW,201,0.0,0.0,76,0.00,,---,0.00,0.00,VWS V14.01,2013-04-11 10:57:00,
2013-04-11 06:58:00,62.1,55.2,29.79,SSW,201,0.0,0.0,78,0.00,,---,0.00,0.00,VWS V14.01,2013-04-11 10:58:00,
2013-04-11 06:59:00,62.0,55.1,29.79,SSW,201,0.0,0.0,78,0.00,,---,0.00,5.00,VWS V14.01,2013-04-11 10:59:00,
2013-04-11 07:00:00,62.0,55.1,29.79,SSW,201,0.0,0.0,78,0.00,,---,0.00,5.00,VWS V14.01,2013-04-11 11:00:00,
2013-04-11 07:02:00,62.3,55.0,29.79,SSW,201,0.0,0.0,77,0.00,,---,0.00,0.00,VWS V14.01,2013-04-11 11:02:00,
2013-04-11 07:03:00,61.8,54.9,29.79,SSW,201,0.0,0.0,78,0.00,,---,0.00,5.00,VWS V14.01,2013-04-11 11:03:00,
2013-04-11 07:04:00,61.8,55.2,29.79,SSW,201,0.0,0.0,79,0.00,,---,0.00,7.00,VWS V14.01,2013-04-11 11:04:00,
2013-04-11 07:05:00,61.8,55.2,29.79,SSW,201,0.0,0.0,79,0.00,,---,0.00,7.00,VWS V14.01,2013-04-11 11:05:00,
2013-04-11 07:06:00,61.7,55.1,29.79,SSW,201,0.0,0.0,79,0.00,,---,0.00,9.00,VWS V14.01,2013-04-11 11:06:00,
2013-04-11 07:07:00,62.1,55.2,29.79,SSW,201,0.0,0.0,78,0.00,,---,0.00,0.00,VWS V14.01,2013-04-11 11:07:00,
2013-04-11 07:08:00,61.7,55.1,29.80,SSW,201,0.0,0.0,79,0.00,,---,0.00,9.00,VWS V14.01,2013-04-11 11:08:00,
2013-04-11 07:09:00,61.6,55.0,29.80,SSW,201,0.0,0.0,79,0.00,,---,0.00,11.00,VWS V14.01,2013-04-11 11:09:00,
2013-04-11 07:10:00,61.6,55.0,29.80,SSW,201,0.0,0.0,79,0.00,,---,0.00,11.00,VWS V14.01,2013-04-11 11:10:00,
2013-04-11 07:11:00,61.6,55.0,29.80,SSW,201,0.0,0.0,79,0.00,,---,0.00,11.00,VWS V14.01,2013-04-11 11:11:00,
2013-04-11 07:12:00,61.9,55.0,29.79,SSW,201,0.0,0.0,78,0.00,,---,0.00,5.00,VWS V14.01,2013-04-11 11:12:00,
2013-04-11 07:14:00,61.5,54.9,29.80,SSW,201,0.0,0.0,79,0.00,,---,0.00,12.00,VWS V14.01,2013-04-11 11:14:00,
2013-04-11 07:15:00,61.4,54.8,29.80,SSW,201,0.0,0.0,79,0.00,,---,0.00,12.00,VWS V14.01,2013-04-11 11:15:00,
2013-04-11 07:16:00,61.4,54.8,29.80,SSW,201,0.0,0.0,79,0.00,,---,0.00,12.00,VWS V14.01,2013-04-11 11:16:00,
2013-04-11 07:17:00,61.7,55.1,29.80,SSW,201,0.0,0.0,79,0.00,,---,0.00,9.00,VWS V14.01,2013-04-11 11:17:00,
2013-04-11 07:18:00,61.3,54.7,29.80,SSW,201,0.0,0.0,79,0.00,,---,0.00,14.00,VWS V14.01,2013-04-11 11:18:00,
2013-04-11 07:19:00,61.2,55.0,29.80,SSW,201,0.0,0.0,80,0.00,,---,0.00,16.00,VWS V14.01,2013-04-11 11:19:00,
2013-04-11 07:20:00,61.2,55.0,29.80,SSW,201,0.0,0.0,80,0.00,,---,0.00,16.00,VWS V14.01,2013-04-11 11:20:00,
2013-04-11 07:22:00,61.5,54.9,29.80,SSW,201,0.0,0.0,79,0.00,,---,0.00,12.00,VWS V14.01,2013-04-11 11:22:00,
2013-04-11 07:23:00,61.0,54.8,29.80,SSW,201,0.0,0.0,80,0.00,,---,0.00,19.00,VWS V14.01,2013-04-11 11:23:00,
2013-04-11 07:25:00,61.0,54.8,29.80,SSW,201,0.0,0.0,80,0.00,,---,0.00,21.00,VWS V14.01,2013-04-11 11:25:00,
2013-04-11 07:26:00,60.9,54.7,29.80,SSW,201,0.0,0.0,80,0.00,,---,0.00,23.00,VWS V14.01,2013-04-11 11:26:00,
2013-04-11 07:27:00,61.3,54.7,29.80,SSW,201,0.0,0.0,79,0.00,,---,0.00,14.00,VWS V14.01,2013-04-11 11:27:00,
2013-04-11 07:28:00,60.9,54.7,29.80,SSW,201,0.0,0.0,80,0.00,,---,0.00,28.00,VWS V14.01,2013-04-11 11:28:00,
2013-04-11 07:29:00,61.0,55.1,29.80,SSW,201,0.0,0.0,81,0.00,,---,0.00,30.00,VWS V14.01,2013-04-11 11:29:00,
2013-04-11 07:30:00,61.0,55.1,29.80,SSW,201,0.0,0.0,81,0.00,,---,0.00,33.00,VWS V14.01,2013-04-11 11:30:00,
2013-04-11 07:32:00,61.1,54.9,29.80,SSW,201,0.0,0.0,80,0.00,,---,0.00,19.00,VWS V14.01,2013-04-11 11:32:00,
2013-04-11 07:34:00,60.9,55.0,29.80,SSW,201,0.0,0.0,81,0.00,,---,0.00,44.00,VWS V14.01,2013-04-11 11:34:00,
2013-04-11 07:35:00,61.0,55.1,29.80,SSW,201,0.0,0.0,81,0.00,,---,0.00,47.00,VWS V14.01,2013-04-11 11:35:00,
2013-04-11 07:36:00,61.0,55.1,29.80,SSW,201,0.0,0.0,81,0.00,,---,0.00,47.00,VWS V14.01,2013-04-11 11:36:00,
2013-04-11 07:37:00,61.0,55.1,29.80,SSW,201,0.0,0.0,81,0.00,,---,0.00,47.00,VWS V14.01,2013-04-11 11:37:00,
2013-04-11 07:38:00,61.0,54.8,29.80,SSW,201,0.0,0.0,80,0.00,,---,0.00,28.00,VWS V14.01,2013-04-11 11:38:00,
2013-04-11 07:39:00,61.0,55.1,29.81,SSW,201,0.0,0.0,81,0.00,,---,0.00,49.00,VWS V14.01,2013-04-11 11:39:00,
2013-04-11 07:40:00,61.0,55.1,29.80,SSW,201,0.0,0.0,81,0.00,,---,0.00,51.00,VWS V14.01,2013-04-11 11:40:00,
2013-04-11 07:42:00,61.0,55.5,29.81,SSW,201,0.0,0.0,82,0.00,,---,0.00,53.00,VWS V14.01,2013-04-11 11:42:00,
2013-04-11 07:43:00,61.0,54.8,29.80,SSW,201,0.0,0.0,80,0.00,,---,0.00,44.00,VWS V14.01,2013-04-11 11:43:00,
2013-04-11 07:44:00,61.1,55.6,29.81,SSW,201,0.0,0.0,82,0.00,,---,0.00,58.00,VWS V14.01,2013-04-11 11:44:00,
2013-04-11 07:45:00,61.1,55.2,29.81,SSW,201,0.0,0.0,81,0.00,,---,0.00,60.00,VWS V14.01,2013-04-11 11:45:00,
2013-04-11 07:46:00,61.2,55.3,29.81,SSW,200,0.0,0.0,81,0.00,,---,0.00,62.00,VWS V14.01,2013-04-11 11:46:00,
2013-04-11 07:47:00,61.2,55.0,29.81,SSW,201,0.0,0.0,80,0.00,,---,0.00,63.00,VWS V14.01,2013-04-11 11:47:00,
2013-04-11 07:48:00,61.0,55.1,29.81,SSW,201,0.0,0.0,81,0.00,,---,0.00,49.00,VWS V14.01,2013-04-11 11:48:00,
2013-04-11 07:49:00,61.3,55.1,29.81,SSW,201,0.0,0.0,80,0.00,,---,0.00,65.00,VWS V14.01,2013-04-11 11:49:00,
2013-04-11 07:50:00,61.3,55.4,29.81,SSW,201,0.0,0.0,81,0.00,,---,0.00,65.00,VWS V14.01,2013-04-11 11:50:00,
2013-04-11 07:52:00,61.4,55.5,29.81,SSW,201,0.0,0.0,81,0.00,,---,0.00,69.00,VWS V14.01,2013-04-11 11:52:00,
2013-04-11 07:53:00,61.1,55.6,29.81,SSW,201,0.0,0.0,82,0.00,,---,0.00,58.00,VWS V14.01,2013-04-11 11:53:00,
2013-04-11 07:54:00,61.5,55.6,29.81,SSW,201,0.0,0.0,81,0.00,,---,0.00,70.00,VWS V14.01,2013-04-11 11:54:00,
2013-04-11 07:55:00,61.6,55.7,29.81,SSW,201,0.0,0.0,81,0.00,,---,0.00,72.00,VWS V14.01,2013-04-11 11:55:00,
2013-04-11 07:56:00,61.6,56.1,29.81,SSW,201,0.0,0.0,82,0.00,,---,0.00,72.00,VWS V14.01,2013-04-11 11:56:00,
2013-04-11 07:57:00,61.7,56.2,29.81,SSW,201,0.0,0.0,82,0.00,,---,0.00,70.00,VWS V14.01,2013-04-11 11:57:00,
2013-04-11 07:58:00,61.3,55.1,29.81,SSW,201,0.0,0.0,80,0.00,,---,0.00,65.00,VWS V14.01,2013-04-11 11:58:00,
2013-04-11 07:59:00,61.8,56.2,29.81,SSW,201,0.0,0.0,82,0.00,,---,0.00,69.00,VWS V14.01,2013-04-11 11:59:00,
2013-04-11 08:00:00,61.8,56.2,29.80,SSW,201,0.0,0.0,82,0.00,,---,0.00,69.00,VWS V14.01,2013-04-11 12:00:00,
2013-04-11 08:01:00,61.8,55.9,29.81,SSW,201,0.0,0.0,81,0.00,,---,0.00,69.00,VWS V14.01,2013-04-11 12:01:00,
2013-04-11 08:02:00,61.9,55.7,29.81,SSW,201,0.0,0.0,80,0.00,,---,0.00,69.00,VWS V14.01,2013-04-11 12:02:00,
2013-04-11 08:03:00,61.5,55.6,29.81,SSW,201,0.0,0.0,81,0.00,,---,0.00,70.00,VWS V14.01,2013-04-11 12:03:00,
2013-04-11 08:04:00,62.0,55.4,29.81,SSW,196,0.0,0.0,79,0.00,,---,0.00,67.00,VWS V14.01,2013-04-11 12:04:00,
2013-04-11 08:05:00,62.1,55.9,29.81,SSW,201,0.0,0.0,80,0.00,,---,0.00,69.00,VWS V14.01,2013-04-11 12:05:00,
2013-04-11 08:06:00,62.1,55.9,29.80,SSW,201,0.0,0.0,80,0.00,,---,0.00,69.00,VWS V14.01,2013-04-11 12:06:00,
2013-04-11 08:07:00,62.2,55.6,29.81,SSW,201,0.0,0.0,79,0.00,,---,0.00,70.00,VWS V14.01,2013-04-11 12:07:00,
2013-04-11 08:08:00,62.3,55.4,29.81,SSW,201,0.0,0.0,78,0.00,,---,0.00,70.00,VWS V14.01,2013-04-11 12:08:00,
2013-04-11 08:09:00,61.8,56.2,29.81,SSW,201,0.0,0.0,82,0.00,,---,0.00,69.00,VWS V14.01,2013-04-11 12:09:00,
2013-04-11 08:10:00,62.5,55.6,29.81,SSW,201,0.0,0.0,78,0.00,,---,0.00,72.00,VWS V14.01,2013-04-11 12:10:00,
2013-04-11 08:11:00,62.6,55.3,29.80,SSW,201,0.0,0.0,77,0.00,,---,0.00,72.00,VWS V14.01,2013-04-11 12:11:00,
2013-04-11 08:12:00,62.7,55.8,29.81,SSW,201,0.0,0.0,78,0.00,,---,0.00,74.00,VWS V14.01,2013-04-11 12:12:00,
2013-04-11 08:13:00,62.8,56.2,29.80,SSW,201,0.0,0.0,79,0.00,,---,0.00,76.00,VWS V14.01,2013-04-11 12:13:00,
2013-04-11 08:14:00,62.0,55.4,29.81,SSW,201,0.0,0.0,79,0.00,,---,0.00,67.00,VWS V14.01,2013-04-11 12:14:00,
2013-04-11 08:15:00,62.9,55.9,29.81,SSW,201,0.0,0.0,78,0.00,,---,0.00,81.00,VWS V14.01,2013-04-11 12:15:00,
2013-04-11 08:17:00,63.1,56.5,29.81,SSW,201,0.0,0.0,79,0.00,,---,0.00,84.00,VWS V14.01,2013-04-11 12:17:00,
2013-04-11 08:18:00,63.1,56.5,29.81,SSW,201,0.0,0.0,79,0.00,,---,0.00,88.00,VWS V14.01,2013-04-11 12:18:00,
2013-04-11 08:19:00,62.4,55.1,29.81,SSW,201,0.0,0.0,77,0.00,,---,0.00,70.00,VWS V14.01,2013-04-11 12:19:00,
2013-04-11 08:20:00,63.2,56.6,29.80,SSW,201,0.0,0.0,79,0.00,,---,0.00,93.00,VWS V14.01,2013-04-11 12:20:00,
2013-04-11 08:22:00,63.2,56.6,29.80,SSW,201,0.0,0.0,79,0.00,,---,0.00,97.00,VWS V14.01,2013-04-11 12:22:00,
2013-04-11 08:23:00,63.2,56.9,29.80,SSW,201,0.0,0.0,80,0.00,,---,0.00,100.00,VWS V14.01,2013-04-11 12:23:00,
2013-04-11 08:24:00,62.9,56.3,29.81,SSW,201,0.0,0.0,79,0.00,,---,0.00,79.00,VWS V14.01,2013-04-11 12:24:00,
2013-04-11 08:25:00,63.2,56.6,29.80,SSW,201,0.0,0.0,79,0.00,,---,0.00,111.00,VWS V14.01,2013-04-11 12:25:00,
2013-04-11 08:26:00,63.3,56.7,29.80,SSW,201,0.0,0.0,79,0.00,,---,0.00,113.00,VWS V14.01,2013-04-11 12:26:00,
2013-04-11 08:27:00,63.3,56.7,29.80,SSW,201,0.0,0.0,79,0.00,,---,0.00,130.00,VWS V14.01,2013-04-11 12:27:00,
2013-04-11 08:28:00,63.3,56.7,29.80,SSW,201,0.0,0.0,79,0.00,,---,0.00,132.00,VWS V14.01,2013-04-11 12:28:00,
2013-04-11 08:29:00,63.1,56.5,29.80,SSW,195,0.0,0.0,79,0.00,,---,0.00,91.00,VWS V14.01,2013-04-11 12:29:00,
2013-04-11 08:30:00,63.4,56.1,29.80,SSW,201,0.0,0.0,77,0.00,,---,0.00,165.00,VWS V14.01,2013-04-11 12:30:00,
2013-04-11 08:31:00,63.4,56.1,29.80,SSW,201,0.0,0.0,77,0.00,,---,0.00,179.00,VWS V14.01,2013-04-11 12:31:00,
2013-04-11 08:33:00,63.5,56.5,29.80,SSW,201,0.0,0.0,78,0.00,,---,0.00,192.00,VWS V14.01,2013-04-11 12:33:00,
2013-04-11 08:34:00,63.2,56.6,29.80,SSW,201,0.0,0.0,79,0.00,,---,0.00,111.00,VWS V14.01,2013-04-11 12:34:00,
2013-04-11 08:35:00,63.8,56.8,29.80,SSW,201,0.0,0.0,78,0.00,,---,0.00,193.00,VWS V14.01,2013-04-11 12:35:00,
2013-04-11 08:37:00,64.0,56.7,29.80,SSW,201,0.0,0.0,77,0.00,,---,0.00,216.00,VWS V14.01,2013-04-11 12:37:00,
2013-04-11 08:38:00,64.1,56.4,29.80,SSW,201,0.0,1.0,76,0.00,,---,0.00,227.00,VWS V14.01,2013-04-11 12:38:00,
2013-04-11 08:39:00,63.4,56.4,29.80,SSW,201,0.0,0.0,78,0.00,,---,0.00,165.00,VWS V14.01,2013-04-11 12:39:00,
2013-04-11 08:40:00,64.5,56.8,29.80,WNW,291,1.0,3.0,76,0.00,,---,0.00,216.00,VWS V14.01,2013-04-11 12:40:00,
2013-04-11 08:42:00,65.0,56.9,29.80,WNW,292,0.0,3.0,75,0.00,,---,0.00,253.00,VWS V14.01,2013-04-11 12:42:00,
2013-04-11 08:43:00,65.2,57.1,29.80,WNW,292,0.0,3.0,75,0.00,,---,0.00,214.00,VWS V14.01,2013-04-11 12:43:00,
2013-04-11 08:44:00,63.8,56.8,29.80,SSW,201,0.0,0.0,78,0.00,,---,0.00,193.00,VWS V14.01,2013-04-11 12:44:00,
2013-04-11 08:45:00,65.6,57.5,29.80,WNW,292,0.0,3.0,75,0.00,,---,0.00,232.00,VWS V14.01,2013-04-11 12:45:00,
2013-04-11 08:46:00,65.8,57.3,29.80,WNW,292,0.0,3.0,74,0.00,,---,0.00,234.00,VWS V14.01,2013-04-11 12:46:00,
2013-04-11 08:47:00,66.0,57.5,29.80,WSW,251,1.0,3.0,74,0.00,,---,0.00,248.00,VWS V14.01,2013-04-11 12:47:00,
2013-04-11 08:48:00,66.2,57.3,29.80,WSW,252,1.0,3.0,73,0.00,,---,0.00,276.00,VWS V14.01,2013-04-11 12:48:00,
2013-04-11 08:49:00,64.4,56.7,29.80,WNW,291,2.0,3.0,76,0.00,,---,0.00,216.00,VWS V14.01,2013-04-11 12:49:00,
2013-04-11 08:50:00,66.5,56.8,29.80,West,273,0.0,1.0,71,0.00,,---,0.00,239.00,VWS V14.01,2013-04-11 12:50:00,
2013-04-11 08:51:00,66.7,57.4,29.80,West,273,1.0,1.0,72,0.00,,---,0.00,232.00,VWS V14.01,2013-04-11 12:51:00,
2013-04-11 08:52:00,66.8,57.5,29.80,West,269,0.0,1.0,72,0.00,,---,0.00,262.00,VWS V14.01,2013-04-11 12:52:00,
2013-04-11 08:53:00,67.0,56.9,29.80,West,274,0.0,2.0,70,0.00,,---,0.00,304.00,VWS V14.01,2013-04-11 12:53:00,
2013-04-11 08:54:00,67.2,57.1,29.80,West,273,0.0,2.0,70,0.00,,---,0.00,313.00,VWS V14.01,2013-04-11 12:54:00,
2013-04-11 08:55:00,65.7,57.6,29.80,WNW,292,0.0,3.0,75,0.00,,---,0.00,232.00,VWS V14.01,2013-04-11 12:55:00,
2013-04-11 08:58:00,67.8,57.3,29.80,West,263,0.0,2.0,69,0.00,,---,0.00,267.00,VWS V14.01,2013-04-11 12:58:00,
2013-04-11 08:59:00,67.9,57.8,29.80,West,278,3.0,3.0,70,0.00,,---,0.00,239.00,VWS V14.01,2013-04-11 12:59:00,
2013-04-11 09:00:00,66.6,56.9,29.80,West,273,0.0,1.0,71,0.00,,---,0.00,239.00,VWS V14.01,2013-04-11 13:00:00,
2013-04-11 09:01:00,68.2,57.2,29.80,NW,310,0.0,3.0,68,0.00,,---,0.00,223.00,VWS V14.01,2013-04-11 13:01:00,
2013-04-11 09:02:00,68.3,57.3,29.80,NW,307,2.0,3.0,68,0.00,,---,0.00,214.00,VWS V14.01,2013-04-11 13:02:00,
2013-04-11 09:03:00,68.4,57.8,29.80,West,263,3.0,3.0,69,0.00,,---,0.00,246.00,VWS V14.01,2013-04-11 13:03:00,
2013-04-11 09:04:00,68.5,57.5,29.80,WSW,257,0.0,5.0,68,0.00,,---,0.00,295.00,VWS V14.01,2013-04-11 13:04:00,
2013-04-11 09:05:00,67.4,57.3,29.80,West,273,0.0,2.0,70,0.00,,---,0.00,265.00,VWS V14.01,2013-04-11 13:05:00,
2013-04-11 09:06:00,68.6,57.6,29.80,SW,233,1.0,5.0,68,0.00,,---,0.00,308.00,VWS V14.01,2013-04-11 13:06:00,
2013-04-11 09:09:00,68.9,56.7,29.80,WSW,255,0.0,5.0,65,0.00,,---,0.00,206.00,VWS V14.01,2013-04-11 13:09:00,
2013-04-11 09:10:00,68.1,56.7,29.80,NW,310,1.0,3.0,67,0.00,,---,0.00,223.00,VWS V14.01,2013-04-11 13:10:00,
2013-04-11 09:11:00,69.0,56.8,29.80,West,263,0.0,4.0,65,0.00,,---,0.00,227.00,VWS V14.01,2013-04-11 13:11:00,
2013-04-11 09:12:00,69.0,56.8,29.80,West,275,1.0,4.0,65,0.00,,---,0.00,260.00,VWS V14.01,2013-04-11 13:12:00,
2013-04-11 09:13:00,69.1,56.8,29.80,West,279,1.0,4.0,65,0.00,,---,0.00,214.00,VWS V14.01,2013-04-11 13:13:00,
2013-04-11 09:14:00,69.2,57.0,29.80,West,275,0.0,4.0,65,0.00,,---,0.00,292.00,VWS V14.01,2013-04-11 13:14:00,
2013-04-11 09:15:00,68.6,58.0,29.80,SW,233,0.0,5.0,69,0.00,,---,0.00,308.00,VWS V14.01,2013-04-11 13:15:00,
2013-04-11 09:16:00,69.3,57.0,29.80,WSW,242,0.0,5.0,65,0.00,,---,0.00,297.00,VWS V14.01,2013-04-11 13:16:00,
2013-04-11 09:17:00,69.4,57.1,29.80,WSW,242,1.0,5.0,65,0.00,,---,0.00,216.00,VWS V14.01,2013-04-11 13:17:00,
2013-04-11 09:18:00,69.4,57.1,29.80,WSW,242,0.0,5.0,65,0.00,,---,0.00,223.00,VWS V14.01,2013-04-11 13:18:00,
2013-04-11 09:20:00,69.0,57.2,29.80,West,259,2.0,4.0,66,0.00,,---,0.00,227.00,VWS V14.01,2013-04-11 13:20:00,
2013-04-11 09:21:00,69.5,56.4,29.80,WSW,244,3.0,5.0,63,0.00,,---,0.00,246.00,VWS V14.01,2013-04-11 13:21:00,
2013-04-11 09:22:00,69.6,56.9,29.80,West,273,0.0,5.0,64,0.00,,---,0.00,243.00,VWS V14.01,2013-04-11 13:22:00,
2013-04-11 09:23:00,69.7,57.0,29.80,WNW,291,0.0,5.0,64,0.00,,---,0.00,218.00,VWS V14.01,2013-04-11 13:23:00,
2013-04-11 09:24:00,69.7,56.6,29.80,NW,325,1.0,5.0,63,0.00,,---,0.00,181.00,VWS V14.01,2013-04-11 13:24:00,
2013-04-11 09:25:00,69.3,57.5,29.80,WSW,242,0.0,5.0,66,0.00,,---,0.00,297.00,VWS V14.01,2013-04-11 13:25:00,
2013-04-11 09:28:00,69.8,56.2,29.79,West,259,0.0,5.0,62,0.00,,---,0.00,218.00,VWS V14.01,2013-04-11 13:28:00,
2013-04-11 09:29:00,69.8,57.1,29.80,West,267,0.0,5.0,64,0.00,,---,0.00,292.00,VWS V14.01,2013-04-11 13:29:00,
2013-04-11 09:30:00,69.9,57.6,29.79,West,267,0.0,1.0,65,0.00,,---,0.00,325.00,VWS V14.01,2013-04-11 13:30:00,
2013-04-11 09:31:00,69.5,56.4,29.80,WSW,244,0.0,5.0,63,0.00,,---,0.00,246.00,VWS V14.01,2013-04-11 13:31:00,
2013-04-11 09:32:00,69.9,57.2,29.79,WNW,283,1.0,3.0,64,0.00,,---,0.00,315.00,VWS V14.01,2013-04-11 13:32:00,
2013-04-11 09:33:00,70.0,56.8,29.79,NW,306,2.0,3.0,63,0.00,,---,0.00,378.00,VWS V14.01,2013-04-11 13:33:00,
2013-04-11 09:35:00,70.1,56.5,29.79,SSW,201,3.0,4.0,62,0.00,,---,0.00,418.00,VWS V14.01,2013-04-11 13:35:00,
2013-04-11 09:36:00,69.8,56.2,29.79,West,259,2.0,5.0,62,0.00,,---,0.00,183.00,VWS V14.01,2013-04-11 13:36:00,
2013-04-11 09:37:00,70.3,57.6,29.79,WNW,287,1.0,4.0,64,0.00,,---,0.00,399.00,VWS V14.01,2013-04-11 13:37:00,
2013-04-11 09:38:00,70.3,57.1,29.79,West,261,1.0,7.0,63,0.00,,---,0.00,290.00,VWS V14.01,2013-04-11 13:38:00,
2013-04-11 09:41:00,69.9,57.2,29.79,WNW,283,1.0,3.0,64,0.00,,---,0.00,313.00,VWS V14.01,2013-04-11 13:41:00,
2013-04-11 09:42:00,70.6,56.5,29.79,SSW,205,2.0,4.0,61,0.00,,---,0.00,320.00,VWS V14.01,2013-04-11 13:42:00,
2013-04-11 09:44:00,70.6,56.5,29.79,West,259,1.0,5.0,61,0.00,,---,0.00,388.00,VWS V14.01,2013-04-11 13:44:00,
2013-04-11 09:45:00,70.6,56.5,29.79,WNW,297,3.0,5.0,61,0.00,,---,0.00,422.00,VWS V14.01,2013-04-11 13:45:00,
2013-04-11 09:46:00,70.3,57.6,29.79,SSW,212,1.0,4.0,64,0.00,,---,0.00,399.00,VWS V14.01,2013-04-11 13:46:00,
2013-04-11 09:47:00,70.8,57.2,29.79,West,275,1.0,5.0,62,0.00,,---,0.00,422.00,VWS V14.01,2013-04-11 13:47:00,
2013-04-11 09:49:00,70.9,57.2,29.79,WSW,252,1.0,5.0,62,0.00,,---,0.00,455.00,VWS V14.01,2013-04-11 13:49:00,
2013-04-11 09:50:00,71.0,56.4,29.79,WSW,252,1.0,4.0,60,0.00,,---,0.00,455.00,VWS V14.01,2013-04-11 13:50:00,
2013-04-11 09:52:00,70.6,56.5,29.79,SSW,200,0.0,4.0,61,0.00,,---,0.00,352.00,VWS V14.01,2013-04-11 13:52:00,
2013-04-11 09:53:00,71.1,57.0,29.79,West,274,2.0,4.0,61,0.00,,---,0.00,385.00,VWS V14.01,2013-04-11 13:53:00,
2013-04-11 09:54:00,71.2,56.6,29.79,SW,234,6.0,6.0,60,0.00,,---,0.00,392.00,VWS V14.01,2013-04-11 13:54:00,
2013-04-11 09:55:00,71.2,57.1,29.79,WNW,302,0.0,6.0,61,0.00,,---,0.00,425.00,VWS V14.01,2013-04-11 13:55:00,
2013-04-11 09:56:00,71.2,57.1,29.79,WNW,294,1.0,6.0,61,0.00,,---,0.00,434.00,VWS V14.01,2013-04-11 13:56:00,
2013-04-11 09:57:00,70.8,57.2,29.79,West,274,0.0,5.0,62,0.00,,---,0.00,404.00,VWS V14.01,2013-04-11 13:57:00,
2013-04-11 09:58:00,71.3,56.7,29.79,West,259,0.0,6.0,60,0.00,,---,0.00,362.00,VWS V14.01,2013-04-11 13:58:00,
2013-04-11 09:59:00,71.4,57.7,29.79,West,265,2.0,6.0,62,0.00,,---,0.00,352.00,VWS V14.01,2013-04-11 13:59:00,
2013-04-11 10:00:00,71.5,58.3,29.79,West,273,0.0,1.0,63,0.00,,---,0.00,297.00,VWS V14.01,2013-04-11 14:00:00,
2013-04-11 10:02:00,71.0,56.4,29.79,NW,311,3.0,4.0,60,0.00,,---,0.00,387.00,VWS V14.01,2013-04-11 14:02:00,
2013-04-11 10:03:00,71.5,57.4,29.79,WNW,303,0.0,3.0,61,0.00,,---,0.00,299.00,VWS V14.01,2013-04-11 14:03:00,
2013-04-11 10:04:00,71.6,57.5,29.79,NW,306,1.0,3.0,61,0.00,,---,0.00,371.00,VWS V14.01,2013-04-11 14:04:00,
2013-04-11 10:05:00,71.6,58.3,29.79,West,265,2.0,3.0,63,0.00,,---,0.00,424.00,VWS V14.01,2013-04-11 14:05:00,
2013-04-11 10:06:00,71.7,58.5,29.79,West,277,1.0,3.0,63,0.00,,---,0.00,554.00,VWS V14.01,2013-04-11 14:06:00,
2013-04-11 10:07:00,71.3,56.7,29.79,WSW,257,0.0,6.0,60,0.00,,---,0.00,362.00,VWS V14.01,2013-04-11 14:07:00,
2013-04-11 10:08:00,71.8,57.6,29.79,WNW,284,1.0,3.0,61,0.00,,---,0.00,497.00,VWS V14.01,2013-04-11 14:08:00,
2013-04-11 10:09:00,71.9,57.7,29.79,WNW,289,6.0,6.0,61,0.00,,---,0.00,483.00,VWS V14.01,2013-04-11 14:09:00,
2013-04-11 10:10:00,71.9,57.7,29.79,West,280,6.0,6.0,61,0.00,,---,0.00,431.00,VWS V14.01,2013-04-11 14:10:00,
2013-04-11 10:12:00,71.5,57.4,29.79,WNW,303,0.0,3.0,61,0.00,,---,0.00,292.00,VWS V14.01,2013-04-11 14:12:00,
2013-04-11 10:13:00,72.0,57.8,29.78,West,277,2.0,6.0,61,0.00,,---,0.00,501.00,VWS V14.01,2013-04-11 14:13:00,
2013-04-11 10:16:00,72.1,57.5,29.78,WNW,291,1.0,8.0,60,0.00,,---,0.00,341.00,VWS V14.01,2013-04-11 14:16:00,
2013-04-11 10:17:00,71.8,57.6,29.79,WNW,284,2.0,3.0,61,0.00,,---,0.00,536.00,VWS V14.01,2013-04-11 14:17:00,
2013-04-11 10:18:00,72.0,56.9,29.78,WSW,247,0.0,8.0,59,0.00,,---,0.00,499.00,VWS V14.01,2013-04-11 14:18:00,
2013-04-11 10:19:00,72.0,56.9,29.78,WNW,297,2.0,8.0,59,0.00,,---,0.00,480.00,VWS V14.01,2013-04-11 14:19:00,
2013-04-11 10:21:00,72.1,57.5,29.78,SSW,196,0.0,4.0,60,0.00,,---,0.00,503.00,VWS V14.01,2013-04-11 14:21:00,
2013-04-11 10:22:00,72.0,57.8,29.78,WSW,252,0.0,6.0,61,0.00,,---,0.00,501.00,VWS V14.01,2013-04-11 14:22:00,
2013-04-11 10:23:00,72.2,57.6,29.78,WSW,246,0.0,4.0,60,0.00,,---,0.00,536.00,VWS V14.01,2013-04-11 14:23:00,
2013-04-11 10:24:00,72.2,57.6,29.78,SW,219,0.0,4.0,60,0.00,,---,0.00,638.00,VWS V14.01,2013-04-11 14:24:00,
2013-04-11 10:25:00,72.3,57.2,29.78,SW,234,1.0,4.0,59,0.00,,---,0.00,671.00,VWS V14.01,2013-04-11 14:25:00,
2013-04-11 10:26:00,72.4,57.3,29.78,SW,234,0.0,4.0,59,0.00,,---,0.00,652.00,VWS V14.01,2013-04-11 14:26:00,
2013-04-11 10:27:00,72.0,56.9,29.78,WSW,247,0.0,8.0,59,0.00,,---,0.00,441.00,VWS V14.01,2013-04-11 14:27:00,
2013-04-11 10:28:00,72.5,57.4,29.78,SW,234,1.0,4.0,59,0.00,,---,0.00,601.00,VWS V14.01,2013-04-11 14:28:00,
2013-04-11 10:29:00,72.6,57.5,29.78,WSW,241,0.0,4.0,59,0.00,,---,0.00,582.00,VWS V14.01,2013-04-11 14:29:00,
2013-04-11 10:30:00,72.8,58.6,29.78,WSW,241,1.0,1.0,61,0.00,,---,0.00,643.00,VWS V14.01,2013-04-11 14:30:00,
2013-04-11 10:32:00,72.2,57.6,29.78,WSW,244,0.0,4.0,60,0.00,,---,0.00,536.00,VWS V14.01,2013-04-11 14:32:00,
2013-04-11 10:33:00,73.1,57.9,29.78,West,261,0.0,5.0,59,0.00,,---,0.00,666.00,VWS V14.01,2013-04-11 14:33:00,
2013-04-11 10:34:00,73.2,57.5,29.78,West,265,1.0,5.0,58,0.00,,---,0.00,654.00,VWS V14.01,2013-04-11 14:34:00,
2013-04-11 10:37:00,72.5,57.4,29.78,SW,234,2.0,4.0,59,0.00,,---,0.00,601.00,VWS V14.01,2013-04-11 14:37:00,
2013-04-11 10:38:00,73.6,57.9,29.78,WSW,249,1.0,5.0,58,0.00,,---,0.00,679.00,VWS V14.01,2013-04-11 14:38:00,
2013-04-11 10:39:00,73.6,57.9,29.78,WSW,253,4.0,6.0,58,0.00,,---,0.00,670.00,VWS V14.01,2013-04-11 14:39:00,
2013-04-11 10:40:00,73.7,58.0,29.78,West,261,1.0,3.0,58,0.00,,---,0.00,656.00,VWS V14.01,2013-04-11 14:40:00,
2013-04-11 10:41:00,73.8,59.1,29.78,NW,304,1.0,3.0,60,0.00,,---,0.00,650.00,VWS V14.01,2013-04-11 14:41:00,
2013-04-11 10:42:00,73.9,58.2,29.78,NW,324,3.0,3.0,58,0.00,,---,0.00,629.00,VWS V14.01,2013-04-11 14:42:00,
2013-04-11 10:43:00,73.2,58.0,29.78,West,262,0.0,5.0,59,0.00,,---,0.00,666.00,VWS V14.01,2013-04-11 14:43:00,
2013-04-11 10:44:00,73.9,57.2,29.78,WSW,248,2.0,9.0,56,0.00,,---,0.00,679.00,VWS V14.01,2013-04-11 14:44:00,
2013-04-11 10:45:00,73.9,57.2,29.78,South,186,0.0,9.0,56,0.00,,---,0.00,666.00,VWS V14.01,2013-04-11 14:45:00,
2013-04-11 10:46:00,73.9,57.7,29.78,WSW,246,1.0,9.0,57,0.00,,---,0.00,696.00,VWS V14.01,2013-04-11 14:46:00,
2013-04-11 10:47:00,74.0,58.3,29.78,West,280,1.0,9.0,58,0.00,,---,0.00,721.00,VWS V14.01,2013-04-11 14:47:00,
2013-04-11 10:48:00,73.6,57.9,29.78,WSW,253,1.0,5.0,58,0.00,,---,0.00,670.00,VWS V14.01,2013-04-11 14:48:00,
2013-04-11 10:50:00,74.1,57.4,29.78,WNW,297,2.0,5.0,56,0.00,,---,0.00,731.00,VWS V14.01,2013-04-11 14:50:00,
2013-04-11 10:51:00,74.1,58.4,29.78,WSW,250,7.0,7.0,58,0.00,,---,0.00,731.00,VWS V14.01,2013-04-11 14:51:00,
2013-04-11 10:52:00,74.1,57.9,29.78,West,275,3.0,7.0,57,0.00,,---,0.00,724.00,VWS V14.01,2013-04-11 14:52:00,
2013-04-11 10:53:00,73.9,57.2,29.78,WSW,248,2.0,9.0,56,0.00,,---,0.00,679.00,VWS V14.01,2013-04-11 14:53:00,
2013-04-11 10:55:00,74.1,57.9,29.78,WSW,246,2.0,7.0,57,0.00,,---,0.00,742.00,VWS V14.01,2013-04-11 14:55:00,
2013-04-11 10:56:00,74.1,58.4,29.78,SW,231,5.0,9.0,58,0.00,,---,0.00,721.00,VWS V14.01,2013-04-11 14:56:00,
2013-04-11 10:57:00,74.1,56.4,29.78,SW,227,2.0,9.0,54,0.00,,---,0.00,721.00,VWS V14.01,2013-04-11 14:57:00,
2013-04-11 10:58:00,74.1,57.9,29.78,SW,221,4.0,9.0,57,0.00,,---,0.00,717.00,VWS V14.01,2013-04-11 14:58:00,
2013-04-11 10:59:00,74.1,57.4,29.78,NW,317,2.0,9.0,56,0.00,,---,0.00,629.00,VWS V14.01,2013-04-11 14:59:00,
2013-04-11 11:00:00,74.1,56.4,29.78,SW,231,0.0,8.0,54,0.00,,---,0.00,724.00,VWS V14.01,2013-04-11 15:00:00,
2013-04-11 11:01:00,74.1,56.4,29.78,NW,316,2.0,8.0,54,0.00,,---,0.00,733.00,VWS V14.01,2013-04-11 15:01:00,
2013-04-11 11:02:00,74.1,56.4,29.78,WNW,293,2.0,8.0,54,0.00,,---,0.00,742.00,VWS V14.01,2013-04-11 15:02:00,
2013-04-11 11:04:00,74.1,57.4,29.78,WSW,244,4.0,7.0,56,0.00,,---,0.00,733.00,VWS V14.01,2013-04-11 15:04:00,
2013-04-11 11:05:00,74.1,56.9,29.77,West,271,0.0,8.0,55,0.00,,---,0.00,700.00,VWS V14.01,2013-04-11 15:05:00,
2013-04-11 11:06:00,74.2,57.5,29.78,West,261,3.0,8.0,56,0.00,,---,0.00,687.00,VWS V14.01,2013-04-11 15:06:00,
2013-04-11 11:07:00,74.3,57.6,29.77,WSW,258,2.0,8.0,56,0.00,,---,0.00,687.00,VWS V14.01,2013-04-11 15:07:00,
2013-04-11 11:08:00,74.3,57.1,29.78,WNW,299,3.0,8.0,55,0.00,,---,0.00,332.00,VWS V14.01,2013-04-11 15:08:00,
2013-04-11 11:09:00,74.1,57.4,29.78,WSW,249,7.0,9.0,56,0.00,,---,0.00,629.00,VWS V14.01,2013-04-11 15:09:00,
2013-04-11 11:10:00,74.2,57.5,29.78,West,277,1.0,2.0,56,0.00,,---,0.00,279.00,VWS V14.01,2013-04-11 15:10:00,
2013-04-11 11:11:00,74.2,57.5,29.77,WSW,251,2.0,3.0,56,0.00,,---,0.00,362.00,VWS V14.01,2013-04-11 15:11:00,
2013-04-11 11:12:00,74.2,58.0,29.78,WSW,256,2.0,4.0,57,0.00,,---,0.00,295.00,VWS V14.01,2013-04-11 15:12:00,
2013-04-11 11:13:00,74.0,56.8,29.78,WSW,256,0.0,4.0,55,0.00,,---,0.00,315.00,VWS V14.01,2013-04-11 15:13:00,
2013-04-11 11:14:00,74.1,57.4,29.77,West,273,0.0,8.0,56,0.00,,---,0.00,700.00,VWS V14.01,2013-04-11 15:14:00,
2013-04-11 11:15:00,73.9,56.7,29.77,WNW,293,3.0,6.0,55,0.00,,---,0.00,343.00,VWS V14.01,2013-04-11 15:15:00,
2013-04-11 11:16:00,73.9,57.2,29.78,WSW,238,3.0,6.0,56,0.00,,---,0.00,343.00,VWS V14.01,2013-04-11 15:16:00,
2013-04-11 11:18:00,73.8,57.1,29.78,WSW,252,0.0,6.0,56,0.00,,---,0.00,649.00,VWS V14.01,2013-04-11 15:18:00,
2013-04-11 11:19:00,74.3,57.1,29.78,West,277,0.0,2.0,55,0.00,,---,0.00,309.00,VWS V14.01,2013-04-11 15:19:00,
2013-04-11 11:20:00,73.9,57.2,29.77,WNW,290,0.0,3.0,56,0.00,,---,0.00,432.00,VWS V14.01,2013-04-11 15:20:00,
2013-04-11 11:21:00,73.9,57.2,29.77,WSW,237,0.0,3.0,56,0.00,,---,0.00,455.00,VWS V14.01,2013-04-11 15:21:00,
2013-04-11 11:22:00,73.9,57.2,29.77,SW,229,1.0,4.0,56,0.00,,---,0.00,399.00,VWS V14.01,2013-04-11 15:22:00,
2013-04-11 11:23:00,73.9,56.7,29.77,NNW,334,0.0,4.0,55,0.00,,---,0.00,353.00,VWS V14.01,2013-04-11 15:23:00,
2013-04-11 11:24:00,74.0,56.3,29.77,SW,236,6.0,6.0,54,0.00,,---,0.00,343.00,VWS V14.01,2013-04-11 15:24:00,
2013-04-11 11:25:00,74.0,56.8,29.77,North,355,0.0,4.0,55,0.00,,---,0.00,332.00,VWS V14.01,2013-04-11 15:25:00,
2013-04-11 11:27:00,74.0,57.8,29.77,North,350,0.0,4.0,57,0.00,,---,0.00,323.00,VWS V14.01,2013-04-11 15:27:00,
2013-04-11 11:28:00,74.0,57.8,29.77,North,350,0.0,4.0,57,0.00,,---,0.00,360.00,VWS V14.01,2013-04-11 15:28:00,
2013-04-11 11:29:00,73.9,57.2,29.77,WNW,297,1.0,3.0,56,0.00,,---,0.00,432.00,VWS V14.01,2013-04-11 15:29:00,
2013-04-11 11:31:00,74.1,56.9,29.77,WSW,255,1.0,4.0,55,0.00,,---,0.00,439.00,VWS V14.01,2013-04-11 15:31:00,
2013-04-11 11:32:00,74.1,56.9,29.77,WNW,285,1.0,4.0,55,0.00,,---,0.00,462.00,VWS V14.01,2013-04-11 15:32:00,
2013-04-11 11:33:00,74.1,56.9,29.77,West,259,2.0,6.0,55,0.00,,---,0.00,478.00,VWS V14.01,2013-04-11 15:33:00,
2013-04-11 11:34:00,74.0,56.8,29.77,North,355,0.0,4.0,55,0.00,,---,0.00,332.00,VWS V14.01,2013-04-11 15:34:00,
2013-04-11 11:35:00,74.2,56.0,29.77,West,267,4.0,6.0,53,0.00,,---,0.00,415.00,VWS V14.01,2013-04-11 15:35:00,
2013-04-11 11:37:00,74.2,56.5,29.77,WSW,250,6.0,6.0,54,0.00,,---,0.00,410.00,VWS V14.01,2013-04-11 15:37:00,
2013-04-11 11:38:00,74.2,56.5,29.77,WNW,285,3.0,6.0,54,0.00,,---,0.00,436.00,VWS V14.01,2013-04-11 15:38:00,
2013-04-11 11:39:00,74.2,56.0,29.77,SW,234,2.0,6.0,53,0.00,,---,0.00,413.00,VWS V14.01,2013-04-11 15:39:00,
2013-04-11 11:40:00,74.0,56.3,29.77,NNW,329,0.0,4.0,54,0.00,,---,0.00,399.00,VWS V14.01,2013-04-11 15:40:00,
2013-04-11 11:41:00,74.1,56.4,29.77,WNW,289,3.0,4.0,54,0.00,,---,0.00,410.00,VWS V14.01,2013-04-11 15:41:00,
2013-04-11 11:42:00,74.1,55.9,29.77,WNW,290,0.0,4.0,53,0.00,,---,0.00,413.00,VWS V14.01,2013-04-11 15:42:00,
2013-04-11 11:43:00,74.1,55.9,29.77,WNW,289,0.0,4.0,53,0.00,,---,0.00,432.00,VWS V14.01,2013-04-11 15:43:00,
2013-04-11 11:44:00,74.1,55.9,29.77,WNW,291,2.0,4.0,53,0.00,,---,0.00,461.00,VWS V14.01,2013-04-11 15:44:00,
2013-04-11 11:45:00,74.2,57.0,29.77,West,261,0.0,6.0,55,0.00,,---,0.00,415.00,VWS V14.01,2013-04-11 15:45:00,
2013-04-11 11:47:00,74.2,57.5,29.76,West,260,1.0,7.0,56,0.00,,---,0.00,585.00,VWS V14.01,2013-04-11 15:47:00,
2013-04-11 11:48:00,74.3,57.6,29.76,WSW,258,3.0,7.0,56,0.00,,---,0.00,619.00,VWS V14.01,2013-04-11 15:48:00,
2013-04-11 11:49:00,74.3,57.1,29.76,WSW,255,2.0,7.0,55,0.00,,---,0.00,619.00,VWS V14.01,2013-04-11 15:49:00,
2013-04-11 11:50:00,74.2,56.5,29.77,WNW,296,4.0,4.0,54,0.00,,---,0.00,392.00,VWS V14.01,2013-04-11 15:50:00,
2013-04-11 11:51:00,74.4,56.2,29.76,WNW,283,0.0,3.0,53,0.00,,---,0.00,591.00,VWS V14.01,2013-04-11 15:51:00,
2013-04-11 11:52:00,74.4,56.7,29.76,WSW,258,1.0,3.0,54,0.00,,---,0.00,608.00,VWS V14.01,2013-04-11 15:52:00,
2013-04-11 11:53:00,74.4,57.7,29.76,WNW,294,1.0,4.0,56,0.00,,---,0.00,585.00,VWS V14.01,2013-04-11 15:53:00,
2013-04-11 11:54:00,74.5,57.3,29.76,WSW,242,3.0,7.0,55,0.00,,---,0.00,603.00,VWS V14.01,2013-04-11 15:54:00,
2013-04-11 11:55:00,74.1,57.9,29.77,WSW,239,1.0,7.0,57,0.00,,---,0.00,584.00,VWS V14.01,2013-04-11 15:55:00,
2013-04-11 11:57:00,74.6,58.4,29.76,WNW,295,3.0,7.0,57,0.00,,---,0.00,605.00,VWS V14.01,2013-04-11 15:57:00,
2013-04-11 11:58:00,74.8,59.0,29.76,WSW,244,2.0,7.0,58,0.00,,---,0.00,589.00,VWS V14.01,2013-04-11 15:58:00,
2013-04-11 11:59:00,74.8,58.1,29.76,West,261,2.0,7.0,56,0.00,,---,0.00,519.00,VWS V14.01,2013-04-11 15:59:00,
2013-04-11 12:00:00,74.3,57.1,29.76,WNW,288,1.0,3.0,55,0.00,,---,0.00,605.00,VWS V14.01,2013-04-11 16:00:00,
2013-04-11 12:03:00,74.9,55.6,29.76,SSW,202,1.0,9.0,51,0.00,,---,0.00,487.00,VWS V14.01,2013-04-11 16:03:00,
2013-04-11 12:04:00,74.9,57.2,29.76,West,281,1.0,9.0,54,0.00,,---,0.00,485.00,VWS V14.01,2013-04-11 16:04:00,
2013-04-11 12:05:00,74.6,57.4,29.76,West,270,1.0,7.0,55,0.00,,---,0.00,596.00,VWS V14.01,2013-04-11 16:05:00,
2013-04-11 12:06:00,74.9,56.6,29.76,West,265,2.0,9.0,53,0.00,,---,0.00,443.00,VWS V14.01,2013-04-11 16:06:00,
2013-04-11 12:07:00,74.9,57.7,29.76,West,267,0.0,9.0,55,0.00,,---,0.00,462.00,VWS V14.01,2013-04-11 16:07:00,
2013-04-11 12:10:00,74.9,57.2,29.76,WSW,251,2.0,7.0,54,0.00,,---,0.00,490.00,VWS V14.01,2013-04-11 16:10:00,
2013-04-11 12:11:00,75.1,55.8,29.76,NNE,14,0.0,3.0,51,0.00,,---,0.00,504.00,VWS V14.01,2013-04-11 16:11:00,
2013-04-11 12:12:00,75.1,55.8,29.76,NW,319,1.0,7.0,51,0.00,,---,0.00,543.00,VWS V14.01,2013-04-11 16:12:00,
2013-04-11 12:15:00,74.9,56.6,29.76,West,264,2.0,9.0,53,0.00,,---,0.00,443.00,VWS V14.01,2013-04-11 16:15:00,
2013-04-11 12:16:00,75.3,57.0,29.76,WNW,287,0.0,7.0,53,0.00,,---,0.00,578.00,VWS V14.01,2013-04-11 16:16:00,
2013-04-11 12:17:00,75.3,57.0,29.76,WNW,290,1.0,7.0,53,0.00,,---,0.00,578.00,VWS V14.01,2013-04-11 16:17:00,
2013-04-11 12:18:00,75.4,57.1,29.76,WNW,296,0.0,7.0,53,0.00,,---,0.00,942.00,VWS V14.01,2013-04-11 16:18:00,
2013-04-11 12:19:00,75.5,58.2,29.75,WSW,254,1.0,7.0,55,0.00,,---,0.00,905.00,VWS V14.01,2013-04-11 16:19:00,
2013-04-11 12:20:00,75.1,55.8,29.76,NNE,14,0.0,3.0,51,0.00,,---,0.00,473.00,VWS V14.01,2013-04-11 16:20:00,
2013-04-11 12:21:00,75.7,57.4,29.75,WSW,244,0.0,4.0,53,0.00,,---,0.00,949.00,VWS V14.01,2013-04-11 16:21:00,
2013-04-11 12:22:00,75.9,57.0,29.75,West,278,6.0,6.0,52,0.00,,---,0.00,942.00,VWS V14.01,2013-04-11 16:22:00,
2013-04-11 12:23:00,76.0,56.6,29.75,WSW,251,0.0,7.0,51,0.00,,---,0.00,844.00,VWS V14.01,2013-04-11 16:23:00,
2013-04-11 12:24:00,76.1,56.7,29.75,NW,304,1.0,7.0,51,0.00,,---,0.00,940.00,VWS V14.01,2013-04-11 16:24:00,
2013-04-11 12:25:00,75.2,56.9,29.76,WNW,286,2.0,7.0,53,0.00,,---,0.00,578.00,VWS V14.01,2013-04-11 16:25:00,
2013-04-11 12:26:00,76.2,55.7,29.75,SW,236,2.0,9.0,49,0.00,,---,0.00,884.00,VWS V14.01,2013-04-11 16:26:00,
2013-04-11 12:27:00,76.1,55.6,29.75,SW,236,0.0,9.0,49,0.00,,---,0.00,889.00,VWS V14.01,2013-04-11 16:27:00,
2013-04-11 12:28:00,76.1,56.1,29.75,WNW,294,3.0,9.0,50,0.00,,---,0.00,870.00,VWS V14.01,2013-04-11 16:28:00,
2013-04-11 12:29:00,76.0,55.5,29.75,NNW,329,0.0,9.0,49,0.00,,---,0.00,853.00,VWS V14.01,2013-04-11 16:29:00,
2013-04-11 12:30:00,75.7,57.4,29.75,WSW,254,2.0,4.0,53,0.00,,---,0.00,993.00,VWS V14.01,2013-04-11 16:30:00,
2013-04-11 12:32:00,76.0,56.6,29.74,WNW,283,2.0,4.0,51,0.00,,---,0.00,765.00,VWS V14.01,2013-04-11 16:32:00,
2013-04-11 12:33:00,76.0,56.6,29.75,SW,236,2.0,4.0,51,0.00,,---,0.00,768.00,VWS V14.01,2013-04-11 16:33:00,
2013-04-11 12:34:00,76.1,57.8,29.74,West,269,5.0,5.0,53,0.00,,---,0.00,749.00,VWS V14.01,2013-04-11 16:34:00,
2013-04-11 12:35:00,76.2,57.3,29.74,NW,315,5.0,6.0,52,0.00,,---,0.00,838.00,VWS V14.01,2013-04-11 16:35:00,
2013-04-11 12:36:00,76.2,55.7,29.75,SW,236,0.0,9.0,49,0.00,,---,0.00,923.00,VWS V14.01,2013-04-11 16:36:00,
2013-04-11 12:37:00,76.3,56.9,29.74,West,268,5.0,11.0,51,0.00,,---,0.00,780.00,VWS V14.01,2013-04-11 16:37:00,
2013-04-11 12:38:00,76.3,56.3,29.74,WNW,290,1.0,11.0,50,0.00,,---,0.00,777.00,VWS V14.01,2013-04-11 16:38:00,
2013-04-11 12:39:00,76.3,55.8,29.74,WSW,244,5.0,11.0,49,0.00,,---,0.00,947.00,VWS V14.01,2013-04-11 16:39:00,
2013-04-11 12:40:00,76.4,57.0,29.74,WSW,242,6.0,9.0,51,0.00,,---,0.00,947.00,VWS V14.01,2013-04-11 16:40:00,
2013-04-11 12:41:00,76.0,56.6,29.74,West,277,1.0,4.0,51,0.00,,---,0.00,765.00,VWS V14.01,2013-04-11 16:41:00,
2013-04-11 12:43:00,76.4,57.0,29.74,WSW,244,6.0,9.0,51,0.00,,---,0.00,798.00,VWS V14.01,2013-04-11 16:43:00,
2013-04-11 12:44:00,76.4,55.8,29.74,WSW,249,5.0,9.0,49,0.00,,---,0.00,779.00,VWS V14.01,2013-04-11 16:44:00,
2013-04-11 12:45:00,76.4,56.4,29.74,NNW,331,2.0,9.0,50,0.00,,---,0.00,779.00,VWS V14.01,2013-04-11 16:45:00,
2013-04-11 12:46:00,76.3,57.4,29.74,SW,231,6.0,11.0,52,0.00,,---,0.00,780.00,VWS V14.01,2013-04-11 16:46:00,
2013-04-11 12:47:00,76.5,55.4,29.74,SW,223,0.0,9.0,48,0.00,,---,0.00,436.00,VWS V14.01,2013-04-11 16:47:00,
2013-04-11 12:48:00,76.5,56.5,29.74,SW,223,1.0,9.0,50,0.00,,---,0.00,534.00,VWS V14.01,2013-04-11 16:48:00,
2013-04-11 12:49:00,76.5,56.5,29.73,SW,215,1.0,9.0,50,0.00,,---,0.00,612.00,VWS V14.01,2013-04-11 16:49:00,
2013-04-11 12:51:00,76.6,57.1,29.74,NW,309,5.0,5.0,51,0.00,,---,0.00,587.00,VWS V14.01,2013-04-11 16:51:00,
2013-04-11 12:52:00,76.4,56.4,29.74,West,279,5.0,9.0,50,0.00,,---,0.00,893.00,VWS V14.01,2013-04-11 16:52:00,
2013-04-11 12:53:00,76.6,56.0,29.73,WSW,240,1.0,7.0,49,0.00,,---,0.00,504.00,VWS V14.01,2013-04-11 16:53:00,
2013-04-11 12:54:00,76.6,56.0,29.73,WSW,246,5.0,7.0,49,0.00,,---,0.00,504.00,VWS V14.01,2013-04-11 16:54:00,
2013-04-11 12:55:00,76.6,56.0,29.73,South,174,0.0,7.0,49,0.00,,---,0.00,469.00,VWS V14.01,2013-04-11 16:55:00,
2013-04-11 12:57:00,76.5,55.4,29.74,SW,223,0.0,9.0,48,0.00,,---,0.00,436.00,VWS V14.01,2013-04-11 16:57:00,
2013-04-11 12:58:00,76.5,55.9,29.73,West,281,1.0,7.0,49,0.00,,---,0.00,577.00,VWS V14.01,2013-04-11 16:58:00,
2013-04-11 12:59:00,76.5,57.0,29.73,WNW,292,0.0,7.0,51,0.00,,---,0.00,578.00,VWS V14.01,2013-04-11 16:59:00,
2013-04-11 13:00:00,76.6,57.1,29.73,WNW,288,0.0,2.0,51,0.00,,---,0.00,664.00,VWS V14.01,2013-04-11 17:00:00,
2013-04-11 13:01:00,76.6,57.1,29.73,West,278,2.0,3.0,51,0.00,,---,0.00,705.00,VWS V14.01,2013-04-11 17:01:00,
2013-04-11 13:02:00,76.6,56.0,29.73,WSW,241,2.0,5.0,49,0.00,,---,0.00,504.00,VWS V14.01,2013-04-11 17:02:00,
2013-04-11 13:03:00,76.7,56.7,29.72,NW,310,4.0,4.0,50,0.00,,---,0.00,754.00,VWS V14.01,2013-04-11 17:03:00,
2013-04-11 13:04:00,76.8,56.2,29.73,NW,309,2.0,4.0,49,0.00,,---,0.00,694.00,VWS V14.01,2013-04-11 17:04:00,
2013-04-11 13:05:00,76.9,55.7,29.72,SSE,150,2.0,4.0,48,0.00,,---,0.00,722.00,VWS V14.01,2013-04-11 17:05:00,
2013-04-11 13:06:00,76.9,55.7,29.72,ESE,121,0.0,4.0,48,0.00,,---,0.00,772.00,VWS V14.01,2013-04-11 17:06:00,
2013-04-11 13:07:00,76.5,55.9,29.73,WSW,242,0.0,7.0,49,0.00,,---,0.00,541.00,VWS V14.01,2013-04-11 17:07:00,
2013-04-11 13:08:00,77.0,57.0,29.72,WNW,291,2.0,5.0,50,0.00,,---,0.00,631.00,VWS V14.01,2013-04-11 17:08:00,
2013-04-11 13:10:00,77.2,57.7,29.72,WSW,241,6.0,6.0,51,0.00,,---,0.00,657.00,VWS V14.01,2013-04-11 17:10:00,
2013-04-11 13:11:00,77.3,56.7,29.72,WSW,239,4.0,9.0,49,0.00,,---,0.00,1009.00,VWS V14.01,2013-04-11 17:11:00,
2013-04-11 13:12:00,76.7,56.7,29.72,North,351,0.0,3.0,50,0.00,,---,0.00,789.00,VWS V14.01,2013-04-11 17:12:00,
2013-04-11 13:14:00,77.5,57.4,29.72,WSW,240,2.0,9.0,50,0.00,,---,0.00,925.00,VWS V14.01,2013-04-11 17:14:00,
2013-04-11 13:15:00,77.6,57.5,29.72,WSW,254,4.0,9.0,50,0.00,,---,0.00,851.00,VWS V14.01,2013-04-11 17:15:00,
2013-04-11 13:16:00,77.7,57.6,29.72,WNW,287,8.0,15.0,50,0.00,,---,0.00,821.00,VWS V14.01,2013-04-11 17:16:00,
2013-04-11 13:17:00,77.0,57.0,29.72,West,269,2.0,5.0,50,0.00,,---,0.00,703.00,VWS V14.01,2013-04-11 17:17:00,
2013-04-11 13:18:00,77.6,57.5,29.72,WSW,242,3.0,15.0,50,0.00,,---,0.00,902.00,VWS V14.01,2013-04-11 17:18:00,
2013-04-11 13:19:00,77.6,57.5,29.72,SW,229,5.0,15.0,50,0.00,,---,0.00,763.00,VWS V14.01,2013-04-11 17:19:00,
2013-04-11 13:21:00,77.8,57.7,29.72,West,277,1.0,7.0,50,0.00,,---,0.00,747.00,VWS V14.01,2013-04-11 17:21:00,
2013-04-11 13:22:00,77.5,55.7,29.72,WNW,302,1.0,9.0,47,0.00,,---,0.00,967.00,VWS V14.01,2013-04-11 17:22:00,
2013-04-11 13:23:00,77.9,58.9,29.72,SE,144,3.0,7.0,52,0.00,,---,0.00,715.00,VWS V14.01,2013-04-11 17:23:00,
2013-04-11 13:24:00,78.0,57.3,29.72,SW,232,4.0,7.0,49,0.00,,---,0.00,650.00,VWS V14.01,2013-04-11 17:24:00,
2013-04-11 13:25:00,78.0,58.4,29.72,WSW,237,1.0,7.0,51,0.00,,---,0.00,684.00,VWS V14.01,2013-04-11 17:25:00,
2013-04-11 13:27:00,78.1,57.4,29.72,WSW,251,5.0,7.0,49,0.00,,---,0.00,745.00,VWS V14.01,2013-04-11 17:27:00,
2013-04-11 13:28:00,77.6,57.5,29.72,West,259,3.0,15.0,50,0.00,,---,0.00,902.00,VWS V14.01,2013-04-11 17:28:00,
2013-04-11 13:29:00,78.1,56.8,29.72,WSW,238,1.0,7.0,48,0.00,,---,0.00,923.00,VWS V14.01,2013-04-11 17:29:00,
2013-04-11 13:30:00,78.1,56.8,29.71,West,279,0.0,5.0,48,0.00,,---,0.00,898.00,VWS V14.01,2013-04-11 17:30:00,
2013-04-11 13:32:00,78.1,56.8,29.71,WNW,297,1.0,5.0,48,0.00,,---,0.00,962.00,VWS V14.01,2013-04-11 17:32:00,
2013-04-11 13:33:00,77.9,56.7,29.72,WSW,238,3.0,7.0,48,0.00,,---,0.00,650.00,VWS V14.01,2013-04-11 17:33:00,
2013-04-11 13:34:00,78.1,56.2,29.71,West,264,0.0,6.0,47,0.00,,---,0.00,1028.00,VWS V14.01,2013-04-11 17:34:00,
2013-04-11 13:35:00,78.1,57.4,29.71,NNW,338,5.0,6.0,49,0.00,,---,0.00,1048.00,VWS V14.01,2013-04-11 17:35:00,
2013-04-11 13:36:00,78.2,57.5,29.71,SSE,159,3.0,6.0,49,0.00,,---,0.00,1021.00,VWS V14.01,2013-04-11 17:36:00,
2013-04-11 13:37:00,78.3,56.4,29.71,SW,234,1.0,6.0,47,0.00,,---,0.00,962.00,VWS V14.01,2013-04-11 17:37:00,
2013-04-11 13:38:00,78.1,56.2,29.72,West,275,0.0,7.0,47,0.00,,---,0.00,923.00,VWS V14.01,2013-04-11 17:38:00,
2013-04-11 13:39:00,78.6,56.7,29.70,WNW,292,10.0,11.0,47,0.00,,---,0.00,940.00,VWS V14.01,2013-04-11 17:39:00,
2013-04-11 13:41:00,78.7,57.4,29.70,WSW,258,4.0,10.0,48,0.00,,---,0.00,962.00,VWS V14.01,2013-04-11 17:41:00,
2013-04-11 13:42:00,78.8,58.0,29.70,WSW,258,4.0,10.0,49,0.00,,---,0.00,976.00,VWS V14.01,2013-04-11 17:42:00,
2013-04-11 13:43:00,78.1,56.2,29.71,WSW,258,4.0,6.0,47,0.00,,---,0.00,1028.00,VWS V14.01,2013-04-11 17:43:00,
2013-04-11 13:44:00,78.8,57.5,29.70,West,268,3.0,10.0,48,0.00,,---,0.00,921.00,VWS V14.01,2013-04-11 17:44:00,
2013-04-11 13:48:00,78.6,56.7,29.70,WNW,291,3.0,11.0,47,0.00,,---,0.00,940.00,VWS V14.01,2013-04-11 17:48:00,
2013-04-11 13:49:00,78.8,55.7,29.70,NNW,336,2.0,10.0,45,0.00,,---,0.00,867.00,VWS V14.01,2013-04-11 17:49:00,
2013-04-11 13:50:00,78.8,56.9,29.70,SW,230,1.0,5.0,47,0.00,,---,0.00,979.00,VWS V14.01,2013-04-11 17:50:00,
2013-04-11 13:51:00,78.8,58.0,29.70,WSW,252,0.0,6.0,49,0.00,,---,0.00,967.00,VWS V14.01,2013-04-11 17:51:00,
2013-04-11 13:52:00,78.9,57.0,29.70,West,273,1.0,6.0,47,0.00,,---,0.00,981.00,VWS V14.01,2013-04-11 17:52:00,
2013-04-11 13:53:00,78.8,57.5,29.70,West,278,0.0,10.0,48,0.00,,---,0.00,921.00,VWS V14.01,2013-04-11 17:53:00,
2013-04-11 13:55:00,79.0,56.5,29.69,SSW,207,0.0,6.0,46,0.00,,---,0.00,954.00,VWS V14.01,2013-04-11 17:55:00,
2013-04-11 13:58:00,78.9,56.4,29.69,WNW,291,3.0,9.0,46,0.00,,---,0.00,272.00,VWS V14.01,2013-04-11 17:58:00,
2013-04-11 13:59:00,78.8,55.7,29.70,WSW,254,5.0,10.0,45,0.00,,---,0.00,867.00,VWS V14.01,2013-04-11 17:59:00,
2013-04-11 14:00:00,78.7,57.4,29.69,West,271,1.0,6.0,48,0.00,,---,0.00,823.00,VWS V14.01,2013-04-11 18:00:00,
2013-04-11 14:01:00,78.7,58.0,29.69,WSW,252,0.0,6.0,49,0.00,,---,0.00,823.00,VWS V14.01,2013-04-11 18:01:00,
2013-04-11 14:02:00,78.7,56.8,29.69,WSW,247,0.0,6.0,47,0.00,,---,0.00,874.00,VWS V14.01,2013-04-11 18:02:00,
2013-04-11 14:03:00,78.8,56.3,29.69,WSW,252,0.0,6.0,46,0.00,,---,0.00,874.00,VWS V14.01,2013-04-11 18:03:00,
2013-04-11 14:04:00,79.0,56.5,29.69,SSW,208,3.0,6.0,46,0.00,,---,0.00,954.00,VWS V14.01,2013-04-11 18:04:00,
2013-04-11 14:05:00,79.0,57.7,29.69,WSW,246,5.0,6.0,48,0.00,,---,0.00,997.00,VWS V14.01,2013-04-11 18:05:00,
2013-04-11 14:06:00,79.1,57.2,29.69,West,281,3.0,12.0,47,0.00,,---,0.00,984.00,VWS V14.01,2013-04-11 18:06:00,
2013-04-11 14:07:00,79.2,57.8,29.69,SW,231,4.0,12.0,48,0.00,,---,0.00,991.00,VWS V14.01,2013-04-11 18:07:00,
2013-04-11 14:08:00,79.3,59.1,29.69,WSW,244,2.0,12.0,50,0.00,,---,0.00,986.00,VWS V14.01,2013-04-11 18:08:00,
2013-04-11 14:09:00,78.7,57.4,29.69,West,278,1.0,6.0,48,0.00,,---,0.00,823.00,VWS V14.01,2013-04-11 18:09:00,
2013-04-11 14:10:00,79.6,57.6,29.68,NW,304,2.0,4.0,47,0.00,,---,0.00,1013.00,VWS V14.01,2013-04-11 18:10:00,
2013-04-11 14:11:00,79.6,57.6,29.68,SW,236,4.0,5.0,47,0.00,,---,0.00,997.00,VWS V14.01,2013-04-11 18:11:00,
2013-04-11 14:12:00,79.7,57.7,29.68,West,262,4.0,5.0,47,0.00,,---,0.00,997.00,VWS V14.01,2013-04-11 18:12:00,
2013-04-11 14:13:00,79.9,58.5,29.68,West,275,4.0,7.0,48,0.00,,---,0.00,837.00,VWS V14.01,2013-04-11 18:13:00,
2013-04-11 14:14:00,78.9,57.6,29.69,WSW,240,6.0,6.0,48,0.00,,---,0.00,997.00,VWS V14.01,2013-04-11 18:14:00,
2013-04-11 14:15:00,79.8,56.0,29.68,West,260,1.0,14.0,44,0.00,,---,0.00,599.00,VWS V14.01,2013-04-11 18:15:00,
2013-04-11 14:17:00,79.8,56.0,29.68,West,264,2.0,14.0,44,0.00,,---,0.00,737.00,VWS V14.01,2013-04-11 18:17:00,
2013-04-11 14:18:00,79.8,55.3,29.68,WSW,240,1.0,14.0,43,0.00,,---,0.00,881.00,VWS V14.01,2013-04-11 18:18:00,
2013-04-11 14:19:00,79.7,55.9,29.68,NW,306,3.0,14.0,44,0.00,,---,0.00,960.00,VWS V14.01,2013-04-11 18:19:00,
2013-04-11 14:20:00,79.6,57.6,29.68,WSW,241,4.0,4.0,47,0.00,,---,0.00,1013.00,VWS V14.01,2013-04-11 18:20:00,
2013-04-11 14:21:00,79.7,56.5,29.68,WSW,244,2.0,9.0,45,0.00,,---,0.00,1028.00,VWS V14.01,2013-04-11 18:21:00,
2013-04-11 14:23:00,79.9,56.7,29.68,WSW,250,1.0,9.0,45,0.00,,---,0.00,1035.00,VWS V14.01,2013-04-11 18:23:00,
2013-04-11 14:24:00,80.1,57.5,29.68,West,276,4.0,9.0,46,0.00,,---,0.00,984.00,VWS V14.01,2013-04-11 18:24:00,
2013-04-11 14:25:00,79.9,56.1,29.68,West,275,5.0,14.0,44,0.00,,---,0.00,599.00,VWS V14.01,2013-04-11 18:25:00,
2013-04-11 14:27:00,80.4,55.2,29.68,WSW,249,5.0,9.0,42,0.00,,---,0.00,930.00,VWS V14.01,2013-04-11 18:27:00,
2013-04-11 14:28:00,80.4,55.9,29.68,WNW,286,1.0,9.0,43,0.00,,---,0.00,867.00,VWS V14.01,2013-04-11 18:28:00,
2013-04-11 14:29:00,80.3,56.4,29.68,West,277,4.0,11.0,44,0.00,,---,0.00,756.00,VWS V14.01,2013-04-11 18:29:00,
2013-04-11 14:30:00,79.7,56.5,29.68,WSW,248,5.0,9.0,45,0.00,,---,0.00,988.00,VWS V14.01,2013-04-11 18:30:00,
2013-04-11 14:31:00,80.2,56.3,29.68,WSW,257,7.0,10.0,44,0.00,,---,0.00,635.00,VWS V14.01,2013-04-11 18:31:00,
2013-04-11 14:32:00,80.2,57.0,29.68,West,262,3.0,10.0,45,0.00,,---,0.00,698.00,VWS V14.01,2013-04-11 18:32:00,
2013-04-11 14:33:00,80.1,55.6,29.67,West,272,6.0,11.0,43,0.00,,---,0.00,698.00,VWS V14.01,2013-04-11 18:33:00,
2013-04-11 14:34:00,80.1,56.2,29.68,West,261,2.0,11.0,44,0.00,,---,0.00,962.00,VWS V14.01,2013-04-11 18:34:00,
2013-04-11 14:35:00,80.3,55.8,29.68,West,268,2.0,9.0,43,0.00,,---,0.00,970.00,VWS V14.01,2013-04-11 18:35:00,
2013-04-11 14:37:00,80.2,56.3,29.67,WSW,238,4.0,12.0,44,0.00,,---,0.00,693.00,VWS V14.01,2013-04-11 18:37:00,
2013-04-11 14:38:00,80.2,56.3,29.67,WSW,249,4.0,12.0,44,0.00,,---,0.00,612.00,VWS V14.01,2013-04-11 18:38:00,
2013-04-11 14:39:00,80.2,57.0,29.67,WNW,288,6.0,12.0,45,0.00,,---,0.00,589.00,VWS V14.01,2013-04-11 18:39:00,
2013-04-11 14:40:00,80.2,56.3,29.68,WSW,258,3.0,8.0,44,0.00,,---,0.00,756.00,VWS V14.01,2013-04-11 18:40:00,
2013-04-11 14:41:00,80.1,56.2,29.67,WSW,257,2.0,9.0,44,0.00,,---,0.00,784.00,VWS V14.01,2013-04-11 18:41:00,
2013-04-11 14:42:00,80.1,56.9,29.67,West,278,2.0,9.0,45,0.00,,---,0.00,784.00,VWS V14.01,2013-04-11 18:42:00,
2013-04-11 14:43:00,80.1,55.6,29.67,WSW,247,3.0,9.0,43,0.00,,---,0.00,838.00,VWS V14.01,2013-04-11 18:43:00,
2013-04-11 14:44:00,80.3,55.8,29.67,WSW,238,3.0,9.0,43,0.00,,---,0.00,923.00,VWS V14.01,2013-04-11 18:44:00,
2013-04-11 14:45:00,80.1,56.9,29.67,NW,306,5.0,11.0,45,0.00,,---,0.00,958.00,VWS V14.01,2013-04-11 18:45:00,
2013-04-11 14:47:00,80.4,55.9,29.67,NNW,327,0.0,9.0,43,0.00,,---,0.00,932.00,VWS V14.01,2013-04-11 18:47:00,
2013-04-11 14:48:00,80.4,55.2,29.67,SW,232,1.0,9.0,42,0.00,,---,0.00,932.00,VWS V14.01,2013-04-11 18:48:00,
2013-04-11 14:49:00,80.4,56.5,29.67,WSW,255,1.0,9.0,44,0.00,,---,0.00,770.00,VWS V14.01,2013-04-11 18:49:00,
2013-04-11 14:50:00,80.1,56.9,29.67,WSW,250,2.0,9.0,45,0.00,,---,0.00,784.00,VWS V14.01,2013-04-11 18:50:00,
2013-04-11 14:52:00,80.5,56.0,29.67,West,269,3.0,8.0,43,0.00,,---,0.00,868.00,VWS V14.01,2013-04-11 18:52:00,
2013-04-11 14:53:00,80.5,54.0,29.67,West,261,5.0,10.0,40,0.00,,---,0.00,867.00,VWS V14.01,2013-04-11 18:53:00,
2013-04-11 14:54:00,80.5,54.0,29.66,SW,222,6.0,10.0,40,0.00,,---,0.00,867.00,VWS V14.01,2013-04-11 18:54:00,
2013-04-11 14:55:00,80.4,55.2,29.67,West,279,3.0,9.0,42,0.00,,---,0.00,928.00,VWS V14.01,2013-04-11 18:55:00,
2013-04-11 14:56:00,80.5,54.0,29.66,WNW,289,4.0,10.0,40,0.00,,---,0.00,795.00,VWS V14.01,2013-04-11 18:56:00,
2013-04-11 14:57:00,80.6,53.4,29.67,West,265,6.0,11.0,39,0.00,,---,0.00,863.00,VWS V14.01,2013-04-11 18:57:00,
2013-04-11 14:58:00,80.6,53.4,29.66,WSW,258,3.0,11.0,39,0.00,,---,0.00,898.00,VWS V14.01,2013-04-11 18:58:00,
2013-04-11 14:59:00,80.6,54.8,29.66,NNW,338,1.0,11.0,41,0.00,,---,0.00,846.00,VWS V14.01,2013-04-11 18:59:00,
2013-04-11 15:00:00,80.5,55.3,29.67,WNW,293,0.0,6.0,42,0.00,,---,0.00,721.00,VWS V14.01,2013-04-11 19:00:00,
2013-04-11 15:01:00,80.8,54.2,29.66,West,265,2.0,6.0,40,0.00,,---,0.00,977.00,VWS V14.01,2013-04-11 19:01:00,
2013-04-11 15:02:00,81.0,56.4,29.66,West,275,5.0,7.0,43,0.00,,---,0.00,1013.00,VWS V14.01,2013-04-11 19:02:00,
2013-04-11 15:03:00,81.1,55.2,29.66,WNW,295,2.0,7.0,41,0.00,,---,0.00,1000.00,VWS V14.01,2013-04-11 19:03:00,
2013-04-11 15:04:00,81.2,54.6,29.66,NW,311,5.0,7.0,40,0.00,,---,0.00,1000.00,VWS V14.01,2013-04-11 19:04:00,
2013-04-11 15:05:00,81.3,54.7,29.66,West,281,2.0,7.0,40,0.00,,---,0.00,1000.00,VWS V14.01,2013-04-11 19:05:00,
2013-04-11 15:06:00,80.5,54.0,29.67,SSW,200,3.0,10.0,40,0.00,,---,0.00,863.00,VWS V14.01,2013-04-11 19:06:00,
2013-04-11 15:07:00,81.4,54.1,29.66,West,265,3.0,7.0,39,0.00,,---,0.00,1000.00,VWS V14.01,2013-04-11 19:07:00,
2013-04-11 15:10:00,81.4,54.1,29.66,WSW,240,7.0,10.0,39,0.00,,---,0.00,670.00,VWS V14.01,2013-04-11 19:10:00,
2013-04-11 15:11:00,80.9,55.0,29.66,SW,215,1.0,7.0,41,0.00,,---,0.00,1013.00,VWS V14.01,2013-04-11 19:11:00,
2013-04-11 15:12:00,81.4,54.8,29.66,WSW,254,6.0,10.0,40,0.00,,---,0.00,877.00,VWS V14.01,2013-04-11 19:12:00,
2013-04-11 15:14:00,81.3,54.0,29.65,West,267,4.0,17.0,39,0.00,,---,0.00,882.00,VWS V14.01,2013-04-11 19:14:00,
2013-04-11 15:15:00,81.3,54.0,29.65,West,263,4.0,17.0,39,0.00,,---,0.00,882.00,VWS V14.01,2013-04-11 19:15:00,
2013-04-11 15:16:00,81.3,55.4,29.66,West,264,1.0,17.0,41,0.00,,---,0.00,882.00,VWS V14.01,2013-04-11 19:16:00,
2013-04-11 15:17:00,81.4,54.8,29.65,West,275,1.0,7.0,40,0.00,,---,0.00,1000.00,VWS V14.01,2013-04-11 19:17:00,
2013-04-11 15:18:00,81.3,54.0,29.65,West,268,3.0,17.0,39,0.00,,---,0.00,800.00,VWS V14.01,2013-04-11 19:18:00,
2013-04-11 15:19:00,81.3,53.3,29.66,WSW,240,1.0,17.0,38,0.00,,---,0.00,800.00,VWS V14.01,2013-04-11 19:19:00,
2013-04-11 15:20:00,81.3,53.3,29.65,West,267,2.0,6.0,38,0.00,,---,0.00,800.00,VWS V14.01,2013-04-11 19:20:00,
2013-04-11 15:22:00,81.4,53.4,29.65,NNW,329,13.0,17.0,38,0.00,,---,0.00,877.00,VWS V14.01,2013-04-11 19:22:00,
2013-04-11 15:23:00,81.1,53.1,29.65,WSW,245,3.0,6.0,38,0.00,,---,0.00,800.00,VWS V14.01,2013-04-11 19:23:00,
2013-04-11 15:24:00,81.0,52.3,29.65,WSW,252,1.0,6.0,37,0.00,,---,0.00,622.00,VWS V14.01,2013-04-11 19:24:00,
2013-04-11 15:25:00,80.9,52.9,29.65,WNW,288,6.0,7.0,38,0.00,,---,0.00,700.00,VWS V14.01,2013-04-11 19:25:00,
2013-04-11 15:26:00,80.8,53.6,29.64,West,261,3.0,10.0,39,0.00,,---,0.00,740.00,VWS V14.01,2013-04-11 19:26:00,
2013-04-11 15:27:00,81.3,53.3,29.65,West,281,3.0,17.0,38,0.00,,---,0.00,796.00,VWS V14.01,2013-04-11 19:27:00,
2013-04-11 15:28:00,80.8,54.2,29.65,West,267,1.0,10.0,40,0.00,,---,0.00,744.00,VWS V14.01,2013-04-11 19:28:00,
2013-04-11 15:29:00,80.8,54.2,29.65,WSW,242,4.0,10.0,40,0.00,,---,0.00,659.00,VWS V14.01,2013-04-11 19:29:00,
2013-04-11 15:30:00,80.8,54.2,29.64,WSW,252,1.0,4.0,40,0.00,,---,0.00,749.00,VWS V14.01,2013-04-11 19:30:00,
2013-04-11 15:32:00,81.2,53.9,29.65,WSW,257,4.0,6.0,39,0.00,,---,0.00,800.00,VWS V14.01,2013-04-11 19:32:00,
2013-04-11 15:33:00,80.9,54.3,29.64,West,277,4.0,9.0,40,0.00,,---,0.00,1056.00,VWS V14.01,2013-04-11 19:33:00,
2013-04-11 15:34:00,81.0,54.4,29.64,West,269,5.0,9.0,40,0.00,,---,0.00,984.00,VWS V14.01,2013-04-11 19:34:00,
2013-04-11 15:35:00,81.1,53.8,29.64,West,269,5.0,9.0,39,0.00,,---,0.00,858.00,VWS V14.01,2013-04-11 19:35:00,
2013-04-11 15:36:00,81.2,53.2,29.64,West,279,0.0,9.0,38,0.00,,---,0.00,816.00,VWS V14.01,2013-04-11 19:36:00,
2013-04-11 15:37:00,80.8,54.9,29.65,West,267,0.0,10.0,41,0.00,,---,0.00,744.00,VWS V14.01,2013-04-11 19:37:00,
2013-04-11 15:38:00,81.4,55.5,29.64,SW,235,1.0,9.0,41,0.00,,---,0.00,735.00,VWS V14.01,2013-04-11 19:38:00,
2013-04-11 15:39:00,81.5,55.5,29.63,WSW,245,3.0,9.0,41,0.00,,---,0.00,420.00,VWS V14.01,2013-04-11 19:39:00,
2013-04-11 15:40:00,81.5,53.5,29.63,West,275,0.0,3.0,38,0.00,,---,0.00,898.00,VWS V14.01,2013-04-11 19:40:00,
2013-04-11 15:41:00,81.6,52.8,29.63,SW,232,0.0,3.0,37,0.00,,---,0.00,898.00,VWS V14.01,2013-04-11 19:41:00,
2013-04-11 15:42:00,80.9,55.7,29.64,WSW,247,5.0,9.0,42,0.00,,---,0.00,1056.00,VWS V14.01,2013-04-11 19:42:00,
2013-04-11 15:43:00,81.7,56.4,29.63,WNW,292,7.0,7.0,42,0.00,,---,0.00,898.00,VWS V14.01,2013-04-11 19:43:00,
2013-04-11 15:44:00,81.8,54.5,29.63,WNW,292,4.0,7.0,39,0.00,,---,0.00,898.00,VWS V14.01,2013-04-11 19:44:00,
2013-04-11 15:45:00,81.8,53.0,29.63,NW,311,0.0,7.0,37,0.00,,---,0.00,898.00,VWS V14.01,2013-04-11 19:45:00,
2013-04-11 15:46:00,81.8,53.7,29.62,WNW,290,1.0,7.0,38,0.00,,---,0.00,717.00,VWS V14.01,2013-04-11 19:46:00,
2013-04-11 15:47:00,81.4,56.1,29.64,SW,232,2.0,9.0,42,0.00,,---,0.00,735.00,VWS V14.01,2013-04-11 19:47:00,
2013-04-11 15:48:00,81.8,54.5,29.62,West,277,0.0,7.0,39,0.00,,---,0.00,712.00,VWS V14.01,2013-04-11 19:48:00,
2013-04-11 15:50:00,81.8,55.1,29.62,WNW,286,1.0,3.0,40,0.00,,---,0.00,649.00,VWS V14.01,2013-04-11 19:50:00,
2013-04-11 15:52:00,81.7,55.0,29.63,West,261,1.0,5.0,40,0.00,,---,0.00,898.00,VWS V14.01,2013-04-11 19:52:00,
2013-04-11 15:53:00,81.8,54.5,29.62,WSW,254,3.0,5.0,39,0.00,,---,0.00,422.00,VWS V14.01,2013-04-11 19:53:00,
2013-04-11 15:55:00,81.7,55.7,29.62,West,281,4.0,7.0,41,0.00,,---,0.00,396.00,VWS V14.01,2013-04-11 19:55:00,
2013-04-11 15:56:00,81.6,55.6,29.62,West,263,1.0,7.0,41,0.00,,---,0.00,424.00,VWS V14.01,2013-04-11 19:56:00,
2013-04-11 15:57:00,81.8,54.5,29.62,West,279,2.0,7.0,39,0.00,,---,0.00,712.00,VWS V14.01,2013-04-11 19:57:00,
2013-04-11 15:58:00,81.4,54.8,29.62,North,360,0.0,7.0,40,0.00,,---,0.00,390.00,VWS V14.01,2013-04-11 19:58:00,
2013-04-11 15:59:00,81.3,54.7,29.62,WSW,251,2.0,7.0,40,0.00,,---,0.00,452.00,VWS V14.01,2013-04-11 19:59:00,
2013-04-11 16:00:00,81.2,53.9,29.62,WNW,289,3.0,3.0,39,0.00,,---,0.00,452.00,VWS V14.01,2013-04-11 20:00:00,
2013-04-11 16:02:00,81.8,54.5,29.62,West,265,3.0,5.0,39,0.00,,---,0.00,422.00,VWS V14.01,2013-04-11 20:02:00,
2013-04-11 16:03:00,81.0,55.1,29.62,West,271,4.0,5.0,41,0.00,,---,0.00,427.00,VWS V14.01,2013-04-11 20:03:00,
2013-04-11 16:05:00,80.8,54.2,29.62,SW,236,0.0,5.0,40,0.00,,---,0.00,371.00,VWS V14.01,2013-04-11 20:05:00,
2013-04-11 16:06:00,80.7,54.2,29.61,West,261,3.0,5.0,40,0.00,,---,0.00,397.00,VWS V14.01,2013-04-11 20:06:00,
2013-04-11 16:07:00,80.6,55.4,29.61,WSW,247,3.0,5.0,42,0.00,,---,0.00,441.00,VWS V14.01,2013-04-11 20:07:00,
2013-04-11 16:08:00,81.4,54.8,29.62,NNW,340,1.0,7.0,40,0.00,,---,0.00,390.00,VWS V14.01,2013-04-11 20:08:00,
2013-04-11 16:09:00,80.4,54.6,29.61,WSW,254,5.0,5.0,41,0.00,,---,0.00,396.00,VWS V14.01,2013-04-11 20:09:00,
2013-04-11 16:10:00,80.3,54.5,29.61,West,276,0.0,3.0,41,0.00,,---,0.00,462.00,VWS V14.01,2013-04-11 20:10:00,
2013-04-11 16:12:00,80.2,54.4,29.61,NW,311,0.0,5.0,41,0.00,,---,0.00,353.00,VWS V14.01,2013-04-11 20:12:00,
2013-04-11 16:13:00,81.0,55.1,29.62,West,277,2.0,5.0,41,0.00,,---,0.00,396.00,VWS V14.01,2013-04-11 20:13:00,
2013-04-11 16:14:00,80.1,54.3,29.61,SSW,208,0.0,5.0,41,0.00,,---,0.00,355.00,VWS V14.01,2013-04-11 20:14:00,
2013-04-11 16:15:00,80.1,54.3,29.61,WNW,295,4.0,5.0,41,0.00,,---,0.00,359.00,VWS V14.01,2013-04-11 20:15:00,
2013-04-11 16:16:00,80.0,54.2,29.61,SSW,202,0.0,5.0,41,0.00,,---,0.00,373.00,VWS V14.01,2013-04-11 20:16:00,
2013-04-11 16:17:00,80.0,54.2,29.61,SSW,202,0.0,5.0,41,0.00,,---,0.00,352.00,VWS V14.01,2013-04-11 20:17:00,
2013-04-11 16:18:00,80.5,54.7,29.61,WNW,301,2.0,5.0,41,0.00,,---,0.00,413.00,VWS V14.01,2013-04-11 20:18:00,
2013-04-11 16:19:00,80.0,54.2,29.61,West,263,4.0,5.0,41,0.00,,---,0.00,439.00,VWS V14.01,2013-04-11 20:19:00,
2013-04-11 16:20:00,79.9,53.5,29.61,WNW,292,0.0,4.0,40,0.00,,---,0.00,348.00,VWS V14.01,2013-04-11 20:20:00,
2013-04-11 16:22:00,79.8,55.3,29.61,WSW,254,0.0,5.0,43,0.00,,---,0.00,295.00,VWS V14.01,2013-04-11 20:22:00,
2013-04-11 16:23:00,80.1,55.6,29.61,SSW,213,3.0,5.0,43,0.00,,---,0.00,355.00,VWS V14.01,2013-04-11 20:23:00,
2013-04-11 16:24:00,79.8,54.7,29.61,WSW,251,3.0,5.0,42,0.00,,---,0.00,272.00,VWS V14.01,2013-04-11 20:24:00,
2013-04-11 16:25:00,79.8,54.7,29.61,SSW,203,0.0,5.0,42,0.00,,---,0.00,262.00,VWS V14.01,2013-04-11 20:25:00,
2013-04-11 16:27:00,79.7,54.6,29.61,NW,309,3.0,6.0,42,0.00,,---,0.00,236.00,VWS V14.01,2013-04-11 20:27:00,
2013-04-11 16:28:00,80.0,54.9,29.61,WNW,284,3.0,5.0,42,0.00,,---,0.00,439.00,VWS V14.01,2013-04-11 20:28:00,
2013-04-11 16:29:00,79.6,53.8,29.61,SSW,205,0.0,6.0,41,0.00,,---,0.00,223.00,VWS V14.01,2013-04-11 20:29:00,
2013-04-11 16:30:00,79.5,55.7,29.61,SSW,213,1.0,2.0,44,0.00,,---,0.00,206.00,VWS V14.01,2013-04-11 20:30:00,
2013-04-11 16:32:00,79.4,55.6,29.61,SW,217,0.0,3.0,44,0.00,,---,0.00,193.00,VWS V14.01,2013-04-11 20:32:00,
2013-04-11 16:33:00,79.8,54.7,29.61,West,264,1.0,5.0,42,0.00,,---,0.00,272.00,VWS V14.01,2013-04-11 20:33:00,
2013-04-11 16:34:00,79.4,55.6,29.61,NW,310,0.0,3.0,44,0.00,,---,0.00,216.00,VWS V14.01,2013-04-11 20:34:00,
2013-04-11 16:35:00,79.3,55.5,29.61,West,274,0.0,3.0,44,0.00,,---,0.00,202.00,VWS V14.01,2013-04-11 20:35:00,
2013-04-11 16:37:00,79.3,54.2,29.60,WNW,294,0.0,3.0,42,0.00,,---,0.00,178.00,VWS V14.01,2013-04-11 20:37:00,
2013-04-11 16:38:00,79.6,53.8,29.61,SSW,205,0.0,6.0,41,0.00,,---,0.00,223.00,VWS V14.01,2013-04-11 20:38:00,
2013-04-11 16:39:00,79.2,55.4,29.60,WNW,294,0.0,3.0,44,0.00,,---,0.00,172.00,VWS V14.01,2013-04-11 20:39:00,
2013-04-11 16:40:00,79.2,54.8,29.60,WNW,294,0.0,0.0,43,0.00,,---,0.00,171.00,VWS V14.01,2013-04-11 20:40:00,
2013-04-11 16:41:00,79.2,56.0,29.60,WNW,294,0.0,1.0,45,0.00,,---,0.00,179.00,VWS V14.01,2013-04-11 20:41:00,
2013-04-11 16:42:00,79.2,55.4,29.60,WNW,293,0.0,1.0,44,0.00,,---,0.00,190.00,VWS V14.01,2013-04-11 20:42:00,
2013-04-11 16:43:00,79.2,55.4,29.60,WNW,298,0.0,3.0,44,0.00,,---,0.00,181.00,VWS V14.01,2013-04-11 20:43:00,
2013-04-11 16:44:00,79.4,55.6,29.61,West,272,2.0,3.0,44,0.00,,---,0.00,216.00,VWS V14.01,2013-04-11 20:44:00,
2013-04-11 16:45:00,79.1,55.3,29.60,WNW,288,0.0,3.0,44,0.00,,---,0.00,162.00,VWS V14.01,2013-04-11 20:45:00,
2013-04-11 16:46:00,79.1,56.0,29.60,WSW,243,0.0,3.0,45,0.00,,---,0.00,151.00,VWS V14.01,2013-04-11 20:46:00,
2013-04-11 16:47:00,79.0,56.5,29.60,NW,313,1.0,3.0,46,0.00,,---,0.00,144.00,VWS V14.01,2013-04-11 20:47:00,
2013-04-11 16:48:00,78.9,55.2,29.60,WNW,294,0.0,3.0,44,0.00,,---,0.00,134.00,VWS V14.01,2013-04-11 20:48:00,
2013-04-11 16:49:00,79.2,55.4,29.60,WNW,294,0.0,3.0,44,0.00,,---,0.00,172.00,VWS V14.01,2013-04-11 20:49:00,
2013-04-11 16:50:00,78.8,55.1,29.60,WNW,295,0.0,0.0,44,0.00,,---,0.00,114.00,VWS V14.01,2013-04-11 20:50:00,
2013-04-11 16:51:00,78.8,55.1,29.61,WNW,295,0.0,1.0,44,0.00,,---,0.00,105.00,VWS V14.01,2013-04-11 20:51:00,
2013-04-11 16:52:00,78.7,55.0,29.60,WNW,295,0.0,1.0,44,0.00,,---,0.00,111.00,VWS V14.01,2013-04-11 20:52:00,
2013-04-11 16:53:00,78.7,55.6,29.60,WNW,295,0.0,1.0,45,0.00,,---,0.00,121.00,VWS V14.01,2013-04-11 20:53:00,
2013-04-11 16:54:00,79.2,56.0,29.60,WNW,289,0.0,3.0,45,0.00,,---,0.00,171.00,VWS V14.01,2013-04-11 20:54:00,
2013-04-11 16:55:00,78.6,56.1,29.61,WNW,288,0.0,2.0,46,0.00,,---,0.00,156.00,VWS V14.01,2013-04-11 20:55:00,
2013-04-11 16:56:00,78.6,55.5,29.60,WNW,288,0.0,2.0,45,0.00,,---,0.00,174.00,VWS V14.01,2013-04-11 20:56:00,
2013-04-11 16:57:00,78.5,55.4,29.60,WNW,288,0.0,2.0,45,0.00,,---,0.00,186.00,VWS V14.01,2013-04-11 20:57:00,
2013-04-11 16:58:00,78.5,56.6,29.61,WNW,288,1.0,2.0,47,0.00,,---,0.00,204.00,VWS V14.01,2013-04-11 20:58:00,
2013-04-11 16:59:00,78.9,55.2,29.60,WNW,295,0.0,0.0,44,0.00,,---,0.00,114.00,VWS V14.01,2013-04-11 20:59:00,
2013-04-11 17:00:00,78.5,56.0,29.60,WNW,302,2.0,3.0,46,0.00,,---,0.00,234.00,VWS V14.01,2013-04-11 21:00:00,
2013-04-11 17:02:00,78.4,54.7,29.60,NNW,342,0.0,4.0,44,0.00,,---,0.00,232.00,VWS V14.01,2013-04-11 21:02:00,
2013-04-11 17:03:00,78.4,54.7,29.60,NNW,342,1.0,4.0,44,0.00,,---,0.00,214.00,VWS V14.01,2013-04-11 21:03:00,
2013-04-11 17:04:00,78.6,56.1,29.61,WNW,290,1.0,1.0,46,0.00,,---,0.00,156.00,VWS V14.01,2013-04-11 21:04:00,
2013-04-11 17:05:00,78.4,55.9,29.60,NNW,340,0.0,4.0,46,0.00,,---,0.00,188.00,VWS V14.01,2013-04-11 21:05:00,
2013-04-11 17:06:00,78.4,55.9,29.60,SW,236,3.0,4.0,46,0.00,,---,0.00,200.00,VWS V14.01,2013-04-11 21:06:00,
2013-04-11 17:07:00,78.4,54.7,29.60,WNW,293,1.0,4.0,44,0.00,,---,0.00,206.00,VWS V14.01,2013-04-11 21:07:00,
2013-04-11 17:08:00,78.5,55.4,29.60,West,262,2.0,4.0,45,0.00,,---,0.00,186.00,VWS V14.01,2013-04-11 21:08:00,
2013-04-11 17:09:00,78.5,54.2,29.60,West,277,1.0,1.0,43,0.00,,---,0.00,234.00,VWS V14.01,2013-04-11 21:09:00,
2013-04-11 17:10:00,78.5,54.8,29.60,WNW,298,0.0,2.0,44,0.00,,---,0.00,155.00,VWS V14.01,2013-04-11 21:10:00,
2013-04-11 17:11:00,78.5,55.4,29.60,WNW,286,0.0,2.0,45,0.00,,---,0.00,151.00,VWS V14.01,2013-04-11 21:11:00,
2013-04-11 17:12:00,78.5,55.4,29.60,WNW,286,0.0,2.0,45,0.00,,---,0.00,149.00,VWS V14.01,2013-04-11 21:12:00,
2013-04-11 17:13:00,78.5,55.4,29.60,WNW,295,1.0,2.0,45,0.00,,---,0.00,146.00,VWS V14.01,2013-04-11 21:13:00,
2013-04-11 17:14:00,78.4,55.3,29.60,NNW,340,1.0,4.0,45,0.00,,---,0.00,188.00,VWS V14.01,2013-04-11 21:14:00,
2013-04-11 17:15:00,78.4,54.7,29.60,WSW,258,2.0,6.0,44,0.00,,---,0.00,139.00,VWS V14.01,2013-04-11 21:15:00,
2013-04-11 17:17:00,78.4,55.9,29.60,West,260,0.0,6.0,46,0.00,,---,0.00,130.00,VWS V14.01,2013-04-11 21:17:00,
2013-04-11 17:19:00,78.5,54.8,29.60,WNW,298,0.0,2.0,44,0.00,,---,0.00,155.00,VWS V14.01,2013-04-11 21:19:00,
2013-04-11 17:20:00,78.2,55.1,29.60,WNW,291,1.0,3.0,45,0.00,,---,0.00,118.00,VWS V14.01,2013-04-11 21:20:00,
2013-04-11 17:21:00,78.2,55.1,29.60,West,275,0.0,5.0,45,0.00,,---,0.00,116.00,VWS V14.01,2013-04-11 21:21:00,
2013-04-11 17:22:00,78.1,55.7,29.60,WSW,258,2.0,5.0,46,0.00,,---,0.00,120.00,VWS V14.01,2013-04-11 21:22:00,
2013-04-11 17:23:00,78.1,55.7,29.60,West,268,0.0,5.0,46,0.00,,---,0.00,125.00,VWS V14.01,2013-04-11 21:23:00,
2013-04-11 17:24:00,78.4,54.7,29.60,West,274,1.0,6.0,44,0.00,,---,0.00,141.00,VWS V14.01,2013-04-11 21:24:00,
2013-04-11 17:25:00,78.0,55.6,29.60,West,269,1.0,5.0,46,0.00,,---,0.00,132.00,VWS V14.01,2013-04-11 21:25:00,
2013-04-11 17:26:00,78.0,55.6,29.60,West,277,1.0,5.0,46,0.00,,---,0.00,146.00,VWS V14.01,2013-04-11 21:26:00,
2013-04-11 17:27:00,77.9,56.1,29.59,West,265,2.0,5.0,47,0.00,,---,0.00,149.00,VWS V14.01,2013-04-11 21:27:00,
2013-04-11 17:28:00,77.9,56.7,29.60,WNW,282,0.0,5.0,48,0.00,,---,0.00,153.00,VWS V14.01,2013-04-11 21:28:00,
2013-04-11 17:29:00,77.9,56.7,29.60,West,281,1.0,5.0,48,0.00,,---,0.00,158.00,VWS V14.01,2013-04-11 21:29:00,
2013-04-11 17:30:00,78.2,55.1,29.60,West,279,4.0,5.0,45,0.00,,---,0.00,118.00,VWS V14.01,2013-04-11 21:30:00,
2013-04-11 17:31:00,77.8,56.0,29.60,WSW,256,2.0,4.0,47,0.00,,---,0.00,197.00,VWS V14.01,2013-04-11 21:31:00,
2013-04-11 17:33:00,77.8,56.0,29.60,NW,313,0.0,5.0,47,0.00,,---,0.00,260.00,VWS V14.01,2013-04-11 21:33:00,
2013-04-11 17:34:00,77.8,56.6,29.60,WNW,285,2.0,5.0,48,0.00,,---,0.00,264.00,VWS V14.01,2013-04-11 21:34:00,
2013-04-11 17:35:00,78.0,55.6,29.60,West,269,1.0,5.0,46,0.00,,---,0.00,139.00,VWS V14.01,2013-04-11 21:35:00,
2013-04-11 17:36:00,77.8,56.0,29.60,NW,316,0.0,5.0,47,0.00,,---,0.00,262.00,VWS V14.01,2013-04-11 21:36:00,
2013-04-11 17:37:00,77.8,56.0,29.59,West,261,2.0,5.0,47,0.00,,---,0.00,258.00,VWS V14.01,2013-04-11 21:37:00,
2013-04-11 17:38:00,77.8,56.0,29.59,NW,315,0.0,5.0,47,0.00,,---,0.00,241.00,VWS V14.01,2013-04-11 21:38:00,
2013-04-11 17:39:00,77.9,56.1,29.59,WSW,248,0.0,5.0,47,0.00,,---,0.00,237.00,VWS V14.01,2013-04-11 21:39:00,
2013-04-11 17:40:00,77.8,55.4,29.60,West,263,2.0,4.0,46,0.00,,---,0.00,172.00,VWS V14.01,2013-04-11 21:40:00,
2013-04-11 17:41:00,77.9,56.1,29.59,WSW,254,1.0,2.0,47,0.00,,---,0.00,207.00,VWS V14.01,2013-04-11 21:41:00,
2013-04-11 17:42:00,77.9,56.1,29.59,West,259,0.0,3.0,47,0.00,,---,0.00,195.00,VWS V14.01,2013-04-11 21:42:00,
2013-04-11 17:43:00,78.0,57.9,29.59,WNW,282,1.0,3.0,50,0.00,,---,0.00,209.00,VWS V14.01,2013-04-11 21:43:00,
2013-04-11 17:44:00,78.0,56.2,29.59,West,281,0.0,3.0,47,0.00,,---,0.00,204.00,VWS V14.01,2013-04-11 21:44:00,
2013-04-11 17:45:00,77.8,55.4,29.60,NW,317,2.0,5.0,46,0.00,,---,0.00,262.00,VWS V14.01,2013-04-11 21:45:00,
2013-04-11 17:46:00,77.9,57.2,29.59,WNW,301,0.0,5.0,49,0.00,,---,0.00,183.00,VWS V14.01,2013-04-11 21:46:00,
2013-04-11 17:47:00,77.9,56.7,29.59,WSW,257,1.0,5.0,48,0.00,,---,0.00,181.00,VWS V14.01,2013-04-11 21:47:00,
2013-04-11 17:48:00,77.9,57.2,29.59,WSW,240,1.0,5.0,49,0.00,,---,0.00,181.00,VWS V14.01,2013-04-11 21:48:00,
2013-04-11 17:49:00,77.8,58.2,29.59,SW,229,0.0,5.0,51,0.00,,---,0.00,185.00,VWS V14.01,2013-04-11 21:49:00,
2013-04-11 17:50:00,77.9,56.1,29.59,WSW,250,0.0,1.0,47,0.00,,---,0.00,207.00,VWS V14.01,2013-04-11 21:50:00,
2013-04-11 17:52:00,77.8,56.6,29.59,West,265,0.0,1.0,48,0.00,,---,0.00,206.00,VWS V14.01,2013-04-11 21:52:00,
2013-04-11 17:53:00,77.8,57.1,29.59,West,265,0.0,1.0,49,0.00,,---,0.00,193.00,VWS V14.01,2013-04-11 21:53:00,
2013-04-11 17:54:00,77.7,57.0,29.59,West,264,1.0,1.0,49,0.00,,---,0.00,181.00,VWS V14.01,2013-04-11 21:54:00,
2013-04-11 17:55:00,77.9,56.7,29.59,WNW,301,0.0,5.0,48,0.00,,---,0.00,183.00,VWS V14.01,2013-04-11 21:55:00,
2013-04-11 17:57:00,77.7,57.0,29.59,WNW,284,0.0,3.0,49,0.00,,---,0.00,123.00,VWS V14.01,2013-04-11 21:57:00,
2013-04-11 17:58:00,77.7,55.9,29.59,NNW,328,1.0,3.0,47,0.00,,---,0.00,118.00,VWS V14.01,2013-04-11 21:58:00,
2013-04-11 17:59:00,77.7,56.5,29.59,NW,309,0.0,3.0,48,0.00,,---,0.00,111.00,VWS V14.01,2013-04-11 21:59:00,
2013-04-11 18:00:00,77.8,56.0,29.59,West,265,0.0,1.0,47,0.00,,---,0.00,192.00,VWS V14.01,2013-04-11 22:00:00,
2013-04-11 18:02:00,77.6,57.5,29.59,SW,233,0.0,3.0,50,0.00,,---,0.00,93.00,VWS V14.01,2013-04-11 22:02:00,
2013-04-11 18:03:00,77.5,55.7,29.59,NW,305,0.0,6.0,47,0.00,,---,0.00,95.00,VWS V14.01,2013-04-11 22:03:00,
2013-04-11 18:04:00,77.5,55.7,29.59,WSW,257,1.0,6.0,47,0.00,,---,0.00,97.00,VWS V14.01,2013-04-11 22:04:00,
2013-04-11 18:05:00,77.7,56.5,29.59,WNW,284,0.0,3.0,48,0.00,,---,0.00,130.00,VWS V14.01,2013-04-11 22:05:00,
2013-04-11 18:08:00,77.3,56.1,29.59,WNW,300,1.0,6.0,48,0.00,,---,0.00,69.00,VWS V14.01,2013-04-11 22:08:00,
2013-04-11 18:09:00,77.2,56.0,29.59,WNW,295,0.0,6.0,48,0.00,,---,0.00,65.00,VWS V14.01,2013-04-11 22:09:00,
2013-04-11 18:10:00,77.6,56.4,29.59,WSW,251,3.0,3.0,48,0.00,,---,0.00,93.00,VWS V14.01,2013-04-11 22:10:00,
2013-04-11 18:11:00,77.1,57.6,29.59,WNW,294,1.0,1.0,51,0.00,,---,0.00,60.00,VWS V14.01,2013-04-11 22:11:00,
2013-04-11 18:12:00,77.1,58.1,29.59,WNW,294,0.0,1.0,52,0.00,,---,0.00,58.00,VWS V14.01,2013-04-11 22:12:00,
2013-04-11 18:14:00,76.9,56.9,29.59,SW,219,1.0,1.0,50,0.00,,---,0.00,60.00,VWS V14.01,2013-04-11 22:14:00,
2013-04-11 18:15:00,76.9,56.3,29.59,SW,219,0.0,2.0,49,0.00,,---,0.00,56.00,VWS V14.01,2013-04-11 22:15:00,
2013-04-11 18:16:00,77.3,56.7,29.59,West,265,0.0,6.0,49,0.00,,---,0.00,83.00,VWS V14.01,2013-04-11 22:16:00,
2013-04-11 18:17:00,76.7,57.2,29.59,SW,219,0.0,2.0,51,0.00,,---,0.00,46.00,VWS V14.01,2013-04-11 22:17:00,
2013-04-11 18:18:00,76.6,57.1,29.59,SW,219,0.0,2.0,51,0.00,,---,0.00,40.00,VWS V14.01,2013-04-11 22:18:00,
2013-04-11 18:19:00,76.6,57.7,29.59,SW,219,0.0,2.0,52,0.00,,---,0.00,39.00,VWS V14.01,2013-04-11 22:19:00,
2013-04-11 18:20:00,76.5,57.6,29.59,SW,219,0.0,2.0,52,0.00,,---,0.00,37.00,VWS V14.01,2013-04-11 22:20:00,
2013-04-11 18:21:00,77.1,57.6,29.59,WNW,294,0.0,1.0,51,0.00,,---,0.00,58.00,VWS V14.01,2013-04-11 22:21:00,
2013-04-11 18:22:00,76.3,57.4,29.59,NW,308,0.0,3.0,52,0.00,,---,0.00,35.00,VWS V14.01,2013-04-11 22:22:00,
2013-04-11 18:23:00,76.2,56.8,29.59,WNW,287,1.0,5.0,51,0.00,,---,0.00,35.00,VWS V14.01,2013-04-11 22:23:00,
2013-04-11 18:24:00,76.2,56.2,29.59,West,260,3.0,5.0,50,0.00,,---,0.00,37.00,VWS V14.01,2013-04-11 22:24:00,
2013-04-11 18:25:00,76.1,56.7,29.59,West,267,0.0,5.0,51,0.00,,---,0.00,37.00,VWS V14.01,2013-04-11 22:25:00,
2013-04-11 18:26:00,76.7,57.8,29.59,SW,219,0.0,2.0,52,0.00,,---,0.00,46.00,VWS V14.01,2013-04-11 22:26:00,
2013-04-11 18:27:00,76.1,56.7,29.59,West,263,0.0,5.0,51,0.00,,---,0.00,33.00,VWS V14.01,2013-04-11 22:27:00,
2013-04-11 18:28:00,76.1,56.7,29.59,WNW,298,0.0,5.0,51,0.00,,---,0.00,32.00,VWS V14.01,2013-04-11 22:28:00,
2013-04-11 18:29:00,76.0,57.1,29.59,WNW,296,0.0,5.0,52,0.00,,---,0.00,32.00,VWS V14.01,2013-04-11 22:29:00,
2013-04-11 18:30:00,76.0,56.6,29.58,WNW,284,0.0,2.0,51,0.00,,---,0.00,35.00,VWS V14.01,2013-04-11 22:30:00,
2013-04-11 18:31:00,76.3,57.4,29.59,West,261,0.0,2.0,52,0.00,,---,0.00,35.00,VWS V14.01,2013-04-11 22:31:00,
2013-04-11 18:32:00,75.9,57.6,29.58,WNW,291,0.0,2.0,53,0.00,,---,0.00,42.00,VWS V14.01,2013-04-11 22:32:00,
2013-04-11 18:33:00,75.9,57.0,29.58,WNW,290,0.0,2.0,52,0.00,,---,0.00,44.00,VWS V14.01,2013-04-11 22:33:00,
2013-04-11 18:34:00,75.8,57.5,29.58,WNW,290,0.0,2.0,53,0.00,,---,0.00,42.00,VWS V14.01,2013-04-11 22:34:00,
2013-04-11 18:35:00,75.8,56.4,29.58,WNW,290,0.0,2.0,51,0.00,,---,0.00,37.00,VWS V14.01,2013-04-11 22:35:00,
2013-04-11 18:36:00,76.1,56.1,29.59,West,261,1.0,5.0,50,0.00,,---,0.00,33.00,VWS V14.01,2013-04-11 22:36:00,
2013-04-11 18:37:00,75.7,56.3,29.58,WNW,290,0.0,2.0,51,0.00,,---,0.00,23.00,VWS V14.01,2013-04-11 22:37:00,
2013-04-11 18:38:00,75.6,56.2,29.58,WNW,290,0.0,2.0,51,0.00,,---,0.00,21.00,VWS V14.01,2013-04-11 22:38:00,
2013-04-11 18:39:00,75.6,56.2,29.58,WNW,290,0.0,2.0,51,0.00,,---,0.00,19.00,VWS V14.01,2013-04-11 22:39:00,
2013-04-11 18:40:00,75.6,56.2,29.58,WNW,290,1.0,1.0,51,0.00,,---,0.00,21.00,VWS V14.01,2013-04-11 22:40:00,
2013-04-11 18:41:00,75.6,57.3,29.58,WNW,290,0.0,1.0,53,0.00,,---,0.00,19.00,VWS V14.01,2013-04-11 22:41:00,
2013-04-11 18:42:00,75.9,57.0,29.58,WNW,290,0.0,2.0,52,0.00,,---,0.00,42.00,VWS V14.01,2013-04-11 22:42:00,
2013-04-11 18:43:00,75.5,57.7,29.58,WNW,290,1.0,2.0,54,0.00,,---,0.00,18.00,VWS V14.01,2013-04-11 22:43:00,
2013-04-11 18:44:00,75.3,57.0,29.58,WNW,290,0.0,2.0,53,0.00,,---,0.00,19.00,VWS V14.01,2013-04-11 22:44:00,
2013-04-11 18:45:00,75.2,56.9,29.58,WNW,290,1.0,2.0,53,0.00,,---,0.00,21.00,VWS V14.01,2013-04-11 22:45:00,
2013-04-11 18:46:00,75.1,56.8,29.58,West,278,2.0,2.0,53,0.00,,---,0.00,21.00,VWS V14.01,2013-04-11 22:46:00,
2013-04-11 18:47:00,75.7,56.3,29.58,WNW,290,0.0,2.0,51,0.00,,---,0.00,23.00,VWS V14.01,2013-04-11 22:47:00,
2013-04-11 18:48:00,75.0,57.2,29.58,SSW,213,2.0,5.0,54,0.00,,---,0.00,16.00,VWS V14.01,2013-04-11 22:48:00,
2013-04-11 18:49:00,74.8,56.5,29.58,SSW,213,1.0,5.0,53,0.00,,---,0.00,14.00,VWS V14.01,2013-04-11 22:49:00,
2013-04-11 18:50:00,74.8,56.5,29.58,SSW,213,0.0,1.0,53,0.00,,---,0.00,14.00,VWS V14.01,2013-04-11 22:50:00,
2013-04-11 18:51:00,74.7,56.5,29.58,NNE,21,1.0,5.0,53,0.00,,---,0.00,12.00,VWS V14.01,2013-04-11 22:51:00,
2013-04-11 18:52:00,75.5,57.7,29.58,WNW,290,0.0,1.0,54,0.00,,---,0.00,18.00,VWS V14.01,2013-04-11 22:52:00,
2013-04-11 18:53:00,74.6,56.4,29.58,WNW,294,2.0,5.0,53,0.00,,---,0.00,12.00,VWS V14.01,2013-04-11 22:53:00,
2013-04-11 18:54:00,74.6,56.4,29.58,WSW,243,4.0,5.0,53,0.00,,---,0.00,12.00,VWS V14.01,2013-04-11 22:54:00,
2013-04-11 18:56:00,74.5,56.3,29.58,WSW,242,0.0,5.0,53,0.00,,---,0.00,12.00,VWS V14.01,2013-04-11 22:56:00,
2013-04-11 18:57:00,75.0,57.2,29.58,SW,214,3.0,5.0,54,0.00,,---,0.00,16.00,VWS V14.01,2013-04-11 22:57:00,
2013-04-11 18:58:00,74.4,56.7,29.58,WNW,292,1.0,5.0,54,0.00,,---,0.00,11.00,VWS V14.01,2013-04-11 22:58:00,
2013-04-11 18:59:00,74.4,56.7,29.58,SW,219,3.0,5.0,54,0.00,,---,0.00,11.00,VWS V14.01,2013-04-11 22:59:00,
2013-04-11 19:00:00,74.4,56.2,29.59,West,277,4.0,4.0,53,0.00,,---,0.00,11.00,VWS V14.01,2013-04-11 23:00:00,
2013-04-11 19:02:00,74.6,56.9,29.58,West,268,0.0,5.0,54,0.00,,---,0.00,12.00,VWS V14.01,2013-04-11 23:02:00,
2013-04-11 19:03:00,74.4,56.2,29.59,WSW,249,0.0,6.0,53,0.00,,---,0.00,7.00,VWS V14.01,2013-04-11 23:03:00,
2013-04-11 19:05:00,74.4,56.7,29.59,WSW,244,3.0,9.0,54,0.00,,---,0.00,7.00,VWS V14.01,2013-04-11 23:05:00,
2013-04-11 19:06:00,74.3,56.6,29.59,WSW,240,1.0,9.0,54,0.00,,---,0.00,7.00,VWS V14.01,2013-04-11 23:06:00,
2013-04-11 19:07:00,74.4,56.7,29.58,SW,233,0.0,5.0,54,0.00,,---,0.00,11.00,VWS V14.01,2013-04-11 23:07:00,
2013-04-11 19:08:00,74.2,56.5,29.59,NW,323,5.0,9.0,54,0.00,,---,0.00,9.00,VWS V14.01,2013-04-11 23:08:00,
2013-04-11 19:09:00,74.2,56.5,29.59,West,274,1.0,9.0,54,0.00,,---,0.00,9.00,VWS V14.01,2013-04-11 23:09:00,
2013-04-11 19:10:00,74.1,56.9,29.59,WNW,283,1.0,4.0,55,0.00,,---,0.00,9.00,VWS V14.01,2013-04-11 23:10:00,
2013-04-11 19:12:00,74.4,56.2,29.59,WSW,249,1.0,6.0,53,0.00,,---,0.00,7.00,VWS V14.01,2013-04-11 23:12:00,
2013-04-11 19:13:00,74.0,56.3,29.59,West,270,1.0,7.0,54,0.00,,---,0.00,11.00,VWS V14.01,2013-04-11 23:13:00,
2013-04-11 19:14:00,74.0,56.3,29.58,West,269,1.0,7.0,54,0.00,,---,0.00,11.00,VWS V14.01,2013-04-11 23:14:00,
2013-04-11 19:15:00,74.0,56.3,29.58,West,270,0.0,7.0,54,0.00,,---,0.00,11.00,VWS V14.01,2013-04-11 23:15:00,
2013-04-11 19:16:00,74.0,56.8,29.58,West,270,0.0,7.0,55,0.00,,---,0.00,11.00,VWS V14.01,2013-04-11 23:16:00,
2013-04-11 19:17:00,73.9,56.2,29.58,West,270,0.0,7.0,54,0.00,,---,0.00,11.00,VWS V14.01,2013-04-11 23:17:00,
2013-04-11 19:18:00,74.2,56.5,29.59,NW,304,1.0,9.0,54,0.00,,---,0.00,9.00,VWS V14.01,2013-04-11 23:18:00,
2013-04-11 19:19:00,73.9,56.2,29.58,West,270,0.0,7.0,54,0.00,,---,0.00,9.00,VWS V14.01,2013-04-11 23:19:00,
2013-04-11 19:20:00,73.9,56.7,29.59,West,270,0.0,1.0,55,0.00,,---,0.00,9.00,VWS V14.01,2013-04-11 23:20:00,
2013-04-11 19:21:00,73.9,56.7,29.58,West,270,0.0,1.0,55,0.00,,---,0.00,11.00,VWS V14.01,2013-04-11 23:21:00,
2013-04-11 19:22:00,73.9,56.7,29.58,West,270,0.0,1.0,55,0.00,,---,0.00,11.00,VWS V14.01,2013-04-11 23:22:00,
2013-04-11 19:23:00,74.0,56.3,29.58,West,270,0.0,7.0,54,0.00,,---,0.00,11.00,VWS V14.01,2013-04-11 23:23:00,
2013-04-11 19:24:00,73.8,56.6,29.57,West,273,0.0,3.0,55,0.00,,---,0.00,12.00,VWS V14.01,2013-04-11 23:24:00,
2013-04-11 19:25:00,73.7,57.0,29.57,West,273,0.0,3.0,56,0.00,,---,0.00,12.00,VWS V14.01,2013-04-11 23:25:00,
2013-04-11 19:28:00,73.9,56.2,29.58,West,270,1.0,7.0,54,0.00,,---,0.00,11.00,VWS V14.01,2013-04-11 23:28:00,
2013-04-11 19:29:00,73.6,57.0,29.57,West,273,0.0,3.0,56,0.00,,---,0.00,12.00,VWS V14.01,2013-04-11 23:29:00,
2013-04-11 19:30:00,73.5,56.9,29.57,West,273,0.0,1.0,56,0.00,,---,0.00,12.00,VWS V14.01,2013-04-11 23:30:00,
2013-04-11 19:31:00,73.4,56.8,29.57,West,273,0.0,1.0,56,0.00,,---,0.00,12.00,VWS V14.01,2013-04-11 23:31:00,
2013-04-11 19:32:00,73.3,56.2,29.57,West,273,0.0,1.0,55,0.00,,---,0.00,11.00,VWS V14.01,2013-04-11 23:32:00,
2013-04-11 19:33:00,73.8,56.6,29.57,West,273,0.0,3.0,55,0.00,,---,0.00,12.00,VWS V14.01,2013-04-11 23:33:00,
2013-04-11 19:35:00,73.2,56.6,29.57,West,273,0.0,1.0,56,0.00,,---,0.00,9.00,VWS V14.01,2013-04-11 23:35:00,
2013-04-11 19:36:00,73.1,57.0,29.57,West,273,0.0,1.0,57,0.00,,---,0.00,9.00,VWS V14.01,2013-04-11 23:36:00,
2013-04-11 19:37:00,73.1,56.5,29.57,West,273,0.0,1.0,56,0.00,,---,0.00,9.00,VWS V14.01,2013-04-11 23:37:00,
2013-04-11 19:38:00,73.6,57.0,29.57,West,273,0.0,3.0,56,0.00,,---,0.00,12.00,VWS V14.01,2013-04-11 23:38:00,
2013-04-11 19:39:00,73.0,56.9,29.57,West,273,0.0,1.0,57,0.00,,---,0.00,7.00,VWS V14.01,2013-04-11 23:39:00,
2013-04-11 19:40:00,72.9,56.3,29.57,West,273,0.0,0.0,56,0.00,,---,0.00,7.00,VWS V14.01,2013-04-11 23:40:00,
2013-04-11 19:41:00,72.9,56.3,29.57,West,273,0.0,0.0,56,0.00,,---,0.00,5.00,VWS V14.01,2013-04-11 23:41:00,
2013-04-11 19:42:00,72.8,56.2,29.57,West,273,0.0,0.0,56,0.00,,---,0.00,5.00,VWS V14.01,2013-04-11 23:42:00,
2013-04-11 19:43:00,73.3,56.7,29.57,West,273,0.0,1.0,56,0.00,,---,0.00,11.00,VWS V14.01,2013-04-11 23:43:00,
2013-04-11 19:44:00,72.7,56.6,29.58,West,273,0.0,0.0,57,0.00,,---,0.00,5.00,VWS V14.01,2013-04-11 23:44:00,
2013-04-11 19:45:00,72.6,56.0,29.58,West,273,0.0,0.0,56,0.00,,---,0.00,0.00,VWS V14.01,2013-04-11 23:45:00,
2013-04-11 19:46:00,72.6,56.5,29.57,West,273,0.0,0.0,57,0.00,,---,0.00,0.00,VWS V14.01,2013-04-11 23:46:00,
2013-04-11 19:47:00,72.5,55.9,29.57,West,276,0.0,2.0,56,0.00,,---,0.00,0.00,VWS V14.01,2013-04-11 23:47:00,
2013-04-11 19:48:00,73.0,56.4,29.57,West,273,0.0,1.0,56,0.00,,---,0.00,7.00,VWS V14.01,2013-04-11 23:48:00,
2013-04-11 19:49:00,72.4,56.3,29.57,West,276,0.0,2.0,57,0.00,,---,0.00,0.00,VWS V14.01,2013-04-11 23:49:00,
2013-04-11 19:50:00,72.4,57.8,29.57,West,276,0.0,0.0,60,0.00,,---,0.00,0.00,VWS V14.01,2013-04-11 23:50:00,
2013-04-11 19:52:00,72.3,57.2,29.57,WSW,255,1.0,1.0,59,0.00,,---,0.00,0.00,VWS V14.01,2013-04-11 23:52:00,
2013-04-11 19:53:00,72.7,56.1,29.58,West,273,0.0,0.0,56,0.00,,---,0.00,5.00,VWS V14.01,2013-04-11 23:53:00,
2013-04-11 19:54:00,72.1,56.5,29.57,WSW,255,0.0,1.0,58,0.00,,---,0.00,0.00,VWS V14.01,2013-04-11 23:54:00,
2013-04-11 19:55:00,72.0,56.4,29.57,WSW,255,0.0,1.0,58,0.00,,---,0.00,0.00,VWS V14.01,2013-04-11 23:55:00,
2013-04-11 19:56:00,72.0,56.4,29.57,WSW,255,0.0,1.0,58,0.00,,---,0.00,0.00,VWS V14.01,2013-04-11 23:56:00,
2013-04-11 19:57:00,71.9,56.3,29.57,WSW,248,0.0,1.0,58,0.00,,---,0.00,0.00,VWS V14.01,2013-04-11 23:57:00,
2013-04-11 19:58:00,72.4,56.3,29.57,West,276,0.0,2.0,57,0.00,,---,0.00,0.00,VWS V14.01,2013-04-11 23:58:00,
2013-04-11 19:59:00,71.8,56.7,29.57,WSW,248,0.0,1.0,59,0.00,,---,0.00,0.00,VWS V14.01,2013-04-11 23:59:00,
2013-04-11 20:00:00,71.7,56.6,29.57,WSW,248,0.0,1.0,59,0.00,,---,0.00,0.00,VWS V14.01,2013-04-12 00:00:00,
2013-04-11 20:01:00,71.7,56.6,29.57,WSW,248,0.0,1.0,59,0.00,,---,0.00,0.00,VWS V14.01,2013-04-12 00:01:00,
2013-04-11 20:02:00,71.7,57.1,29.57,WSW,248,0.0,1.0,60,0.00,,---,0.00,0.00,VWS V14.01,2013-04-12 00:02:00,
2013-04-11 20:03:00,71.6,56.5,29.57,WSW,248,0.0,1.0,59,0.00,,---,0.00,0.00,VWS V14.01,2013-04-12 00:03:00,
2013-04-11 20:04:00,72.1,56.5,29.57,WSW,255,0.0,1.0,58,0.00,,---,0.00,0.00,VWS V14.01,2013-04-12 00:04:00,
2013-04-11 20:05:00,71.5,57.8,29.57,WSW,248,0.0,2.0,62,0.00,,---,0.00,0.00,VWS V14.01,2013-04-12 00:05:00,
2013-04-11 20:06:00,71.4,56.8,29.57,West,260,0.0,2.0,60,0.00,,---,0.00,0.00,VWS V14.01,2013-04-12 00:06:00,
2013-04-11 20:07:00,71.3,56.7,29.57,WSW,246,0.0,2.0,60,0.00,,---,0.00,0.00,VWS V14.01,2013-04-12 00:07:00,
2013-04-11 20:08:00,71.3,56.7,29.57,WSW,257,0.0,3.0,60,0.00,,---,0.00,0.00,VWS V14.01,2013-04-12 00:08:00,
2013-04-11 20:09:00,71.8,56.7,29.57,WSW,248,0.0,1.0,59,0.00,,---,0.00,0.00,VWS V14.01,2013-04-12 00:09:00,
2013-04-11 20:10:00,71.3,56.7,29.57,West,265,0.0,3.0,60,0.00,,---,0.00,0.00,VWS V14.01,2013-04-12 00:10:00,
2013-04-11 20:12:00,71.3,56.7,29.57,West,265,1.0,3.0,60,0.00,,---,0.00,0.00,VWS V14.01,2013-04-12 00:12:00,
2013-04-11 20:13:00,71.3,57.2,29.57,West,265,1.0,3.0,61,0.00,,---,0.00,0.00,VWS V14.01,2013-04-12 00:13:00,
2013-04-11 20:14:00,71.6,57.5,29.57,WSW,248,1.0,1.0,61,0.00,,---,0.00,0.00,VWS V14.01,2013-04-12 00:14:00,
2013-04-11 20:15:00,71.3,57.2,29.57,West,265,1.0,3.0,61,0.00,,---,0.00,0.00,VWS V14.01,2013-04-12 00:15:00,
2013-04-11 20:16:00,71.2,57.1,29.57,West,265,1.0,3.0,61,0.00,,---,0.00,0.00,VWS V14.01,2013-04-12 00:16:00,
2013-04-11 20:17:00,71.2,57.1,29.57,West,265,0.0,3.0,61,0.00,,---,0.00,0.00,VWS V14.01,2013-04-12 00:17:00,
2013-04-11 20:18:00,71.2,57.1,29.57,West,265,0.0,3.0,61,0.00,,---,0.00,0.00,VWS V14.01,2013-04-12 00:18:00,
2013-04-11 20:19:00,71.3,56.7,29.57,West,265,0.0,1.0,60,0.00,,---,0.00,0.00,VWS V14.01,2013-04-12 00:19:00,
2013-04-11 20:20:00,71.2,57.5,29.57,West,265,0.0,2.0,62,0.00,,---,0.00,0.00,VWS V14.01,2013-04-12 00:20:00,
2013-04-11 20:21:00,71.2,57.1,29.57,West,265,0.0,2.0,61,0.00,,---,0.00,0.00,VWS V14.01,2013-04-12 00:21:00,
2013-04-11 20:23:00,71.2,57.5,29.57,West,265,0.0,2.0,62,0.00,,---,0.00,0.00,VWS V14.01,2013-04-12 00:23:00,
2013-04-11 20:24:00,71.3,57.2,29.57,West,265,0.0,3.0,61,0.00,,---,0.00,0.00,VWS V14.01,2013-04-12 00:24:00,
2013-04-11 20:25:00,71.2,57.1,29.57,West,265,0.0,2.0,61,0.00,,---,0.00,0.00,VWS V14.01,2013-04-12 00:25:00,
2013-04-11 20:26:00,71.2,57.5,29.57,West,265,0.0,2.0,62,0.00,,---,0.00,0.00,VWS V14.01,2013-04-12 00:26:00,
2013-04-11 20:27:00,71.1,57.4,29.57,West,265,0.0,2.0,62,0.00,,---,0.00,0.00,VWS V14.01,2013-04-12 00:27:00,
2013-04-11 20:28:00,71.1,57.4,29.57,West,265,0.0,2.0,62,0.00,,---,0.00,0.00,VWS V14.01,2013-04-12 00:28:00,
2013-04-11 20:29:00,71.2,57.5,29.57,West,265,0.0,2.0,62,0.00,,---,0.00,0.00,VWS V14.01,2013-04-12 00:29:00,
2013-04-11 20:30:00,71.1,57.4,29.56,West,265,0.0,0.0,62,0.00,,---,0.00,0.00,VWS V14.01,2013-04-12 00:30:00,
2013-04-11 20:32:00,71.0,57.8,29.57,West,265,0.0,1.0,63,0.00,,---,0.00,0.00,VWS V14.01,2013-04-12 00:32:00,
2013-04-11 20:33:00,71.0,57.3,29.57,West,265,0.0,1.0,62,0.00,,---,0.00,0.00,VWS V14.01,2013-04-12 00:33:00,
2013-04-11 20:34:00,71.2,57.5,29.57,West,265,0.0,2.0,62,0.00,,---,0.00,0.00,VWS V14.01,2013-04-12 00:34:00,
2013-04-11 20:35:00,71.0,57.3,29.56,West,265,0.0,1.0,62,0.00,,---,0.00,0.00,VWS V14.01,2013-04-12 00:35:00,
2013-04-11 20:36:00,70.9,57.7,29.56,West,265,0.0,1.0,63,0.00,,---,0.00,0.00,VWS V14.01,2013-04-12 00:36:00,
2013-04-11 20:37:00,70.9,58.1,29.56,SW,223,0.0,6.0,64,0.00,,---,0.00,0.00,VWS V14.01,2013-04-12 00:37:00,
2013-04-11 20:38:00,70.9,58.1,29.56,SSW,213,0.0,6.0,64,0.00,,---,0.00,0.00,VWS V14.01,2013-04-12 00:38:00,
2013-04-11 20:39:00,71.1,57.4,29.56,West,265,0.0,0.0,62,0.00,,---,0.00,0.00,VWS V14.01,2013-04-12 00:39:00,
2013-04-11 20:40:00,70.8,58.5,29.56,SSW,213,0.0,1.0,65,0.00,,---,0.00,0.00,VWS V14.01,2013-04-12 00:40:00,
2013-04-11 20:43:00,70.7,58.4,29.57,NE,53,0.0,3.0,65,0.00,,---,0.00,0.00,VWS V14.01,2013-04-12 00:43:00,
2013-04-11 20:45:00,71.0,57.8,29.56,West,265,0.0,1.0,63,0.00,,---,0.00,0.00,VWS V14.01,2013-04-12 00:45:00,
2013-04-11 20:46:00,70.6,58.3,29.57,NE,54,1.0,3.0,65,0.00,,---,0.00,0.00,VWS V14.01,2013-04-12 00:46:00,
2013-04-11 20:47:00,70.6,58.3,29.57,NE,50,0.0,3.0,65,0.00,,---,0.00,0.00,VWS V14.01,2013-04-12 00:47:00,
2013-04-11 20:48:00,70.6,58.3,29.57,NE,49,0.0,3.0,65,0.00,,---,0.00,0.00,VWS V14.01,2013-04-12 00:48:00,
2013-04-11 20:49:00,70.7,58.8,29.57,NE,49,0.0,3.0,66,0.00,,---,0.00,0.00,VWS V14.01,2013-04-12 00:49:00,
2013-04-11 20:50:00,70.8,58.5,29.56,SW,215,3.0,3.0,65,0.00,,---,0.00,0.00,VWS V14.01,2013-04-12 00:50:00,
2013-04-11 20:51:00,70.7,58.4,29.57,NE,49,0.0,0.0,65,0.00,,---,0.00,0.00,VWS V14.01,2013-04-12 00:51:00,
2013-04-11 20:52:00,70.7,58.8,29.57,NE,49,0.0,0.0,66,0.00,,---,0.00,0.00,VWS V14.01,2013-04-12 00:52:00,
2013-04-11 20:53:00,70.7,58.8,29.57,NE,49,0.0,1.0,66,0.00,,---,0.00,0.00,VWS V14.01,2013-04-12 00:53:00,
2013-04-11 20:54:00,70.7,58.8,29.57,NE,49,0.0,1.0,66,0.00,,---,0.00,0.00,VWS V14.01,2013-04-12 00:54:00,
2013-04-11 20:55:00,70.6,58.7,29.57,NE,54,0.0,3.0,66,0.00,,---,0.00,0.00,VWS V14.01,2013-04-12 00:55:00,
2013-04-11 20:56:00,70.7,58.4,29.57,NE,49,0.0,1.0,65,0.00,,---,0.00,0.00,VWS V14.01,2013-04-12 00:56:00,
2013-04-11 20:57:00,70.6,58.3,29.57,NE,49,0.0,1.0,65,0.00,,---,0.00,0.00,VWS V14.01,2013-04-12 00:57:00,
2013-04-11 20:58:00,70.6,59.1,29.57,NE,49,0.0,1.0,67,0.00,,---,0.00,0.00,VWS V14.01,2013-04-12 00:58:00,
2013-04-11 20:59:00,70.6,59.1,29.57,NE,49,0.0,1.0,67,0.00,,---,0.00,0.00,VWS V14.01,2013-04-12 00:59:00,
2013-04-11 21:00:00,70.7,58.4,29.57,NE,49,0.0,0.0,65,0.00,,---,0.00,0.00,VWS V14.01,2013-04-12 01:00:00,
2013-04-11 21:02:00,70.3,61.6,29.57,NE,49,0.0,1.0,74,0.00,,---,0.00,0.00,VWS V14.01,2013-04-12 01:02:00,
2013-04-11 21:03:00,70.1,61.4,29.58,NE,53,0.0,2.0,74,0.01,,---,0.01,0.00,VWS V14.01,2013-04-12 01:03:00,
2013-04-11 21:04:00,69.8,61.2,29.58,NE,53,1.0,2.0,74,0.01,,---,0.01,0.00,VWS V14.01,2013-04-12 01:04:00,
2013-04-11 21:05:00,70.6,58.3,29.57,NE,49,0.0,1.0,65,0.00,,---,0.00,0.00,VWS V14.01,2013-04-12 01:05:00,
2013-04-11 21:07:00,69.1,60.5,29.57,ENE,65,0.0,3.0,74,0.01,,---,0.01,0.00,VWS V14.01,2013-04-12 01:07:00,
2013-04-11 21:08:00,68.9,61.0,29.58,South,184,3.0,3.0,76,0.01,,---,0.01,0.00,VWS V14.01,2013-04-12 01:08:00,
2013-04-11 21:09:00,68.6,60.7,29.58,South,184,0.0,3.0,76,0.01,,---,0.01,0.00,VWS V14.01,2013-04-12 01:09:00,
2013-04-11 21:10:00,70.5,60.3,29.57,NE,49,0.0,1.0,70,0.00,,---,0.00,0.00,VWS V14.01,2013-04-12 01:10:00,
2013-04-11 21:12:00,68.1,61.0,29.58,SSW,192,0.0,3.0,78,0.01,,---,0.01,0.00,VWS V14.01,2013-04-12 01:12:00,
2013-04-11 21:13:00,67.9,61.2,29.58,SSW,192,0.0,3.0,79,0.01,,---,0.01,0.00,VWS V14.01,2013-04-12 01:13:00,
2013-04-11 21:14:00,67.8,61.1,29.57,SSW,192,2.0,3.0,79,0.01,,---,0.01,0.00,VWS V14.01,2013-04-12 01:14:00,
2013-04-11 21:15:00,69.4,60.8,29.58,ENE,65,0.0,3.0,74,0.01,,---,0.01,0.00,VWS V14.01,2013-04-12 01:15:00,
2013-04-11 21:17:00,67.3,60.6,29.58,SSW,192,0.0,3.0,79,0.01,,---,0.01,0.00,VWS V14.01,2013-04-12 01:17:00,
2013-04-11 21:18:00,67.2,60.8,29.57,SSW,192,0.0,3.0,80,0.01,,---,0.01,0.00,VWS V14.01,2013-04-12 01:18:00,
2013-04-11 21:19:00,67.0,61.0,29.58,SSW,192,1.0,3.0,81,0.01,,---,0.01,0.00,VWS V14.01,2013-04-12 01:19:00,
2013-04-11 21:20:00,68.4,61.3,29.58,SSW,192,2.0,2.0,78,0.01,,---,0.01,0.00,VWS V14.01,2013-04-12 01:20:00,
2013-04-11 21:21:00,66.8,60.8,29.57,SSW,192,0.0,1.0,81,0.01,,---,0.01,0.00,VWS V14.01,2013-04-12 01:21:00,
2013-04-11 21:23:00,66.6,60.6,29.57,SSW,192,0.0,1.0,81,0.01,,---,0.01,0.00,VWS V14.01,2013-04-12 01:23:00,
2013-04-11 21:24:00,66.6,60.6,29.57,SSW,192,0.0,1.0,81,0.01,,---,0.01,0.00,VWS V14.01,2013-04-12 01:24:00,
2013-04-11 21:25:00,67.5,60.8,29.58,SSW,192,0.0,3.0,79,0.01,,---,0.01,0.00,VWS V14.01,2013-04-12 01:25:00,
2013-04-11 21:26:00,66.4,60.7,29.57,West,261,3.0,3.0,82,0.01,,---,0.01,0.00,VWS V14.01,2013-04-12 01:26:00,
2013-04-11 21:27:00,66.4,60.4,29.57,West,273,0.0,3.0,81,0.01,,---,0.01,0.00,VWS V14.01,2013-04-12 01:27:00,
2013-04-11 21:28:00,66.4,60.4,29.57,West,273,0.0,3.0,81,0.01,,---,0.01,0.00,VWS V14.01,2013-04-12 01:28:00,
2013-04-11 21:29:00,66.4,60.7,29.57,West,273,0.0,3.0,82,0.01,,---,0.01,0.00,VWS V14.01,2013-04-12 01:29:00,
2013-04-11 21:30:00,66.4,60.7,29.57,West,273,1.0,1.0,82,0.01,,---,0.01,0.00,VWS V14.01,2013-04-12 01:30:00,
2013-04-11 21:31:00,66.8,60.8,29.57,SSW,192,0.0,1.0,81,0.01,,---,0.01,0.00,VWS V14.01,2013-04-12 01:31:00,
2013-04-11 21:33:00,66.3,60.7,29.57,West,267,0.0,2.0,82,0.01,,---,0.01,0.00,VWS V14.01,2013-04-12 01:33:00,
2013-04-11 21:34:00,66.3,60.7,29.57,West,267,0.0,2.0,82,0.01,,---,0.01,0.00,VWS V14.01,2013-04-12 01:34:00,
2013-04-11 21:35:00,66.3,60.7,29.57,West,267,0.0,2.0,82,0.01,,---,0.01,0.00,VWS V14.01,2013-04-12 01:35:00,
2013-04-11 21:36:00,66.4,60.7,29.57,West,273,0.0,3.0,82,0.01,,---,0.01,0.00,VWS V14.01,2013-04-12 01:36:00,
2013-04-11 21:37:00,66.2,60.9,29.57,West,267,0.0,2.0,83,0.01,,---,0.01,0.00,VWS V14.01,2013-04-12 01:37:00,
2013-04-11 21:38:00,66.2,60.9,29.57,West,267,0.0,2.0,83,0.01,,---,0.01,0.00,VWS V14.01,2013-04-12 01:38:00,
2013-04-11 21:39:00,66.2,60.9,29.57,West,267,0.0,2.0,83,0.01,,---,0.01,0.00,VWS V14.01,2013-04-12 01:39:00,
2013-04-11 21:40:00,66.1,60.8,29.57,West,267,0.0,0.0,83,0.01,,---,0.01,0.00,VWS V14.01,2013-04-12 01:40:00,
2013-04-11 21:41:00,66.4,60.7,29.57,West,267,0.0,2.0,82,0.01,,---,0.01,0.00,VWS V14.01,2013-04-12 01:41:00,
2013-04-11 21:42:00,66.0,60.7,29.57,West,267,0.0,0.0,83,0.01,,---,0.01,0.00,VWS V14.01,2013-04-12 01:42:00,
2013-04-11 21:43:00,66.0,60.7,29.57,West,265,0.0,0.0,83,0.01,,---,0.01,0.00,VWS V14.01,2013-04-12 01:43:00,
2013-04-11 21:44:00,66.0,60.7,29.57,West,265,0.0,0.0,83,0.01,,---,0.01,0.00,VWS V14.01,2013-04-12 01:44:00,
2013-04-11 21:45:00,65.9,60.6,29.57,West,265,0.0,0.0,83,0.01,,---,0.01,0.00,VWS V14.01,2013-04-12 01:45:00,
2013-04-11 21:46:00,66.2,60.9,29.57,West,267,0.0,2.0,83,0.01,,---,0.01,0.00,VWS V14.01,2013-04-12 01:46:00,
2013-04-11 21:48:00,65.9,60.6,29.57,West,263,0.0,0.0,83,0.01,,---,0.01,0.00,VWS V14.01,2013-04-12 01:48:00,
2013-04-11 21:49:00,65.9,60.9,29.57,West,263,0.0,1.0,84,0.01,,---,0.01,0.00,VWS V14.01,2013-04-12 01:49:00,
2013-04-11 21:50:00,65.9,60.6,29.57,West,263,0.0,1.0,83,0.01,,---,0.01,0.00,VWS V14.01,2013-04-12 01:50:00,
2013-04-11 21:51:00,66.1,60.8,29.57,West,267,0.0,0.0,83,0.01,,---,0.01,0.00,VWS V14.01,2013-04-12 01:51:00,
2013-04-11 21:52:00,65.9,60.6,29.57,West,263,0.0,1.0,83,0.01,,---,0.01,0.00,VWS V14.01,2013-04-12 01:52:00,
2013-04-11 21:53:00,65.8,60.8,29.57,West,263,0.0,1.0,84,0.01,,---,0.01,0.00,VWS V14.01,2013-04-12 01:53:00,
2013-04-11 21:54:00,65.8,60.5,29.57,West,263,0.0,1.0,83,0.01,,---,0.01,0.00,VWS V14.01,2013-04-12 01:54:00,
2013-04-11 21:55:00,65.8,60.5,29.57,West,263,0.0,1.0,83,0.01,,---,0.01,0.00,VWS V14.01,2013-04-12 01:55:00,
2013-04-11 21:56:00,65.8,60.5,29.57,West,262,0.0,1.0,83,0.01,,---,0.01,0.00,VWS V14.01,2013-04-12 01:56:00,
2013-04-11 21:57:00,65.9,60.6,29.57,West,263,0.0,0.0,83,0.01,,---,0.01,0.00,VWS V14.01,2013-04-12 01:57:00,
2013-04-11 21:58:00,65.7,60.4,29.57,West,261,0.0,1.0,83,0.01,,---,0.01,0.00,VWS V14.01,2013-04-12 01:58:00,
2013-04-11 21:59:00,65.7,60.4,29.57,West,261,0.0,1.0,83,0.01,,---,0.01,0.00,VWS V14.01,2013-04-12 01:59:00,
2013-04-11 22:00:00,65.7,60.4,29.57,West,261,0.0,0.0,83,0.01,,---,0.01,0.00,VWS V14.01,2013-04-12 02:00:00,
2013-04-11 22:01:00,65.7,60.4,29.57,West,261,0.0,0.0,83,0.01,,---,0.01,0.00,VWS V14.01,2013-04-12 02:01:00,
2013-04-11 22:02:00,65.8,60.5,29.57,West,263,0.0,1.0,83,0.01,,---,0.01,0.00,VWS V14.01,2013-04-12 02:02:00,
2013-04-11 22:03:00,65.8,60.5,29.57,West,261,0.0,0.0,83,0.01,,---,0.01,0.00,VWS V14.01,2013-04-12 02:03:00,
2013-04-11 22:04:00,65.8,60.5,29.57,West,261,0.0,1.0,83,0.01,,---,0.01,0.00,VWS V14.01,2013-04-12 02:04:00,
2013-04-11 22:05:00,65.8,60.5,29.57,West,261,0.0,1.0,83,0.01,,---,0.01,0.00,VWS V14.01,2013-04-12 02:05:00,
2013-04-11 22:07:00,65.8,60.5,29.57,West,261,0.0,1.0,83,0.01,,---,0.01,0.00,VWS V14.01,2013-04-12 02:07:00,
2013-04-11 22:10:00,65.9,60.6,29.57,West,261,0.0,1.0,83,0.00,,---,0.01,0.00,VWS V14.01,2013-04-12 02:10:00,
2013-04-11 22:11:00,65.9,60.9,29.57,West,261,0.0,1.0,84,0.01,,---,0.02,0.00,VWS V14.01,2013-04-12 02:11:00,
2013-04-11 22:12:00,65.8,60.5,29.57,West,261,0.0,0.0,83,0.01,,---,0.01,0.00,VWS V14.01,2013-04-12 02:12:00,
2013-04-11 22:13:00,65.9,60.9,29.57,WSW,240,1.0,1.0,84,0.01,,---,0.02,0.00,VWS V14.01,2013-04-12 02:13:00,
2013-04-11 22:14:00,65.9,61.3,29.57,SW,232,1.0,3.0,85,0.02,,---,0.03,0.00,VWS V14.01,2013-04-12 02:14:00,
2013-04-11 22:15:00,65.9,61.3,29.57,SW,231,0.0,3.0,85,0.02,,---,0.03,0.00,VWS V14.01,2013-04-12 02:15:00,
2013-04-11 22:17:00,65.9,60.6,29.57,West,261,0.0,1.0,83,0.01,,---,0.01,0.00,VWS V14.01,2013-04-12 02:17:00,
2013-04-11 22:18:00,65.6,61.6,29.57,SW,218,0.0,3.0,87,0.03,,---,0.04,0.00,VWS V14.01,2013-04-12 02:18:00,
2013-04-11 22:19:00,65.5,61.5,29.57,SW,218,0.0,3.0,87,0.03,,---,0.04,0.00,VWS V14.01,2013-04-12 02:19:00,
2013-04-11 22:20:00,65.4,61.4,29.57,SW,218,0.0,0.0,87,0.03,,---,0.04,0.00,VWS V14.01,2013-04-12 02:20:00,
2013-04-11 22:22:00,65.2,61.6,29.57,SW,218,0.0,1.0,88,0.04,,---,0.05,0.00,VWS V14.01,2013-04-12 02:22:00,
2013-04-11 22:23:00,66.0,61.0,29.57,WSW,240,1.0,2.0,84,0.01,,---,0.02,0.00,VWS V14.01,2013-04-12 02:23:00,
2013-04-11 22:24:00,65.0,61.4,29.57,SW,218,2.0,2.0,88,0.05,,---,0.06,0.00,VWS V14.01,2013-04-12 02:24:00,
2013-04-11 22:25:00,64.9,61.6,29.57,SW,218,0.0,2.0,89,0.05,,---,0.06,0.00,VWS V14.01,2013-04-12 02:25:00,
2013-04-11 22:26:00,64.8,61.5,29.57,SW,218,0.0,2.0,89,0.05,,---,0.06,0.00,VWS V14.01,2013-04-12 02:26:00,
2013-04-11 22:27:00,64.7,61.4,29.57,SW,218,0.0,2.0,89,0.05,,---,0.06,0.00,VWS V14.01,2013-04-12 02:27:00,
2013-04-11 22:28:00,65.6,61.6,29.57,SW,218,0.0,3.0,87,0.03,,---,0.04,0.00,VWS V14.01,2013-04-12 02:28:00,
2013-04-11 22:29:00,64.5,61.2,29.57,SW,218,0.0,2.0,89,0.05,,---,0.06,0.00,VWS V14.01,2013-04-12 02:29:00,
2013-04-11 22:30:00,64.4,61.4,29.57,SW,218,0.0,0.0,90,0.05,,---,0.06,0.00,VWS V14.01,2013-04-12 02:30:00,
2013-04-11 22:31:00,64.4,61.4,29.57,SW,218,0.0,0.0,90,0.05,,---,0.06,0.00,VWS V14.01,2013-04-12 02:31:00,
2013-04-11 22:32:00,64.3,61.3,29.57,SW,218,0.0,1.0,90,0.05,,---,0.06,0.00,VWS V14.01,2013-04-12 02:32:00,
2013-04-11 22:33:00,65.1,61.5,29.57,SW,218,1.0,1.0,88,0.04,,---,0.05,0.00,VWS V14.01,2013-04-12 02:33:00,
2013-04-11 22:34:00,64.1,61.4,29.57,SW,218,0.0,1.0,91,0.05,,---,0.06,0.00,VWS V14.01,2013-04-12 02:34:00,
2013-04-11 22:35:00,64.1,61.4,29.57,SW,218,0.0,1.0,91,0.05,,---,0.06,0.00,VWS V14.01,2013-04-12 02:35:00,
2013-04-11 22:36:00,64.0,61.3,29.57,SW,218,0.0,1.0,91,0.05,,---,0.06,0.00,VWS V14.01,2013-04-12 02:36:00,
2013-04-11 22:37:00,64.0,61.3,29.57,SW,218,0.0,1.0,91,0.05,,---,0.06,0.00,VWS V14.01,2013-04-12 02:37:00,
2013-04-11 22:38:00,64.5,61.2,29.57,SW,218,0.0,2.0,89,0.05,,---,0.06,0.00,VWS V14.01,2013-04-12 02:38:00,
2013-04-11 22:39:00,63.9,61.2,29.57,SW,218,0.0,1.0,91,0.05,,---,0.06,0.00,VWS V14.01,2013-04-12 02:39:00,
2013-04-11 22:40:00,63.8,61.1,29.57,SW,218,0.0,0.0,91,0.05,,---,0.06,0.00,VWS V14.01,2013-04-12 02:40:00,
2013-04-11 22:41:00,63.8,61.4,29.57,SW,218,0.0,0.0,92,0.05,,---,0.06,0.00,VWS V14.01,2013-04-12 02:41:00,
2013-04-11 22:42:00,63.8,61.4,29.57,SW,218,0.0,0.0,92,0.06,,---,0.07,0.00,VWS V14.01,2013-04-12 02:42:00,
2013-04-11 22:43:00,64.2,61.2,29.57,SW,218,0.0,1.0,90,0.05,,---,0.06,0.00,VWS V14.01,2013-04-12 02:43:00,
2013-04-11 22:44:00,63.7,61.3,29.57,SW,218,0.0,0.0,92,0.06,,---,0.07,0.00,VWS V14.01,2013-04-12 02:44:00,
2013-04-11 22:45:00,63.7,61.3,29.57,SW,218,0.0,0.0,92,0.06,,---,0.07,0.00,VWS V14.01,2013-04-12 02:45:00,
2013-04-11 22:46:00,63.6,61.2,29.57,SW,218,0.0,1.0,92,0.06,,---,0.07,0.00,VWS V14.01,2013-04-12 02:46:00,
2013-04-11 22:47:00,63.6,61.2,29.57,SW,218,0.0,1.0,92,0.06,,---,0.07,0.00,VWS V14.01,2013-04-12 02:47:00,
2013-04-11 22:48:00,63.6,61.2,29.57,SW,218,0.0,1.0,92,0.06,,---,0.07,0.00,VWS V14.01,2013-04-12 02:48:00,
2013-04-11 22:49:00,63.9,61.2,29.57,SW,218,0.0,1.0,91,0.05,,---,0.06,0.00,VWS V14.01,2013-04-12 02:49:00,
2013-04-11 22:50:00,63.5,61.1,29.57,SW,218,0.0,1.0,92,0.06,,---,0.07,0.00,VWS V14.01,2013-04-12 02:50:00,
2013-04-11 22:51:00,63.5,61.1,29.57,SW,218,0.0,1.0,92,0.06,,---,0.07,0.00,VWS V14.01,2013-04-12 02:51:00,
2013-04-11 22:53:00,63.4,61.0,29.57,SW,218,0.0,1.0,92,0.06,,---,0.07,0.00,VWS V14.01,2013-04-12 02:53:00,
2013-04-11 22:54:00,63.7,61.3,29.57,SW,218,0.0,0.0,92,0.06,,---,0.07,0.00,VWS V14.01,2013-04-12 02:54:00,
2013-04-11 22:55:00,63.4,61.3,29.57,SW,218,0.0,1.0,93,0.06,,---,0.07,0.00,VWS V14.01,2013-04-12 02:55:00,
2013-04-11 22:56:00,63.4,61.3,29.57,SW,218,0.0,1.0,93,0.06,,---,0.07,0.00,VWS V14.01,2013-04-12 02:56:00,
2013-04-11 22:57:00,63.4,61.3,29.57,SW,218,0.0,1.0,93,0.06,,---,0.07,0.00,VWS V14.01,2013-04-12 02:57:00,
2013-04-11 22:58:00,63.5,61.4,29.57,SW,218,2.0,2.0,93,0.07,,---,0.08,0.00,VWS V14.01,2013-04-12 02:58:00,
2013-04-11 22:59:00,63.5,61.1,29.57,SW,218,0.0,0.0,92,0.06,,---,0.07,0.00,VWS V14.01,2013-04-12 02:59:00,
2013-04-11 23:00:00,63.5,61.4,29.58,SW,218,0.0,1.0,93,0.07,,---,0.08,0.00,VWS V14.01,2013-04-12 03:00:00,
2013-04-11 23:01:00,63.4,61.3,29.58,SW,218,0.0,1.0,93,0.08,,---,0.09,0.00,VWS V14.01,2013-04-12 03:01:00,
2013-04-11 23:02:00,63.5,61.4,29.58,SW,218,0.0,1.0,93,0.08,,---,0.09,0.00,VWS V14.01,2013-04-12 03:02:00,
2013-04-11 23:03:00,63.4,61.3,29.58,SW,218,0.0,1.0,93,0.09,,---,0.10,0.00,VWS V14.01,2013-04-12 03:03:00,
2013-04-11 23:04:00,63.4,61.3,29.57,SW,218,0.0,1.0,93,0.06,,---,0.07,0.00,VWS V14.01,2013-04-12 03:04:00,
2013-04-11 23:05:00,63.4,61.3,29.57,SW,218,0.0,2.0,93,0.10,,---,0.11,0.00,VWS V14.01,2013-04-12 03:05:00,
2013-04-11 23:06:00,63.4,61.3,29.57,SW,218,0.0,2.0,93,0.11,,---,0.12,0.00,VWS V14.01,2013-04-12 03:06:00,
2013-04-11 23:07:00,63.4,61.7,29.57,SW,218,0.0,2.0,94,0.12,,---,0.13,0.00,VWS V14.01,2013-04-12 03:07:00,
2013-04-11 23:08:00,63.3,61.5,29.57,SW,218,0.0,2.0,94,0.12,,---,0.13,0.00,VWS V14.01,2013-04-12 03:08:00,
2013-04-11 23:09:00,63.5,61.4,29.58,SW,218,0.0,1.0,93,0.07,,---,0.08,0.00,VWS V14.01,2013-04-12 03:09:00,
2013-04-11 23:11:00,63.3,61.5,29.57,SW,218,0.0,0.0,94,0.14,,---,0.15,0.00,VWS V14.01,2013-04-12 03:11:00,
2013-04-11 23:12:00,63.3,61.5,29.57,SW,218,0.0,0.0,94,0.15,,---,0.16,0.00,VWS V14.01,2013-04-12 03:12:00,
2013-04-11 23:13:00,63.3,61.5,29.57,SW,218,0.0,0.0,94,0.15,,---,0.16,0.00,VWS V14.01,2013-04-12 03:13:00,
2013-04-11 23:14:00,63.4,61.3,29.57,SW,218,0.0,2.0,93,0.10,,---,0.11,0.00,VWS V14.01,2013-04-12 03:14:00,
2013-04-11 23:16:00,63.3,61.5,29.57,SW,218,0.0,1.0,94,0.17,,---,0.18,0.00,VWS V14.01,2013-04-12 03:16:00,
2013-04-11 23:17:00,63.3,61.5,29.57,SW,218,2.0,2.0,94,0.18,,---,0.19,0.00,VWS V14.01,2013-04-12 03:17:00,
2013-04-11 23:18:00,63.3,61.5,29.58,SW,218,1.0,3.0,94,0.19,,---,0.20,0.00,VWS V14.01,2013-04-12 03:18:00,
2013-04-11 23:19:00,63.3,61.5,29.57,SW,218,0.0,0.0,94,0.13,,---,0.14,0.00,VWS V14.01,2013-04-12 03:19:00,
2013-04-11 23:20:00,63.3,61.5,29.58,WSW,244,2.0,3.0,94,0.17,,---,0.21,0.00,VWS V14.01,2013-04-12 03:20:00,
2013-04-11 23:21:00,63.2,61.5,29.59,WSW,244,0.0,3.0,94,0.17,,---,0.21,0.00,VWS V14.01,2013-04-12 03:21:00,
2013-04-11 23:22:00,63.2,61.5,29.59,WSW,244,0.0,3.0,94,0.17,,---,0.21,0.00,VWS V14.01,2013-04-12 03:22:00,
2013-04-11 23:23:00,63.2,61.5,29.59,WSW,244,0.0,3.0,94,0.18,,---,0.22,0.00,VWS V14.01,2013-04-12 03:23:00,
2013-04-11 23:24:00,63.3,61.5,29.57,SW,218,0.0,1.0,94,0.16,,---,0.17,0.00,VWS V14.01,2013-04-12 03:24:00,
2013-04-11 23:26:00,63.2,61.8,29.59,WSW,247,12.0,15.0,95,0.20,,---,0.24,0.00,VWS V14.01,2013-04-12 03:26:00,
2013-04-11 23:28:00,62.9,61.2,29.59,SW,224,5.0,15.0,94,0.21,,---,0.25,0.00,VWS V14.01,2013-04-12 03:28:00,
2013-04-11 23:29:00,63.3,61.5,29.58,WSW,242,2.0,3.0,94,0.16,,---,0.20,0.00,VWS V14.01,2013-04-12 03:29:00,
2013-04-11 23:30:00,62.8,61.0,29.59,WSW,247,4.0,10.0,94,0.21,,---,0.27,0.00,VWS V14.01,2013-04-12 03:30:00,
2013-04-11 23:31:00,62.7,61.0,29.59,WSW,243,5.0,18.0,94,0.21,,---,0.27,0.00,VWS V14.01,2013-04-12 03:31:00,
2013-04-11 23:32:00,62.6,60.8,29.59,WSW,253,4.0,18.0,94,0.22,,---,0.28,0.00,VWS V14.01,2013-04-12 03:32:00,
2013-04-11 23:33:00,62.5,60.8,29.59,SW,234,3.0,18.0,94,0.22,,---,0.28,0.00,VWS V14.01,2013-04-12 03:33:00,
2013-04-11 23:34:00,63.2,61.8,29.59,WSW,237,2.0,5.0,95,0.20,,---,0.24,0.00,VWS V14.01,2013-04-12 03:34:00,
2013-04-11 23:35:00,62.2,60.5,29.59,SW,226,9.0,18.0,94,0.23,,---,0.30,0.00,VWS V14.01,2013-04-12 03:35:00,
2013-04-11 23:36:00,62.0,60.3,29.59,SW,223,10.0,18.0,94,0.24,,---,0.30,0.00,VWS V14.01,2013-04-12 03:36:00,
2013-04-11 23:37:00,61.9,60.2,29.59,WSW,252,5.0,18.0,94,0.24,,---,0.30,0.00,VWS V14.01,2013-04-12 03:37:00,
2013-04-11 23:38:00,61.7,60.0,29.59,WSW,252,6.0,18.0,94,0.25,,---,0.31,0.00,VWS V14.01,2013-04-12 03:38:00,
2013-04-11 23:39:00,62.8,61.0,29.59,WSW,254,5.0,10.0,94,0.20,,---,0.26,0.00,VWS V14.01,2013-04-12 03:39:00,
2013-04-11 23:40:00,61.5,59.8,29.59,WSW,239,11.0,13.0,94,0.26,,---,0.32,0.00,VWS V14.01,2013-04-12 03:40:00,
2013-04-11 23:41:00,61.3,59.6,29.60,West,272,9.0,13.0,94,0.26,,---,0.32,0.00,VWS V14.01,2013-04-12 03:41:00,
2013-04-11 23:42:00,61.3,59.6,29.60,WSW,254,7.0,13.0,94,0.27,,---,0.33,0.00,VWS V14.01,2013-04-12 03:42:00,
2013-04-11 23:43:00,61.2,59.5,29.60,West,278,7.0,20.0,94,0.28,,---,0.34,0.00,VWS V14.01,2013-04-12 03:43:00,
2013-04-11 23:44:00,62.3,60.6,29.59,SSW,212,9.0,18.0,94,0.23,,---,0.29,0.00,VWS V14.01,2013-04-12 03:44:00,
2013-04-11 23:45:00,61.1,59.4,29.62,SSW,203,5.0,20.0,94,0.29,,---,0.35,0.00,VWS V14.01,2013-04-12 03:45:00,
2013-04-11 23:46:00,61.1,59.4,29.62,SW,235,6.0,20.0,94,0.29,,---,0.35,0.00,VWS V14.01,2013-04-12 03:46:00,
2013-04-11 23:47:00,61.0,59.6,29.63,SSW,207,4.0,20.0,95,0.30,,---,0.36,0.00,VWS V14.01,2013-04-12 03:47:00,
2013-04-11 23:48:00,61.0,59.6,29.63,SW,221,0.0,20.0,95,0.30,,---,0.36,0.00,VWS V14.01,2013-04-12 03:48:00,
2013-04-11 23:49:00,61.5,59.8,29.59,SW,229,9.0,13.0,94,0.26,,---,0.32,0.00,VWS V14.01,2013-04-12 03:49:00,
2013-04-11 23:50:00,61.0,59.6,29.64,SW,227,0.0,1.0,95,0.30,,---,0.37,0.00,VWS V14.01,2013-04-12 03:50:00,
2013-04-11 23:51:00,61.0,59.6,29.63,SW,227,0.0,1.0,95,0.31,,---,0.38,0.00,VWS V14.01,2013-04-12 03:51:00,
2013-04-11 23:52:00,61.0,59.6,29.63,SW,233,2.0,9.0,95,0.31,,---,0.38,0.00,VWS V14.01,2013-04-12 03:52:00,
2013-04-11 23:53:00,61.1,59.7,29.63,WSW,248,5.0,9.0,95,0.32,,---,0.39,0.00,VWS V14.01,2013-04-12 03:53:00,
2013-04-11 23:54:00,61.1,59.4,29.62,SSW,200,5.0,20.0,94,0.28,,---,0.34,0.00,VWS V14.01,2013-04-12 03:54:00,
2013-04-11 23:56:00,61.1,59.7,29.62,SW,216,2.0,9.0,95,0.33,,---,0.40,0.00,VWS V14.01,2013-04-12 03:56:00,
2013-04-11 23:57:00,61.1,59.7,29.62,SW,216,1.0,9.0,95,0.34,,---,0.41,0.00,VWS V14.01,2013-04-12 03:57:00,
2013-04-11 23:58:00,61.1,59.7,29.62,West,265,1.0,9.0,95,0.34,,---,0.41,0.00,VWS V14.01,2013-04-12 03:58:00,
2013-04-11 23:59:00,61.0,59.6,29.62,NW,305,2.0,9.0,95,0.35,,---,0.42,0.00,VWS V14.01,2013-04-12 03:59:00,